Hoppmann, Mario; Tippenhauer, Sandra; Lahajnar, Niko (2026): Continuous thermosalinograph oceanography along RV HEINCKE cruise track HE661 [dataset]. Alfred Wegener Institute, Helmholtz Centre for Polar and Marine Research, Bremerhaven, PANGAEA, https://doi.pangaea.de/10.1594/PANGAEA.993558 (DOI registration in progress)
Always quote citation above when using data! You can download the citation in several formats below.
Published: 2026-05-05
Abstract:
Raw data acquired by a thermosalinograph (SBE21, Sea-Bird GmbH) in combination with an external temperature sensor (SBE38, Sea-Bird GmbH) aboard RV Heincke were processed to generate a calibrated, quality-controlled dataset of seawater temperature and salinity. The raw sensor data were initially retrieved from the DSHIP database (https://dship.awi.de) at a temporal resolution of 1 second and converted into temperature and conductivity using the pre-deployment calibration coefficients. The thermosalinograph system aboard RV Heincke is typically replaced after each expedition season, with a recalibration conducted at the manufacturer's facilities after each exchange. After post-cruise recalibration of the instruments, additional correction factors were calculated and applied to account for sensor drift. Salinity was calculated from internally measured temperatures and conductivities following the Practical Salinity Scale (PSS-78). The processed dataset is provided as 1-minute averages of salinity and seawater external temperature, synchronized with the positional data from the expedition's master track. Quality flags were assigned in accordance with the SeaDataNet Data Quality Control Procedures (May 2010).
Related to:
Lahajnar, Niko (2025): Master tracks in different resolutions of HEINCKE cruise HE661, Bremerhaven - Bremerhaven, 2025-05-15 - 2025-05-21 [dataset]. Alfred Wegener Institute, Helmholtz Centre for Polar and Marine Research, Bremerhaven, PANGAEA, https://doi.org/10.1594/PANGAEA.982968
Lahajnar, Niko; Grolms, Nele; Hierlemann, Tim; Kast, Jakob; Lewe, Julia; Lüdmann, Thomas; Papke, Giulia; Pierau, Emily; Röschmann, Liza; Schulz, Gesa; Suchau, Caroline; Szuba, Malgorzata (2025): Marine-Geological Practical Training at Sea, Master Course LV 63-345, Cruise No. HE661, May 15 - May 21, 2025, Bremerhaven (Germany) – Bremerhaven (Germany). HEINCKE-Berichte, Begutachtungspanel Forschungsschiffe, HE661, 77 pp, https://doi.org/10.48433/cr_he661
Data processing report:
Hoppmann, Mario; Tippenhauer, Sandra (2026): Continuous thermosalinograph oceanography along RV HEINCKE cruise track HE661 - Data Processing Report. FIELAX - Gesellschaft für wissenschaftliche Datenverarbeitung mbH, HE661_TSG_nav.pdf
Project(s):
DAM Underway Research Data (DAM_Underway)
Physical Oceanography @ AWI (AWI_PhyOce)
Coverage:
Median Latitude: 56.359629 * Median Longitude: 4.375934 * South-bound Latitude: 53.851005 * West-bound Longitude: 2.835925 * North-bound Latitude: 57.738318 * East-bound Longitude: 8.120674
Date/Time Start: 2025-05-15T08:39:00 * Date/Time End: 2025-05-21T03:15:00
Minimum DEPTH, water: 2.0 m * Maximum DEPTH, water: 2.0 m
Event(s):
HE661_0_Underway-6 * Latitude Start: 53.892617 * Longitude Start: 8.066983 * Latitude End: 53.845984 * Longitude End: 8.115790 * Date/Time Start: 2025-05-15T08:39:50 * Date/Time End: 2025-05-21T03:16:55 * Elevation Start: -10.0 m * Elevation End: -11.0 m * O2A Registry URI: https://registry.o2a-data.de/items/8558 * Campaign: HE661 (UHH MARGEO) * Basis: Heincke * Method/Device: Thermosalinograph (TSG)
Parameter(s):
License:
Creative Commons Attribution 4.0 International (CC-BY-4.0)
Status:
Curation Level: Enhanced curation (CurationLevelC) * Processing Level: PANGAEA data processing level 2 (ProcLevel2)
Size:
47004 data points
Data
| 1 Date/Time | 2 Latitude | 3 Longitude | 4 Depth water [m] | 5 Temp [°C] | 6 QF water temp | 7 Cond [mS/cm] | 8 T intern [°C] | 9 Sal | 10 QF sal |
|---|---|---|---|---|---|---|---|---|---|
| 2025-05-15T08:39:00 | 53.891619 | 8.069987 | 2.0 | 12.884 | 2 | 37.058 | 13.140 | 31.181 | 2 |
| 2025-05-15T08:40:00 | 53.892714 | 8.066592 | 2.0 | 12.777 | 2 | 37.067 | 13.067 | 31.250 | 2 |
| 2025-05-15T08:41:00 | 53.893786 | 8.063219 | 2.0 | 12.837 | 2 | 37.056 | 12.977 | 31.314 | 2 |
| 2025-05-15T08:42:00 | 53.894863 | 8.059911 | 2.0 | 12.874 | 2 | 37.119 | 13.022 | 31.336 | 2 |
| 2025-05-15T08:43:00 | 53.895900 | 8.056655 | 2.0 | 12.840 | 2 | 37.172 | 13.050 | 31.362 | 2 |
| 2025-05-15T08:44:00 | 53.896886 | 8.053405 | 2.0 | 12.766 | 2 | 37.166 | 13.004 | 31.395 | 2 |
| 2025-05-15T08:45:00 | 53.897927 | 8.050139 | 2.0 | 12.720 | 2 | 37.133 | 12.935 | 31.421 | 2 |
| 2025-05-15T08:46:00 | 53.898930 | 8.046784 | 2.0 | 12.665 | 2 | 37.105 | 12.873 | 31.446 | 2 |
| 2025-05-15T08:47:00 | 53.899967 | 8.043442 | 2.0 | 12.591 | 2 | 37.093 | 12.826 | 31.474 | 2 |
| 2025-05-15T08:48:00 | 53.901212 | 8.040376 | 2.0 | 12.496 | 2 | 37.057 | 12.732 | 31.518 | 2 |
| 2025-05-15T08:49:00 | 53.902555 | 8.037410 | 2.0 | 12.470 | 2 | 37.038 | 12.679 | 31.545 | 2 |
| 2025-05-15T08:50:00 | 53.903846 | 8.034419 | 2.0 | 12.429 | 2 | 37.035 | 12.639 | 31.575 | 2 |
| 2025-05-15T08:51:00 | 53.905192 | 8.031324 | 2.0 | 12.422 | 2 | 37.045 | 12.623 | 31.598 | 2 |
| 2025-05-15T08:52:00 | 53.906565 | 8.028284 | 2.0 | 12.369 | 2 | 37.039 | 12.581 | 31.628 | 2 |
| 2025-05-15T08:53:00 | 53.907877 | 8.025269 | 2.0 | 12.376 | 2 | 37.024 | 12.551 | 31.639 | 2 |
| 2025-05-15T08:54:00 | 53.909246 | 8.022238 | 2.0 | 12.364 | 2 | 37.021 | 12.557 | 31.631 | 2 |
| 2025-05-15T08:55:00 | 53.910579 | 8.019226 | 2.0 | 12.346 | 2 | 37.014 | 12.543 | 31.636 | 2 |
| 2025-05-15T08:56:00 | 53.911942 | 8.016178 | 2.0 | 12.271 | 2 | 37.009 | 12.516 | 31.654 | 2 |
| 2025-05-15T08:57:00 | 53.913333 | 8.013033 | 2.0 | 12.193 | 2 | 37.014 | 12.444 | 31.719 | 2 |
| 2025-05-15T08:58:00 | 53.914730 | 8.009884 | 2.0 | 12.110 | 2 | 36.998 | 12.366 | 31.770 | 2 |
| 2025-05-15T08:59:00 | 53.916061 | 8.006788 | 2.0 | 11.960 | 2 | 36.976 | 12.280 | 31.822 | 2 |
| 2025-05-15T09:00:00 | 53.917455 | 8.003688 | 2.0 | 11.792 | 2 | 36.907 | 12.117 | 31.894 | 2 |
| 2025-05-15T09:01:00 | 53.918829 | 8.000584 | 2.0 | 11.604 | 2 | 36.855 | 11.940 | 31.996 | 2 |
| 2025-05-15T09:02:00 | 53.920117 | 7.997604 | 2.0 | 11.536 | 2 | 36.788 | 11.780 | 32.069 | 2 |
| 2025-05-15T09:03:00 | 53.921470 | 7.994603 | 2.0 | 11.512 | 2 | 36.758 | 11.716 | 32.095 | 2 |
| 2025-05-15T09:04:00 | 53.922877 | 7.991543 | 2.0 | 11.454 | 2 | 36.752 | 11.686 | 32.115 | 2 |
| 2025-05-15T09:05:00 | 53.924256 | 7.988484 | 2.0 | 11.239 | 2 | 36.702 | 11.569 | 32.168 | 2 |
| 2025-05-15T09:06:00 | 53.925993 | 7.985965 | 2.0 | 11.275 | 2 | 36.644 | 11.472 | 32.196 | 2 |
| 2025-05-15T09:07:00 | 53.928088 | 7.984361 | 2.0 | 11.346 | 2 | 36.659 | 11.482 | 32.202 | 2 |
| 2025-05-15T09:08:00 | 53.930309 | 7.983023 | 2.0 | 11.309 | 2 | 36.678 | 11.502 | 32.203 | 2 |
| 2025-05-15T09:09:00 | 53.932580 | 7.981966 | 2.0 | 11.239 | 2 | 36.672 | 11.480 | 32.216 | 2 |
| 2025-05-15T09:10:00 | 53.934854 | 7.980948 | 2.0 | 11.127 | 2 | 36.653 | 11.427 | 32.244 | 2 |
| 2025-05-15T09:11:00 | 53.937148 | 7.979970 | 2.0 | 10.868 | 2 | 36.608 | 11.291 | 32.318 | 2 |
| 2025-05-15T09:12:00 | 53.939495 | 7.978947 | 2.0 | 10.797 | 2 | 36.504 | 11.075 | 32.406 | 2 |
| 2025-05-15T09:13:00 | 53.941810 | 7.977869 | 2.0 | 10.778 | 2 | 36.441 | 10.984 | 32.424 | 2 |
| 2025-05-15T09:14:00 | 53.944136 | 7.976857 | 2.0 | 10.734 | 2 | 36.419 | 10.952 | 32.430 | 2 |
| 2025-05-15T09:15:00 | 53.946476 | 7.975805 | 2.0 | 10.731 | 2 | 36.403 | 10.922 | 32.441 | 2 |
| 2025-05-15T09:16:00 | 53.948868 | 7.974751 | 2.0 | 10.749 | 2 | 36.400 | 10.917 | 32.443 | 2 |
| 2025-05-15T09:17:00 | 53.951332 | 7.973663 | 2.0 | 10.767 | 2 | 36.416 | 10.938 | 32.440 | 2 |
| 2025-05-15T09:18:00 | 53.953769 | 7.972595 | 2.0 | 10.738 | 2 | 36.417 | 10.940 | 32.439 | 2 |
| 2025-05-15T09:19:00 | 53.956115 | 7.971497 | 2.0 | 10.718 | 2 | 36.396 | 10.914 | 32.441 | 2 |
| 2025-05-15T09:20:00 | 53.958501 | 7.970394 | 2.0 | 10.385 | 2 | 36.368 | 10.831 | 32.487 | 2 |
| 2025-05-15T09:21:00 | 53.960881 | 7.969287 | 2.0 | 10.387 | 2 | 36.215 | 10.606 | 32.535 | 2 |
| 2025-05-15T09:22:00 | 53.963245 | 7.968227 | 2.0 | 10.455 | 2 | 36.165 | 10.598 | 32.492 | 2 |
| 2025-05-15T09:23:00 | 53.965624 | 7.967128 | 2.0 | 10.504 | 2 | 36.130 | 10.653 | 32.408 | 2 |
| 2025-05-15T09:24:00 | 53.967971 | 7.966073 | 2.0 | 10.548 | 2 | 36.114 | 10.701 | 32.350 | 2 |
| 2025-05-15T09:25:00 | 53.970268 | 7.964993 | 2.0 | 10.560 | 2 | 36.105 | 10.737 | 32.309 | 2 |
| 2025-05-15T09:26:00 | 53.972622 | 7.963925 | 2.0 | 10.599 | 2 | 36.092 | 10.759 | 32.276 | 2 |
| 2025-05-15T09:27:00 | 53.975013 | 7.962853 | 2.0 | 10.627 | 2 | 36.082 | 10.792 | 32.237 | 2 |
| 2025-05-15T09:28:00 | 53.977339 | 7.961813 | 2.0 | 10.667 | 2 | 36.063 | 10.814 | 32.199 | 2 |
| 2025-05-15T09:29:00 | 53.979690 | 7.960770 | 2.0 | 10.713 | 2 | 36.052 | 10.857 | 32.151 | 2 |
| 2025-05-15T09:30:00 | 53.982137 | 7.960100 | 2.0 | 10.741 | 2 | 36.052 | 10.896 | 32.116 | 2 |
| 2025-05-15T09:31:00 | 53.984528 | 7.959349 | 2.0 | 10.814 | 2 | 36.053 | 10.934 | 32.084 | 2 |
| 2025-05-15T09:32:00 | 53.986938 | 7.958611 | 2.0 | 10.890 | 2 | 36.064 | 11.006 | 32.032 | 2 |
| 2025-05-15T09:33:00 | 53.989335 | 7.957922 | 2.0 | 10.982 | 2 | 36.068 | 11.081 | 31.971 | 2 |
| 2025-05-15T09:34:00 | 53.991702 | 7.957248 | 2.0 | 11.073 | 2 | 36.071 | 11.176 | 31.891 | 2 |
| 2025-05-15T09:35:00 | 53.994126 | 7.956619 | 2.0 | 11.185 | 2 | 36.072 | 11.265 | 31.815 | 2 |
| 2025-05-15T09:36:00 | 53.996515 | 7.955982 | 2.0 | 11.216 | 2 | 36.067 | 11.362 | 31.727 | 2 |
| 2025-05-15T09:37:00 | 53.998898 | 7.955353 | 2.0 | 11.176 | 2 | 36.027 | 11.385 | 31.668 | 2 |
| 2025-05-15T09:38:00 | 54.001194 | 7.954674 | 2.0 | 11.201 | 2 | 35.980 | 11.361 | 31.643 | 2 |
| 2025-05-15T09:39:00 | 54.003543 | 7.954028 | 2.0 | 11.185 | 2 | 35.983 | 11.378 | 31.631 | 2 |
| 2025-05-15T09:40:00 | 54.005961 | 7.953350 | 2.0 | 11.215 | 2 | 35.936 | 11.370 | 31.592 | 2 |
| 2025-05-15T09:41:00 | 54.008424 | 7.952754 | 2.0 | 11.266 | 2 | 35.928 | 11.407 | 31.552 | 2 |
| 2025-05-15T09:42:00 | 54.010793 | 7.952098 | 2.0 | 11.340 | 2 | 35.943 | 11.456 | 31.525 | 2 |
| 2025-05-15T09:43:00 | 54.013076 | 7.951506 | 2.0 | 11.386 | 2 | 35.906 | 11.519 | 31.436 | 2 |
| 2025-05-15T09:44:00 | 54.015241 | 7.950822 | 2.0 | 11.453 | 2 | 35.889 | 11.582 | 31.366 | 2 |
| 2025-05-15T09:45:00 | 54.017463 | 7.950293 | 2.0 | 11.474 | 2 | 35.877 | 11.633 | 31.311 | 2 |
| 2025-05-15T09:46:00 | 54.019695 | 7.949675 | 2.0 | 11.575 | 2 | 35.861 | 11.667 | 31.267 | 2 |
| 2025-05-15T09:47:00 | 54.021962 | 7.949036 | 2.0 | 11.629 | 2 | 35.856 | 11.755 | 31.188 | 2 |
| 2025-05-15T09:48:00 | 54.024204 | 7.948466 | 2.0 | 11.682 | 2 | 35.848 | 11.813 | 31.132 | 2 |
| 2025-05-15T09:49:00 | 54.026457 | 7.947826 | 2.0 | 11.709 | 2 | 35.840 | 11.858 | 31.086 | 2 |
| 2025-05-15T09:50:00 | 54.028711 | 7.947283 | 2.0 | 11.715 | 2 | 35.830 | 11.878 | 31.060 | 2 |
| 2025-05-15T09:51:00 | 54.030944 | 7.946612 | 2.0 | 11.814 | 2 | 35.813 | 11.903 | 31.023 | 2 |
| 2025-05-15T09:52:00 | 54.033196 | 7.945926 | 2.0 | 11.855 | 2 | 35.815 | 11.996 | 30.947 | 2 |
| 2025-05-15T09:53:00 | 54.035500 | 7.945342 | 2.0 | 11.819 | 2 | 35.807 | 12.022 | 30.918 | 2 |
| 2025-05-15T09:54:00 | 54.037792 | 7.944716 | 2.0 | 11.858 | 2 | 35.789 | 12.001 | 30.918 | 2 |
| 2025-05-15T09:55:00 | 54.040101 | 7.944075 | 2.0 | 11.842 | 2 | 35.787 | 12.029 | 30.893 | 2 |
| 2025-05-15T09:56:00 | 54.042438 | 7.943465 | 2.0 | 11.820 | 2 | 35.781 | 12.015 | 30.899 | 2 |
| 2025-05-15T09:57:00 | 54.044837 | 7.942846 | 2.0 | 11.852 | 2 | 35.794 | 12.002 | 30.922 | 2 |
| 2025-05-15T09:58:00 | 54.047208 | 7.942218 | 2.0 | 11.832 | 2 | 35.830 | 12.019 | 30.943 | 2 |
| 2025-05-15T09:59:00 | 54.049570 | 7.941595 | 2.0 | 11.855 | 2 | 35.830 | 12.016 | 30.945 | 2 |
| 2025-05-15T10:00:00 | 54.051838 | 7.940955 | 2.0 | 11.882 | 2 | 35.835 | 12.035 | 30.934 | 2 |
| 2025-05-15T10:01:00 | 54.054114 | 7.940362 | 2.0 | 11.866 | 2 | 35.849 | 12.053 | 30.933 | 2 |
| 2025-05-15T10:02:00 | 54.056382 | 7.939724 | 2.0 | 11.866 | 2 | 35.845 | 12.041 | 30.939 | 2 |
| 2025-05-15T10:03:00 | 54.058664 | 7.939152 | 2.0 | 11.886 | 2 | 35.830 | 12.046 | 30.920 | 2 |
| 2025-05-15T10:04:00 | 54.061012 | 7.938515 | 2.0 | 11.904 | 2 | 35.826 | 12.060 | 30.905 | 2 |
| 2025-05-15T10:05:00 | 54.063346 | 7.937876 | 2.0 | 11.915 | 2 | 35.834 | 12.082 | 30.894 | 2 |
| 2025-05-15T10:06:00 | 54.065727 | 7.937208 | 2.0 | 11.920 | 2 | 35.843 | 12.087 | 30.899 | 2 |
| 2025-05-15T10:07:00 | 54.068118 | 7.936621 | 2.0 | 11.937 | 2 | 35.847 | 12.096 | 30.895 | 2 |
| 2025-05-15T10:08:00 | 54.070065 | 7.936216 | 2.0 | 11.946 | 2 | 35.852 | 12.113 | 30.886 | 2 |
| 2025-05-15T10:09:00 | 54.071614 | 7.935833 | 2.0 | 11.964 | 2 | 35.850 | 12.126 | 30.873 | 2 |
| 2025-05-15T10:10:00 | 54.073008 | 7.935388 | 2.0 | 11.915 | 2 | 35.861 | 12.133 | 30.878 | 2 |
| 2025-05-15T10:11:00 | 54.074440 | 7.934980 | 2.0 | 11.907 | 2 | 35.847 | 12.089 | 30.901 | 2 |
| 2025-05-15T10:12:00 | 54.075837 | 7.934595 | 2.0 | 11.871 | 2 | 35.853 | 12.083 | 30.912 | 2 |
| 2025-05-15T10:13:00 | 54.077203 | 7.934208 | 2.0 | 11.864 | 2 | 35.843 | 12.044 | 30.935 | 2 |
| 2025-05-15T10:14:00 | 54.078468 | 7.933871 | 2.0 | 11.867 | 2 | 35.839 | 12.041 | 30.933 | 2 |
| 2025-05-15T10:15:00 | 54.079795 | 7.933484 | 2.0 | 11.864 | 2 | 35.834 | 12.042 | 30.928 | 2 |
| 2025-05-15T10:16:00 | 54.081159 | 7.933116 | 2.0 | 11.846 | 2 | 35.828 | 12.036 | 30.927 | 2 |
| 2025-05-15T10:17:00 | 54.082511 | 7.932703 | 2.0 | 11.843 | 2 | 35.817 | 12.020 | 30.930 | 2 |
| 2025-05-15T10:18:00 | 54.083807 | 7.932365 | 2.0 | 11.886 | 2 | 35.633 | 12.033 | 30.742 | 2 |
| 2025-05-15T10:19:00 | 54.085128 | 7.932001 | 2.0 | 11.862 | 2 | 35.706 | 12.052 | 30.797 | 2 |
| 2025-05-15T10:20:00 | 54.086486 | 7.931601 | 2.0 | 11.836 | 2 | 35.731 | 12.033 | 30.836 | 2 |
| 2025-05-15T10:21:00 | 54.087804 | 7.931221 | 2.0 | 11.831 | 2 | 35.654 | 12.011 | 30.781 | 2 |
| 2025-05-15T10:22:00 | 54.089132 | 7.930908 | 2.0 | 11.814 | 2 | 35.688 | 12.004 | 30.819 | 2 |
| 2025-05-15T10:23:00 | 54.090352 | 7.930639 | 2.0 | 11.810 | 2 | 35.689 | 11.989 | 30.832 | 2 |
| 2025-05-15T10:24:00 | 54.091716 | 7.930161 | 2.0 | 11.824 | 2 | 35.655 | 11.989 | 30.800 | 2 |
| 2025-05-15T10:25:00 | 54.093153 | 7.929678 | 2.0 | 11.809 | 2 | 35.733 | 11.997 | 30.868 | 2 |
| 2025-05-15T10:26:00 | 54.094683 | 7.929267 | 2.0 | 11.815 | 2 | 35.684 | 11.985 | 30.831 | 2 |
| 2025-05-15T10:27:00 | 54.096265 | 7.929040 | 2.0 | 11.810 | 2 | 35.722 | 11.987 | 30.866 | 2 |
| 2025-05-15T10:28:00 | 54.097800 | 7.928718 | 2.0 | 11.805 | 2 | 35.749 | 11.985 | 30.893 | 2 |
| 2025-05-15T10:29:00 | 54.099374 | 7.928301 | 2.0 | 11.787 | 2 | 35.727 | 11.980 | 30.876 | 2 |
| 2025-05-15T10:30:00 | 54.101008 | 7.927941 | 2.0 | 11.765 | 2 | 35.737 | 11.962 | 30.901 | 2 |
| 2025-05-15T10:31:00 | 54.102636 | 7.927670 | 2.0 | 11.716 | 2 | 35.741 | 11.937 | 30.925 | 2 |
| 2025-05-15T10:32:00 | 54.104165 | 7.927344 | 2.0 | 11.733 | 2 | 35.782 | 11.896 | 30.999 | 2 |
| 2025-05-15T10:33:00 | 54.105658 | 7.927000 | 2.0 | 11.779 | 2 | 35.817 | 11.920 | 31.013 | 2 |
| 2025-05-15T10:34:00 | 54.107163 | 7.926610 | 2.0 | 11.802 | 2 | 35.854 | 11.953 | 31.021 | 2 |
| 2025-05-15T10:35:00 | 54.108751 | 7.926328 | 2.0 | 11.833 | 2 | 35.861 | 11.982 | 31.003 | 2 |
| 2025-05-15T10:36:00 | 54.110350 | 7.926078 | 2.0 | 11.844 | 2 | 35.920 | 12.006 | 31.040 | 2 |
| 2025-05-15T10:37:00 | 54.111937 | 7.925752 | 2.0 | 11.855 | 2 | 35.928 | 12.021 | 31.035 | 2 |
| 2025-05-15T10:38:00 | 54.113490 | 7.925409 | 2.0 | 11.881 | 2 | 35.944 | 12.035 | 31.039 | 2 |
| 2025-05-15T10:39:00 | 54.115057 | 7.925084 | 2.0 | 11.891 | 2 | 35.981 | 12.057 | 31.056 | 2 |
| 2025-05-15T10:40:00 | 54.116615 | 7.924739 | 2.0 | 11.913 | 2 | 35.972 | 12.070 | 31.037 | 2 |
| 2025-05-15T10:41:00 | 54.118022 | 7.924626 | 2.0 | 11.924 | 2 | 35.983 | 12.084 | 31.036 | 2 |
| 2025-05-15T10:42:00 | 54.119282 | 7.924461 | 2.0 | 11.931 | 2 | 36.019 | 12.106 | 31.052 | 2 |
| 2025-05-15T10:43:00 | 54.120508 | 7.924242 | 2.0 | 11.930 | 2 | 36.033 | 12.094 | 31.075 | 2 |
| 2025-05-15T10:44:00 | 54.121721 | 7.924010 | 2.0 | 11.957 | 2 | 36.035 | 12.113 | 31.061 | 2 |
| 2025-05-15T10:45:00 | 54.122953 | 7.923826 | 2.0 | 11.962 | 2 | 36.050 | 12.128 | 31.063 | 2 |
| 2025-05-15T10:46:00 | 54.124169 | 7.923670 | 2.0 | 11.964 | 2 | 36.046 | 12.137 | 31.052 | 2 |
| 2025-05-15T10:47:00 | 54.125384 | 7.923501 | 2.0 | 11.962 | 2 | 36.057 | 12.134 | 31.065 | 2 |
| 2025-05-15T10:48:00 | 54.126574 | 7.923269 | 2.0 | 11.955 | 2 | 36.054 | 12.131 | 31.065 | 2 |
| 2025-05-15T10:49:00 | 54.127764 | 7.923137 | 2.0 | 11.956 | 2 | 36.051 | 12.128 | 31.064 | 2 |
| 2025-05-15T10:50:00 | 54.128904 | 7.923050 | 2.0 | 11.954 | 2 | 36.053 | 12.129 | 31.065 | 2 |
| 2025-05-15T10:51:00 | 54.129974 | 7.922932 | 2.0 | 11.950 | 2 | 36.052 | 12.125 | 31.068 | 2 |
| 2025-05-15T10:52:00 | 54.130971 | 7.922643 | 2.0 | 11.958 | 2 | 36.054 | 12.128 | 31.067 | 2 |
| 2025-05-15T10:53:00 | 54.132039 | 7.922401 | 2.0 | 11.948 | 2 | 36.055 | 12.128 | 31.068 | 2 |
| 2025-05-15T10:54:00 | 54.133190 | 7.922216 | 2.0 | 11.952 | 2 | 36.052 | 12.123 | 31.069 | 2 |
| 2025-05-15T10:55:00 | 54.134391 | 7.922091 | 2.0 | 11.959 | 2 | 36.056 | 12.129 | 31.068 | 2 |
| 2025-05-15T10:56:00 | 54.135607 | 7.921932 | 2.0 | 11.954 | 2 | 36.057 | 12.129 | 31.069 | 2 |
| 2025-05-15T10:57:00 | 54.136817 | 7.921772 | 2.0 | 11.949 | 2 | 36.054 | 12.126 | 31.069 | 2 |
| 2025-05-15T10:58:00 | 54.137994 | 7.921514 | 2.0 | 11.952 | 2 | 36.051 | 12.122 | 31.069 | 2 |
| 2025-05-15T10:59:00 | 54.139185 | 7.921230 | 2.0 | 11.946 | 2 | 36.052 | 12.122 | 31.070 | 2 |
| 2025-05-15T11:00:00 | 54.140428 | 7.921067 | 2.0 | 11.937 | 2 | 36.047 | 12.115 | 31.071 | 2 |
| 2025-05-15T11:01:00 | 54.141671 | 7.920964 | 2.0 | 11.940 | 2 | 36.042 | 12.110 | 31.070 | 2 |
| 2025-05-15T11:02:00 | 54.142892 | 7.920818 | 2.0 | 11.940 | 2 | 36.044 | 12.112 | 31.071 | 2 |
| 2025-05-15T11:03:00 | 54.144077 | 7.920710 | 2.0 | 11.937 | 2 | 36.047 | 12.112 | 31.074 | 2 |
| 2025-05-15T11:04:00 | 54.145085 | 7.920634 | 2.0 | 11.939 | 2 | 36.046 | 12.109 | 31.075 | 2 |
| 2025-05-15T11:05:00 | 54.145890 | 7.920475 | 2.0 | 11.921 | 2 | 36.055 | 12.115 | 31.079 | 2 |
| 2025-05-15T11:06:00 | 54.146541 | 7.920304 | 2.0 | 11.909 | 2 | 36.046 | 12.088 | 31.093 | 2 |
| 2025-05-15T11:07:00 | 54.147041 | 7.920067 | 2.0 | 11.878 | 2 | 36.038 | 12.074 | 31.097 | 2 |
| 2025-05-15T11:08:00 | 54.147463 | 7.919719 | 2.0 | 11.871 | 2 | 36.021 | 12.048 | 31.102 | 2 |
| 2025-05-15T11:09:00 | 54.147798 | 7.919389 | 2.0 | 11.934 | 2 | 36.022 | 12.058 | 31.095 | 2 |
| 2025-05-15T11:10:00 | 54.148095 | 7.919082 | 2.0 | 11.948 | 2 | 36.054 | 12.105 | 31.086 | 2 |
| 2025-05-15T11:11:00 | 54.148387 | 7.918761 | 2.0 | 11.960 | 2 | 36.072 | 12.122 | 31.089 | 2 |
| 2025-05-15T11:12:00 | 54.148674 | 7.918434 | 2.0 | 11.947 | 2 | 36.085 | 12.129 | 31.096 | 2 |
| 2025-05-15T11:13:00 | 54.148928 | 7.918102 | 2.0 | 11.954 | 2 | 36.089 | 12.119 | 31.108 | 2 |
| 2025-05-15T11:14:00 | 54.149155 | 7.917714 | 2.0 | 11.909 | 2 | 36.106 | 12.119 | 31.124 | 2 |
| 2025-05-15T11:15:00 | 54.149378 | 7.917327 | 2.0 | 11.889 | 2 | 36.092 | 12.077 | 31.146 | 2 |
| 2025-05-15T11:16:00 | 54.149539 | 7.916997 | 2.0 | 11.897 | 2 | 36.082 | 12.060 | 31.150 | 2 |
| 2025-05-15T11:17:00 | 54.149652 | 7.916722 | 2.0 | 11.900 | 2 | 36.100 | 12.072 | 31.158 | 2 |
| 2025-05-15T11:18:00 | 54.149706 | 7.916541 | 2.0 | 11.895 | 2 | 36.112 | 12.070 | 31.171 | 2 |
| 2025-05-15T11:19:00 | 54.149743 | 7.916413 | 2.0 | 11.891 | 2 | 36.119 | 12.065 | 31.182 | 2 |
| 2025-05-15T11:20:00 | 54.149780 | 7.916276 | 2.0 | 11.870 | 2 | 36.120 | 12.060 | 31.187 | 2 |
| 2025-05-15T11:21:00 | 54.149785 | 7.916166 | 2.0 | 11.876 | 2 | 36.113 | 12.046 | 31.192 | 2 |
| 2025-05-15T11:22:00 | 54.149759 | 7.916070 | 2.0 | 11.871 | 2 | 36.120 | 12.048 | 31.197 | 2 |
| 2025-05-15T11:23:00 | 54.149713 | 7.915987 | 2.0 | 11.875 | 2 | 36.120 | 12.044 | 31.200 | 2 |
| 2025-05-15T11:24:00 | 54.149656 | 7.915900 | 2.0 | 11.878 | 2 | 36.126 | 12.049 | 31.202 | 2 |
| 2025-05-15T11:25:00 | 54.149611 | 7.915794 | 2.0 | 11.880 | 2 | 36.132 | 12.051 | 31.206 | 2 |
| 2025-05-15T11:26:00 | 54.149563 | 7.915740 | 2.0 | 11.873 | 2 | 36.138 | 12.051 | 31.212 | 2 |
| 2025-05-15T11:27:00 | 54.149518 | 7.915665 | 2.0 | 11.868 | 2 | 36.137 | 12.043 | 31.217 | 2 |
| 2025-05-15T11:28:00 | 54.149477 | 7.915561 | 2.0 | 11.867 | 2 | 36.136 | 12.040 | 31.219 | 2 |
| 2025-05-15T11:29:00 | 54.149468 | 7.915447 | 2.0 | 11.869 | 2 | 36.138 | 12.040 | 31.221 | 2 |
| 2025-05-15T11:30:00 | 54.149464 | 7.915323 | 2.0 | 11.847 | 2 | 36.154 | 12.040 | 31.236 | 2 |
| 2025-05-15T11:31:00 | 54.149422 | 7.915196 | 2.0 | 11.777 | 2 | 36.159 | 12.008 | 31.268 | 2 |
| 2025-05-15T11:32:00 | 54.149369 | 7.915108 | 2.0 | 11.733 | 2 | 36.135 | 11.946 | 31.297 | 2 |
| 2025-05-15T11:33:00 | 54.149366 | 7.914993 | 2.0 | 11.728 | 2 | 36.109 | 11.907 | 31.304 | 2 |
| 2025-05-15T11:34:00 | 54.149379 | 7.914874 | 2.0 | 11.736 | 2 | 36.108 | 11.905 | 31.305 | 2 |
| 2025-05-15T11:35:00 | 54.149376 | 7.914786 | 2.0 | 11.729 | 2 | 36.113 | 11.908 | 31.307 | 2 |
| 2025-05-15T11:36:00 | 54.149380 | 7.914697 | 2.0 | 11.722 | 2 | 36.106 | 11.901 | 31.307 | 2 |
| 2025-05-15T11:37:00 | 54.149412 | 7.914596 | 2.0 | 11.722 | 2 | 36.101 | 11.897 | 31.305 | 2 |
| 2025-05-15T11:38:00 | 54.149443 | 7.914472 | 2.0 | 11.716 | 2 | 36.101 | 11.894 | 31.308 | 2 |
| 2025-05-15T11:39:00 | 54.149489 | 7.914344 | 2.0 | 11.705 | 2 | 36.097 | 11.885 | 31.311 | 2 |
| 2025-05-15T11:40:00 | 54.149526 | 7.914240 | 2.0 | 11.705 | 2 | 36.094 | 11.878 | 31.314 | 2 |
| 2025-05-15T11:41:00 | 54.149459 | 7.914188 | 2.0 | 11.707 | 2 | 36.107 | 11.877 | 31.328 | 2 |
| 2025-05-15T11:42:00 | 54.149345 | 7.914149 | 2.0 | 11.713 | 2 | 36.117 | 11.880 | 31.335 | 2 |
| 2025-05-15T11:43:00 | 54.149288 | 7.914080 | 2.0 | 11.707 | 2 | 36.119 | 11.884 | 31.333 | 2 |
| 2025-05-15T11:44:00 | 54.149282 | 7.913978 | 2.0 | 11.705 | 2 | 36.116 | 11.882 | 31.332 | 2 |
| 2025-05-15T11:45:00 | 54.149216 | 7.913894 | 2.0 | 11.696 | 2 | 36.109 | 11.875 | 31.331 | 2 |
| 2025-05-15T11:46:00 | 54.149149 | 7.913819 | 2.0 | 11.691 | 2 | 36.101 | 11.869 | 31.329 | 2 |
| 2025-05-15T11:47:00 | 54.149150 | 7.913741 | 2.0 | 11.683 | 2 | 36.093 | 11.862 | 31.327 | 2 |
| 2025-05-15T11:48:00 | 54.149251 | 7.913659 | 2.0 | 11.668 | 2 | 36.082 | 11.854 | 31.323 | 2 |
| 2025-05-15T11:49:00 | 54.149338 | 7.913591 | 2.0 | 11.670 | 2 | 36.065 | 11.841 | 31.318 | 2 |
| 2025-05-15T11:50:00 | 54.149351 | 7.913510 | 2.0 | 11.663 | 2 | 36.067 | 11.843 | 31.318 | 2 |
| 2025-05-15T11:51:00 | 54.149311 | 7.913436 | 2.0 | 11.659 | 2 | 36.060 | 11.835 | 31.318 | 2 |
| 2025-05-15T11:52:00 | 54.149303 | 7.913347 | 2.0 | 11.660 | 2 | 36.055 | 11.832 | 31.315 | 2 |
| 2025-05-15T11:53:00 | 54.149288 | 7.913293 | 2.0 | 11.659 | 2 | 36.055 | 11.834 | 31.314 | 2 |
| 2025-05-15T11:54:00 | 54.149286 | 7.913212 | 2.0 | 11.664 | 2 | 36.056 | 11.836 | 31.313 | 2 |
| 2025-05-15T11:55:00 | 54.149292 | 7.913152 | 2.0 | 11.669 | 2 | 36.058 | 11.837 | 31.314 | 2 |
| 2025-05-15T11:56:00 | 54.149333 | 7.913100 | 2.0 | 11.667 | 2 | 36.062 | 11.841 | 31.315 | 2 |
| 2025-05-15T11:57:00 | 54.149400 | 7.913050 | 2.0 | 11.671 | 2 | 36.061 | 11.840 | 31.315 | 2 |
| 2025-05-15T11:58:00 | 54.149451 | 7.913022 | 2.0 | 11.672 | 2 | 36.065 | 11.844 | 31.315 | 2 |
| 2025-05-15T11:59:00 | 54.149518 | 7.912946 | 2.0 | 11.682 | 2 | 36.070 | 11.846 | 31.318 | 2 |
| 2025-05-15T12:00:00 | 54.149574 | 7.912898 | 2.0 | 11.685 | 2 | 36.085 | 11.855 | 31.325 | 2 |
| 2025-05-15T12:01:00 | 54.149647 | 7.912887 | 2.0 | 11.683 | 2 | 36.093 | 11.856 | 31.332 | 2 |
| 2025-05-15T12:02:00 | 54.149737 | 7.912885 | 2.0 | 11.681 | 2 | 36.093 | 11.854 | 31.334 | 2 |
| 2025-05-15T12:03:00 | 54.149828 | 7.912845 | 2.0 | 11.683 | 2 | 36.093 | 11.854 | 31.334 | 2 |
| 2025-05-15T12:04:00 | 54.149852 | 7.912791 | 2.0 | 11.687 | 2 | 36.094 | 11.856 | 31.333 | 2 |
| 2025-05-15T12:05:00 | 54.149780 | 7.912703 | 2.0 | 11.690 | 2 | 36.096 | 11.860 | 31.331 | 2 |
| 2025-05-15T12:06:00 | 54.149743 | 7.912566 | 2.0 | 11.693 | 2 | 36.098 | 11.863 | 31.331 | 2 |
| 2025-05-15T12:07:00 | 54.149712 | 7.912512 | 2.0 | 11.699 | 2 | 36.099 | 11.867 | 31.328 | 2 |
| 2025-05-15T12:08:00 | 54.149732 | 7.912463 | 2.0 | 11.700 | 2 | 36.101 | 11.872 | 31.326 | 2 |
| 2025-05-15T12:09:00 | 54.149832 | 7.912442 | 2.0 | 11.709 | 2 | 36.102 | 11.874 | 31.325 | 2 |
| 2025-05-15T12:10:00 | 54.149904 | 7.912416 | 2.0 | 11.709 | 2 | 36.105 | 11.881 | 31.322 | 2 |
| 2025-05-15T12:11:00 | 54.149892 | 7.912389 | 2.0 | 11.710 | 2 | 36.104 | 11.881 | 31.322 | 2 |
| 2025-05-15T12:12:00 | 54.149865 | 7.912280 | 2.0 | 11.712 | 2 | 36.104 | 11.882 | 31.321 | 2 |
| 2025-05-15T12:13:00 | 54.149820 | 7.912215 | 2.0 | 11.712 | 2 | 36.105 | 11.883 | 31.321 | 2 |
| 2025-05-15T12:14:00 | 54.149792 | 7.912120 | 2.0 | 11.714 | 2 | 36.106 | 11.885 | 31.320 | 2 |
| 2025-05-15T12:15:00 | 54.149789 | 7.912025 | 2.0 | 11.715 | 2 | 36.107 | 11.885 | 31.321 | 2 |
| 2025-05-15T12:16:00 | 54.149817 | 7.911973 | 2.0 | 11.719 | 2 | 36.110 | 11.888 | 31.321 | 2 |
| 2025-05-15T12:17:00 | 54.149831 | 7.912034 | 2.0 | 11.727 | 2 | 36.114 | 11.893 | 31.321 | 2 |
| 2025-05-15T12:18:00 | 54.149827 | 7.912104 | 2.0 | 11.732 | 2 | 36.122 | 11.900 | 31.323 | 2 |
| 2025-05-15T12:19:00 | 54.149834 | 7.912024 | 2.0 | 11.733 | 2 | 36.126 | 11.903 | 31.324 | 2 |
| 2025-05-15T12:20:00 | 54.149879 | 7.911972 | 2.0 | 11.736 | 2 | 36.128 | 11.904 | 31.325 | 2 |
| 2025-05-15T12:21:00 | 54.149928 | 7.911988 | 2.0 | 11.741 | 2 | 36.134 | 11.908 | 31.328 | 2 |
| 2025-05-15T12:22:00 | 54.149991 | 7.912012 | 2.0 | 11.745 | 2 | 36.141 | 11.914 | 31.329 | 2 |
| 2025-05-15T12:23:00 | 54.150015 | 7.912032 | 2.0 | 11.744 | 2 | 36.144 | 11.915 | 31.331 | 2 |
| 2025-05-15T12:24:00 | 54.149957 | 7.912016 | 2.0 | 11.744 | 2 | 36.145 | 11.916 | 31.332 | 2 |
| 2025-05-15T12:25:00 | 54.149948 | 7.911972 | 2.0 | 11.743 | 2 | 36.146 | 11.916 | 31.333 | 2 |
| 2025-05-15T12:26:00 | 54.150049 | 7.911980 | 2.0 | 11.739 | 2 | 36.144 | 11.914 | 31.332 | 2 |
| 2025-05-15T12:27:00 | 54.150109 | 7.911990 | 2.0 | 11.748 | 2 | 36.141 | 11.912 | 31.331 | 2 |
| 2025-05-15T12:28:00 | 54.150047 | 7.911937 | 2.0 | 11.755 | 2 | 36.149 | 11.920 | 31.332 | 2 |
| 2025-05-15T12:29:00 | 54.149978 | 7.911745 | 2.0 | 11.753 | 2 | 36.154 | 11.926 | 31.332 | 2 |
| 2025-05-15T12:30:00 | 54.149932 | 7.911615 | 2.0 | 11.752 | 2 | 36.152 | 11.924 | 31.332 | 2 |
| 2025-05-15T12:31:00 | 54.149965 | 7.911557 | 2.0 | 11.753 | 2 | 36.150 | 11.923 | 31.331 | 2 |
| 2025-05-15T12:32:00 | 54.149996 | 7.911593 | 2.0 | 11.756 | 2 | 36.150 | 11.924 | 31.330 | 2 |
| 2025-05-15T12:33:00 | 54.149974 | 7.911633 | 2.0 | 11.757 | 2 | 36.152 | 11.927 | 31.329 | 2 |
| 2025-05-15T12:34:00 | 54.149924 | 7.911572 | 2.0 | 11.754 | 2 | 36.151 | 11.927 | 31.328 | 2 |
| 2025-05-15T12:35:00 | 54.149992 | 7.911536 | 2.0 | 11.758 | 2 | 36.150 | 11.926 | 31.328 | 2 |
| 2025-05-15T12:36:00 | 54.150039 | 7.911583 | 2.0 | 11.758 | 2 | 36.153 | 11.930 | 31.328 | 2 |
| 2025-05-15T12:37:00 | 54.150006 | 7.911606 | 2.0 | 11.759 | 2 | 36.154 | 11.930 | 31.328 | 2 |
| 2025-05-15T12:38:00 | 54.149933 | 7.911550 | 2.0 | 11.758 | 2 | 36.153 | 11.928 | 31.329 | 2 |
| 2025-05-15T12:39:00 | 54.149977 | 7.911462 | 2.0 | 11.762 | 2 | 36.153 | 11.929 | 31.328 | 2 |
| 2025-05-15T12:40:00 | 54.150070 | 7.911463 | 2.0 | 11.770 | 2 | 36.158 | 11.935 | 31.328 | 2 |
| 2025-05-15T12:41:00 | 54.150095 | 7.911436 | 2.0 | 11.770 | 2 | 36.165 | 11.940 | 31.331 | 2 |
| 2025-05-15T12:42:00 | 54.150027 | 7.911348 | 2.0 | 11.771 | 2 | 36.167 | 11.940 | 31.333 | 2 |
| 2025-05-15T12:43:00 | 54.150000 | 7.911206 | 2.0 | 11.768 | 2 | 36.167 | 11.941 | 31.332 | 2 |
| 2025-05-15T12:44:00 | 54.150071 | 7.911059 | 2.0 | 11.766 | 2 | 36.165 | 11.939 | 31.332 | 2 |
| 2025-05-15T12:45:00 | 54.150266 | 7.910909 | 2.0 | 11.774 | 2 | 36.161 | 11.937 | 31.329 | 2 |
| 2025-05-15T12:46:00 | 54.150489 | 7.910804 | 2.0 | 11.778 | 2 | 36.174 | 11.947 | 31.333 | 2 |
| 2025-05-15T12:47:00 | 54.150675 | 7.910679 | 2.0 | 11.768 | 2 | 36.179 | 11.946 | 31.339 | 2 |
| 2025-05-15T12:48:00 | 54.150746 | 7.910555 | 2.0 | 11.770 | 2 | 36.173 | 11.940 | 31.338 | 2 |
| 2025-05-15T12:49:00 | 54.150682 | 7.910441 | 2.0 | 11.768 | 2 | 36.172 | 11.939 | 31.338 | 2 |
| 2025-05-15T12:50:00 | 54.150526 | 7.910327 | 2.0 | 11.779 | 2 | 36.174 | 11.942 | 31.338 | 2 |
| 2025-05-15T12:51:00 | 54.150322 | 7.910103 | 2.0 | 11.781 | 2 | 36.179 | 11.948 | 31.337 | 2 |
| 2025-05-15T12:52:00 | 54.150181 | 7.909712 | 2.0 | 11.785 | 2 | 36.182 | 11.952 | 31.337 | 2 |
| 2025-05-15T12:53:00 | 54.150064 | 7.909298 | 2.0 | 11.788 | 2 | 36.185 | 11.956 | 31.336 | 2 |
| 2025-05-15T12:54:00 | 54.149911 | 7.908910 | 2.0 | 11.796 | 2 | 36.187 | 11.959 | 31.336 | 2 |
| 2025-05-15T12:55:00 | 54.149847 | 7.908329 | 2.0 | 11.813 | 2 | 36.192 | 11.968 | 31.333 | 2 |
| 2025-05-15T12:56:00 | 54.149899 | 7.907286 | 2.0 | 11.828 | 2 | 36.192 | 11.990 | 31.315 | 2 |
| 2025-05-15T12:57:00 | 54.149775 | 7.905630 | 2.0 | 11.825 | 2 | 36.213 | 11.996 | 31.330 | 2 |
| 2025-05-15T12:58:00 | 54.149439 | 7.903053 | 2.0 | 11.884 | 2 | 36.226 | 12.003 | 31.336 | 2 |
| 2025-05-15T12:59:00 | 54.148950 | 7.899291 | 2.0 | 11.931 | 2 | 36.238 | 12.065 | 31.296 | 2 |
| 2025-05-15T13:00:00 | 54.148252 | 7.895098 | 2.0 | 11.942 | 2 | 36.259 | 12.101 | 31.286 | 2 |
| 2025-05-15T13:01:00 | 54.147761 | 7.890677 | 2.0 | 11.938 | 2 | 36.274 | 12.119 | 31.285 | 2 |
| 2025-05-15T13:02:00 | 54.148372 | 7.886460 | 2.0 | 11.917 | 2 | 36.279 | 12.104 | 31.303 | 2 |
| 2025-05-15T13:03:00 | 54.149715 | 7.882794 | 2.0 | 11.888 | 2 | 36.286 | 12.083 | 31.327 | 2 |
| 2025-05-15T13:04:00 | 54.151166 | 7.879024 | 2.0 | 11.878 | 2 | 36.330 | 12.057 | 31.391 | 2 |
| 2025-05-15T13:05:00 | 54.152582 | 7.875095 | 2.0 | 11.884 | 2 | 36.376 | 12.057 | 31.435 | 2 |
| 2025-05-15T13:06:00 | 54.154013 | 7.871161 | 2.0 | 11.899 | 2 | 36.395 | 12.059 | 31.452 | 2 |
| 2025-05-15T13:07:00 | 54.155431 | 7.867202 | 2.0 | 11.905 | 2 | 36.408 | 12.071 | 31.454 | 2 |
| 2025-05-15T13:08:00 | 54.156824 | 7.863288 | 2.0 | 11.898 | 2 | 36.428 | 12.079 | 31.467 | 2 |
| 2025-05-15T13:09:00 | 54.158192 | 7.859496 | 2.0 | 11.840 | 2 | 36.439 | 12.060 | 31.493 | 2 |
| 2025-05-15T13:10:00 | 54.159552 | 7.855794 | 2.0 | 11.834 | 2 | 36.415 | 12.008 | 31.514 | 2 |
| 2025-05-15T13:11:00 | 54.161001 | 7.851851 | 2.0 | 11.866 | 2 | 36.407 | 12.013 | 31.502 | 2 |
| 2025-05-15T13:12:00 | 54.162498 | 7.847822 | 2.0 | 11.880 | 2 | 36.445 | 12.042 | 31.514 | 2 |
| 2025-05-15T13:13:00 | 54.163890 | 7.843614 | 2.0 | 11.879 | 2 | 36.498 | 12.054 | 31.555 | 2 |
| 2025-05-15T13:14:00 | 54.165230 | 7.839331 | 2.0 | 11.867 | 2 | 36.550 | 12.052 | 31.607 | 2 |
| 2025-05-15T13:15:00 | 54.166584 | 7.835083 | 2.0 | 11.818 | 2 | 36.611 | 12.033 | 31.681 | 2 |
| 2025-05-15T13:16:00 | 54.167834 | 7.830940 | 2.0 | 11.775 | 2 | 36.669 | 11.986 | 31.777 | 2 |
| 2025-05-15T13:17:00 | 54.169107 | 7.826914 | 2.0 | 11.765 | 2 | 36.705 | 11.950 | 31.843 | 2 |
| 2025-05-15T13:18:00 | 54.170420 | 7.822894 | 2.0 | 11.719 | 2 | 36.749 | 11.938 | 31.895 | 2 |
| 2025-05-15T13:19:00 | 54.171703 | 7.818764 | 2.0 | 11.699 | 2 | 36.795 | 11.890 | 31.981 | 2 |
| 2025-05-15T13:20:00 | 54.173003 | 7.814582 | 2.0 | 11.699 | 2 | 36.804 | 11.883 | 31.996 | 2 |
| 2025-05-15T13:21:00 | 54.174291 | 7.810379 | 2.0 | 11.512 | 2 | 36.818 | 11.833 | 32.052 | 2 |
| 2025-05-15T13:22:00 | 54.175611 | 7.806196 | 2.0 | 11.503 | 2 | 36.853 | 11.697 | 32.204 | 2 |
| 2025-05-15T13:23:00 | 54.176937 | 7.801947 | 2.0 | 11.505 | 2 | 36.857 | 11.682 | 32.221 | 2 |
| 2025-05-15T13:24:00 | 54.178260 | 7.797663 | 2.0 | 11.495 | 2 | 36.848 | 11.688 | 32.207 | 2 |
| 2025-05-15T13:25:00 | 54.179441 | 7.793312 | 2.0 | 11.394 | 2 | 36.857 | 11.651 | 32.248 | 2 |
| 2025-05-15T13:26:00 | 54.180508 | 7.788852 | 2.0 | 11.403 | 2 | 36.862 | 11.582 | 32.312 | 2 |
| 2025-05-15T13:27:00 | 54.181594 | 7.784367 | 2.0 | 11.458 | 2 | 36.894 | 11.590 | 32.337 | 2 |
| 2025-05-15T13:28:00 | 54.181913 | 7.779573 | 2.0 | 11.494 | 2 | 36.924 | 11.643 | 32.320 | 2 |
| 2025-05-15T13:29:00 | 54.181543 | 7.774591 | 2.0 | 11.520 | 2 | 36.946 | 11.670 | 32.318 | 2 |
| 2025-05-15T13:30:00 | 54.181322 | 7.769507 | 2.0 | 11.566 | 2 | 36.965 | 11.704 | 32.306 | 2 |
| 2025-05-15T13:31:00 | 54.181016 | 7.764378 | 2.0 | 11.589 | 2 | 36.985 | 11.744 | 32.291 | 2 |
| 2025-05-15T13:32:00 | 54.180751 | 7.759208 | 2.0 | 11.593 | 2 | 37.001 | 11.763 | 32.290 | 2 |
| 2025-05-15T13:33:00 | 54.180452 | 7.754022 | 2.0 | 11.593 | 2 | 37.018 | 11.768 | 32.302 | 2 |
| 2025-05-15T13:34:00 | 54.180169 | 7.748783 | 2.0 | 11.595 | 2 | 37.033 | 11.766 | 32.319 | 2 |
| 2025-05-15T13:35:00 | 54.179886 | 7.743532 | 2.0 | 11.575 | 2 | 37.066 | 11.772 | 32.345 | 2 |
| 2025-05-15T13:36:00 | 54.179857 | 7.738965 | 2.0 | 11.526 | 2 | 37.095 | 11.736 | 32.405 | 2 |
| 2025-05-15T13:37:00 | 54.180151 | 7.735931 | 2.0 | 11.521 | 2 | 37.097 | 11.703 | 32.436 | 2 |
| 2025-05-15T13:38:00 | 54.180616 | 7.734865 | 2.0 | 11.526 | 2 | 37.095 | 11.696 | 32.440 | 2 |
| 2025-05-15T13:39:00 | 54.180893 | 7.734206 | 2.0 | 11.534 | 2 | 37.093 | 11.701 | 32.434 | 2 |
| 2025-05-15T13:40:00 | 54.181046 | 7.733810 | 2.0 | 11.524 | 2 | 37.091 | 11.703 | 32.430 | 2 |
| 2025-05-15T13:41:00 | 54.181081 | 7.733566 | 2.0 | 11.528 | 2 | 37.087 | 11.699 | 32.429 | 2 |
| 2025-05-15T13:42:00 | 54.181095 | 7.733399 | 2.0 | 11.524 | 2 | 37.086 | 11.697 | 32.430 | 2 |
| 2025-05-15T13:43:00 | 54.181120 | 7.733254 | 2.0 | 11.528 | 2 | 37.086 | 11.698 | 32.429 | 2 |
| 2025-05-15T13:44:00 | 54.181134 | 7.733162 | 2.0 | 11.532 | 2 | 37.087 | 11.700 | 32.429 | 2 |
| 2025-05-15T13:45:00 | 54.181109 | 7.733103 | 2.0 | 11.531 | 2 | 37.088 | 11.703 | 32.427 | 2 |
| 2025-05-15T13:46:00 | 54.181126 | 7.733043 | 2.0 | 11.537 | 2 | 37.089 | 11.704 | 32.427 | 2 |
| 2025-05-15T13:47:00 | 54.181172 | 7.732958 | 2.0 | 11.540 | 2 | 37.093 | 11.710 | 32.426 | 2 |
| 2025-05-15T13:48:00 | 54.181199 | 7.732868 | 2.0 | 11.540 | 2 | 37.094 | 11.712 | 32.425 | 2 |
| 2025-05-15T13:49:00 | 54.181150 | 7.732778 | 2.0 | 11.554 | 2 | 37.094 | 11.715 | 32.422 | 2 |
| 2025-05-15T13:50:00 | 54.181112 | 7.732765 | 2.0 | 11.558 | 2 | 37.096 | 11.725 | 32.416 | 2 |
| 2025-05-15T13:51:00 | 54.181086 | 7.732719 | 2.0 | 11.557 | 2 | 37.092 | 11.730 | 32.407 | 2 |
| 2025-05-15T13:52:00 | 54.181064 | 7.732660 | 2.0 | 11.561 | 2 | 37.089 | 11.729 | 32.405 | 2 |
| 2025-05-15T13:53:00 | 54.181055 | 7.732607 | 2.0 | 11.556 | 2 | 37.092 | 11.732 | 32.406 | 2 |
| 2025-05-15T13:54:00 | 54.181111 | 7.732491 | 2.0 | 11.558 | 2 | 37.091 | 11.728 | 32.408 | 2 |
| 2025-05-15T13:55:00 | 54.181150 | 7.732320 | 2.0 | 11.576 | 2 | 37.096 | 11.734 | 32.408 | 2 |
| 2025-05-15T13:56:00 | 54.181116 | 7.732169 | 2.0 | 11.565 | 2 | 37.103 | 11.748 | 32.402 | 2 |
| 2025-05-15T13:57:00 | 54.181079 | 7.732138 | 2.0 | 11.560 | 2 | 37.097 | 11.733 | 32.410 | 2 |
| 2025-05-15T13:58:00 | 54.181041 | 7.732120 | 2.0 | 11.575 | 2 | 37.096 | 11.734 | 32.408 | 2 |
| 2025-05-15T13:59:00 | 54.181083 | 7.732071 | 2.0 | 11.586 | 2 | 37.101 | 11.748 | 32.400 | 2 |
| 2025-05-15T14:00:00 | 54.181150 | 7.731974 | 2.0 | 11.596 | 2 | 37.105 | 11.758 | 32.395 | 2 |
| 2025-05-15T14:01:00 | 54.181233 | 7.731861 | 2.0 | 11.602 | 2 | 37.107 | 11.768 | 32.389 | 2 |
| 2025-05-15T14:02:00 | 54.181301 | 7.731669 | 2.0 | 11.612 | 2 | 37.107 | 11.775 | 32.383 | 2 |
| 2025-05-15T14:03:00 | 54.181315 | 7.731455 | 2.0 | 11.621 | 2 | 37.109 | 11.785 | 32.376 | 2 |
| 2025-05-15T14:04:00 | 54.181274 | 7.731242 | 2.0 | 11.618 | 2 | 37.108 | 11.792 | 32.369 | 2 |
| 2025-05-15T14:05:00 | 54.181216 | 7.731040 | 2.0 | 11.618 | 2 | 37.104 | 11.789 | 32.368 | 2 |
| 2025-05-15T14:06:00 | 54.181249 | 7.730829 | 2.0 | 11.630 | 2 | 37.102 | 11.791 | 32.364 | 2 |
| 2025-05-15T14:07:00 | 54.181365 | 7.730621 | 2.0 | 11.627 | 2 | 37.103 | 11.800 | 32.357 | 2 |
| 2025-05-15T14:08:00 | 54.181523 | 7.730421 | 2.0 | 11.629 | 2 | 37.099 | 11.799 | 32.354 | 2 |
| 2025-05-15T14:09:00 | 54.181772 | 7.730225 | 2.0 | 11.619 | 2 | 37.097 | 11.797 | 32.354 | 2 |
| 2025-05-15T14:10:00 | 54.182045 | 7.730057 | 2.0 | 11.618 | 2 | 37.091 | 11.789 | 32.355 | 2 |
| 2025-05-15T14:11:00 | 54.182197 | 7.729941 | 2.0 | 11.596 | 2 | 37.090 | 11.783 | 32.359 | 2 |
| 2025-05-15T14:12:00 | 54.182319 | 7.729771 | 2.0 | 11.603 | 2 | 37.085 | 11.770 | 32.366 | 2 |
| 2025-05-15T14:13:00 | 54.182399 | 7.729589 | 2.0 | 11.619 | 2 | 37.086 | 11.777 | 32.360 | 2 |
| 2025-05-15T14:14:00 | 54.182456 | 7.729392 | 2.0 | 11.622 | 2 | 37.090 | 11.790 | 32.353 | 2 |
| 2025-05-15T14:15:00 | 54.182473 | 7.729203 | 2.0 | 11.627 | 2 | 37.088 | 11.794 | 32.348 | 2 |
| 2025-05-15T14:16:00 | 54.182449 | 7.729023 | 2.0 | 11.622 | 2 | 37.086 | 11.795 | 32.345 | 2 |
| 2025-05-15T14:17:00 | 54.182783 | 7.728892 | 2.0 | 11.612 | 2 | 37.084 | 11.789 | 32.348 | 2 |
| 2025-05-15T14:18:00 | 54.183616 | 7.728183 | 2.0 | 11.620 | 2 | 37.083 | 11.784 | 32.351 | 2 |
| 2025-05-15T14:19:00 | 54.184540 | 7.725745 | 2.0 | 11.631 | 2 | 37.083 | 11.792 | 32.345 | 2 |
| 2025-05-15T14:20:00 | 54.185964 | 7.722227 | 2.0 | 11.638 | 2 | 37.098 | 11.802 | 32.350 | 2 |
| 2025-05-15T14:21:00 | 54.187854 | 7.718491 | 2.0 | 11.644 | 2 | 37.114 | 11.814 | 32.355 | 2 |
| 2025-05-15T14:22:00 | 54.189805 | 7.714616 | 2.0 | 11.637 | 2 | 37.120 | 11.811 | 32.364 | 2 |
| 2025-05-15T14:23:00 | 54.191744 | 7.710635 | 2.0 | 11.653 | 2 | 37.121 | 11.816 | 32.361 | 2 |
| 2025-05-15T14:24:00 | 54.193670 | 7.706573 | 2.0 | 11.658 | 2 | 37.122 | 11.827 | 32.352 | 2 |
| 2025-05-15T14:25:00 | 54.195675 | 7.702614 | 2.0 | 11.657 | 2 | 37.114 | 11.832 | 32.340 | 2 |
| 2025-05-15T14:26:00 | 54.197592 | 7.698625 | 2.0 | 11.640 | 2 | 37.103 | 11.827 | 32.333 | 2 |
| 2025-05-15T14:27:00 | 54.199488 | 7.694728 | 2.0 | 11.618 | 2 | 37.079 | 11.812 | 32.323 | 2 |
| 2025-05-15T14:28:00 | 54.201469 | 7.690846 | 2.0 | 11.581 | 2 | 37.045 | 11.789 | 32.310 | 2 |
| 2025-05-15T14:29:00 | 54.203381 | 7.686893 | 2.0 | 11.520 | 2 | 36.983 | 11.744 | 32.289 | 2 |
| 2025-05-15T14:30:00 | 54.205260 | 7.683003 | 2.0 | 11.565 | 2 | 36.911 | 11.703 | 32.255 | 2 |
| 2025-05-15T14:31:00 | 54.207136 | 7.679219 | 2.0 | 11.574 | 2 | 36.954 | 11.745 | 32.260 | 2 |
| 2025-05-15T14:32:00 | 54.209002 | 7.675421 | 2.0 | 11.498 | 2 | 36.950 | 11.731 | 32.268 | 2 |
| 2025-05-15T14:33:00 | 54.210947 | 7.671589 | 2.0 | 11.486 | 2 | 36.874 | 11.675 | 32.243 | 2 |
| 2025-05-15T14:34:00 | 54.212798 | 7.667718 | 2.0 | 11.497 | 2 | 36.856 | 11.664 | 32.235 | 2 |
| 2025-05-15T14:35:00 | 54.214748 | 7.663768 | 2.0 | 11.515 | 2 | 36.868 | 11.676 | 32.237 | 2 |
| 2025-05-15T14:36:00 | 54.216673 | 7.659877 | 2.0 | 11.522 | 2 | 36.880 | 11.690 | 32.236 | 2 |
| 2025-05-15T14:37:00 | 54.218618 | 7.655915 | 2.0 | 11.519 | 2 | 36.885 | 11.695 | 32.237 | 2 |
| 2025-05-15T14:38:00 | 54.220556 | 7.651991 | 2.0 | 11.548 | 2 | 36.889 | 11.698 | 32.238 | 2 |
| 2025-05-15T14:39:00 | 54.222411 | 7.648108 | 2.0 | 11.570 | 2 | 36.907 | 11.724 | 32.233 | 2 |
| 2025-05-15T14:40:00 | 54.224330 | 7.644266 | 2.0 | 11.550 | 2 | 36.924 | 11.741 | 32.234 | 2 |
| 2025-05-15T14:41:00 | 54.226290 | 7.640246 | 2.0 | 11.514 | 2 | 36.876 | 11.716 | 32.210 | 2 |
| 2025-05-15T14:42:00 | 54.228305 | 7.636182 | 2.0 | 11.498 | 2 | 36.797 | 11.687 | 32.158 | 2 |
| 2025-05-15T14:43:00 | 54.230291 | 7.632216 | 2.0 | 11.498 | 2 | 36.767 | 11.674 | 32.140 | 2 |
| 2025-05-15T14:44:00 | 54.232246 | 7.628226 | 2.0 | 11.490 | 2 | 36.706 | 11.672 | 32.082 | 2 |
| 2025-05-15T14:45:00 | 54.234216 | 7.624247 | 2.0 | 11.478 | 2 | 36.704 | 11.663 | 32.088 | 2 |
| 2025-05-15T14:46:00 | 54.236160 | 7.620229 | 2.0 | 11.481 | 2 | 36.627 | 11.654 | 32.021 | 2 |
| 2025-05-15T14:47:00 | 54.238077 | 7.616288 | 2.0 | 11.486 | 2 | 36.579 | 11.657 | 31.972 | 2 |
| 2025-05-15T14:48:00 | 54.239962 | 7.612353 | 2.0 | 11.494 | 2 | 36.586 | 11.660 | 31.976 | 2 |
| 2025-05-15T14:49:00 | 54.241903 | 7.608458 | 2.0 | 11.496 | 2 | 36.566 | 11.668 | 31.950 | 2 |
| 2025-05-15T14:50:00 | 54.243829 | 7.604542 | 2.0 | 11.494 | 2 | 36.542 | 11.668 | 31.927 | 2 |
| 2025-05-15T14:51:00 | 54.245716 | 7.600670 | 2.0 | 11.514 | 2 | 36.497 | 11.668 | 31.883 | 2 |
| 2025-05-15T14:52:00 | 54.247554 | 7.596876 | 2.0 | 11.558 | 2 | 36.475 | 11.694 | 31.839 | 2 |
| 2025-05-15T14:53:00 | 54.249511 | 7.592974 | 2.0 | 11.593 | 2 | 36.472 | 11.737 | 31.799 | 2 |
| 2025-05-15T14:54:00 | 54.251416 | 7.588978 | 2.0 | 11.633 | 2 | 36.455 | 11.769 | 31.756 | 2 |
| 2025-05-15T14:55:00 | 54.253340 | 7.585079 | 2.0 | 11.679 | 2 | 36.434 | 11.809 | 31.701 | 2 |
| 2025-05-15T14:56:00 | 54.255252 | 7.581202 | 2.0 | 11.691 | 2 | 36.433 | 11.850 | 31.665 | 2 |
| 2025-05-15T14:57:00 | 54.257184 | 7.577264 | 2.0 | 11.676 | 2 | 36.430 | 11.857 | 31.656 | 2 |
| 2025-05-15T14:58:00 | 54.259053 | 7.573440 | 2.0 | 11.687 | 2 | 36.419 | 11.850 | 31.652 | 2 |
| 2025-05-15T14:59:00 | 54.260940 | 7.569629 | 2.0 | 11.697 | 2 | 36.420 | 11.862 | 31.642 | 2 |
| 2025-05-15T15:00:00 | 54.262756 | 7.565886 | 2.0 | 11.705 | 2 | 36.418 | 11.870 | 31.634 | 2 |
| 2025-05-15T15:01:00 | 54.264648 | 7.562116 | 2.0 | 11.683 | 2 | 36.422 | 11.874 | 31.634 | 2 |
| 2025-05-15T15:02:00 | 54.266491 | 7.558309 | 2.0 | 11.660 | 2 | 36.178 | 11.855 | 31.415 | 2 |
| 2025-05-15T15:04:00 | 54.270315 | 7.550464 | 2.0 | 11.678 | 2 | 36.450 | 11.870 | 31.665 | 2 |
| 2025-05-15T15:05:00 | 54.272311 | 7.546509 | 2.0 | 11.695 | 2 | 36.430 | 11.853 | 31.660 | 2 |
| 2025-05-15T15:06:00 | 54.274277 | 7.542519 | 2.0 | 11.754 | 2 | 36.428 | 11.875 | 31.639 | 2 |
| 2025-05-15T15:07:00 | 54.276157 | 7.538570 | 2.0 | 11.818 | 2 | 36.452 | 11.930 | 31.616 | 2 |
| 2025-05-15T15:08:00 | 54.278121 | 7.534623 | 2.0 | 11.870 | 2 | 36.486 | 11.998 | 31.591 | 2 |
| 2025-05-15T15:09:00 | 54.280138 | 7.530574 | 2.0 | 11.872 | 2 | 36.516 | 12.039 | 31.585 | 2 |
| 2025-05-15T15:10:00 | 54.282145 | 7.526538 | 2.0 | 11.784 | 2 | 36.528 | 12.022 | 31.611 | 2 |
| 2025-05-15T15:11:00 | 54.284043 | 7.522601 | 2.0 | 11.808 | 2 | 36.505 | 11.965 | 31.637 | 2 |
| 2025-05-15T15:12:00 | 54.285974 | 7.518651 | 2.0 | 11.834 | 2 | 36.511 | 11.989 | 31.622 | 2 |
| 2025-05-15T15:13:00 | 54.287937 | 7.514649 | 2.0 | 11.848 | 2 | 36.327 | 12.006 | 31.431 | 2 |
| 2025-05-15T15:14:00 | 54.289855 | 7.510688 | 2.0 | 11.892 | 2 | 36.534 | 12.027 | 31.612 | 2 |
| 2025-05-15T15:15:00 | 54.291762 | 7.506814 | 2.0 | 11.917 | 2 | 36.549 | 12.063 | 31.596 | 2 |
| 2025-05-15T15:16:00 | 54.293725 | 7.502880 | 2.0 | 11.944 | 2 | 36.552 | 12.091 | 31.575 | 2 |
| 2025-05-15T15:17:00 | 54.295612 | 7.498958 | 2.0 | 11.953 | 2 | 36.548 | 12.116 | 31.551 | 2 |
| 2025-05-15T15:18:00 | 54.297435 | 7.495190 | 2.0 | 11.958 | 2 | 36.539 | 12.123 | 31.536 | 2 |
| 2025-05-15T15:19:00 | 54.299342 | 7.491408 | 2.0 | 11.960 | 2 | 36.558 | 12.130 | 31.548 | 2 |
| 2025-05-15T15:20:00 | 54.301166 | 7.487618 | 2.0 | 11.940 | 2 | 36.556 | 12.129 | 31.547 | 2 |
| 2025-05-15T15:21:00 | 54.303063 | 7.483836 | 2.0 | 11.921 | 2 | 36.553 | 12.109 | 31.561 | 2 |
| 2025-05-15T15:22:00 | 54.304986 | 7.479903 | 2.0 | 11.900 | 2 | 36.550 | 12.091 | 31.574 | 2 |
| 2025-05-15T15:23:00 | 54.306913 | 7.475933 | 2.0 | 11.885 | 2 | 36.547 | 12.069 | 31.589 | 2 |
| 2025-05-15T15:24:00 | 54.308835 | 7.472051 | 2.0 | 11.878 | 2 | 36.541 | 12.057 | 31.594 | 2 |
| 2025-05-15T15:25:00 | 54.310748 | 7.468073 | 2.0 | 11.868 | 2 | 36.531 | 12.050 | 31.590 | 2 |
| 2025-05-15T15:26:00 | 54.312686 | 7.464143 | 2.0 | 11.868 | 2 | 36.531 | 12.040 | 31.598 | 2 |
| 2025-05-15T15:27:00 | 54.314652 | 7.460183 | 2.0 | 11.873 | 2 | 36.538 | 12.040 | 31.605 | 2 |
| 2025-05-15T15:28:00 | 54.316586 | 7.456210 | 2.0 | 11.891 | 2 | 36.548 | 12.050 | 31.606 | 2 |
| 2025-05-15T15:29:00 | 54.318484 | 7.452304 | 2.0 | 11.905 | 2 | 36.565 | 12.066 | 31.609 | 2 |
| 2025-05-15T15:30:00 | 54.320377 | 7.448513 | 2.0 | 11.907 | 2 | 36.580 | 12.078 | 31.613 | 2 |
| 2025-05-15T15:31:00 | 54.322364 | 7.444615 | 2.0 | 11.890 | 2 | 36.584 | 12.073 | 31.621 | 2 |
| 2025-05-15T15:32:00 | 54.324279 | 7.440574 | 2.0 | 11.890 | 2 | 36.583 | 12.063 | 31.629 | 2 |
| 2025-05-15T15:33:00 | 54.326214 | 7.436672 | 2.0 | 11.878 | 2 | 36.586 | 12.061 | 31.634 | 2 |
| 2025-05-15T15:34:00 | 54.328067 | 7.432836 | 2.0 | 11.879 | 2 | 36.584 | 12.051 | 31.640 | 2 |
| 2025-05-15T15:35:00 | 54.329960 | 7.429022 | 2.0 | 11.863 | 2 | 36.593 | 12.049 | 31.650 | 2 |
| 2025-05-15T15:36:00 | 54.331889 | 7.425118 | 2.0 | 11.882 | 2 | 36.600 | 12.035 | 31.669 | 2 |
| 2025-05-15T15:37:00 | 54.333823 | 7.421248 | 2.0 | 11.953 | 2 | 36.630 | 12.065 | 31.672 | 2 |
| 2025-05-15T15:38:00 | 54.335687 | 7.417368 | 2.0 | 12.002 | 2 | 36.685 | 12.130 | 31.670 | 2 |
| 2025-05-15T15:39:00 | 54.337493 | 7.413526 | 2.0 | 12.054 | 2 | 36.734 | 12.179 | 31.676 | 2 |
| 2025-05-15T15:40:00 | 54.339407 | 7.409648 | 2.0 | 12.082 | 2 | 36.772 | 12.224 | 31.674 | 2 |
| 2025-05-15T15:41:00 | 54.341228 | 7.405940 | 2.0 | 12.133 | 2 | 36.803 | 12.255 | 31.677 | 2 |
| 2025-05-15T15:42:00 | 54.343140 | 7.402081 | 2.0 | 12.210 | 2 | 36.847 | 12.310 | 31.673 | 2 |
| 2025-05-15T15:43:00 | 54.345025 | 7.398231 | 2.0 | 12.281 | 2 | 36.905 | 12.387 | 31.663 | 2 |
| 2025-05-15T15:44:00 | 54.346851 | 7.394501 | 2.0 | 12.339 | 2 | 36.954 | 12.456 | 31.652 | 2 |
| 2025-05-15T15:45:00 | 54.348662 | 7.390813 | 2.0 | 12.384 | 2 | 37.008 | 12.512 | 31.656 | 2 |
| 2025-05-15T15:46:00 | 54.350563 | 7.386955 | 2.0 | 12.429 | 2 | 37.055 | 12.557 | 31.663 | 2 |
| 2025-05-15T15:47:00 | 54.352413 | 7.383121 | 2.0 | 12.461 | 2 | 37.102 | 12.598 | 31.673 | 2 |
| 2025-05-15T15:48:00 | 54.354309 | 7.379227 | 2.0 | 12.486 | 2 | 37.150 | 12.631 | 31.691 | 2 |
| 2025-05-15T15:49:00 | 54.356201 | 7.375351 | 2.0 | 12.508 | 2 | 37.191 | 12.656 | 31.709 | 2 |
| 2025-05-15T15:50:00 | 54.358050 | 7.371608 | 2.0 | 12.520 | 2 | 37.223 | 12.674 | 31.724 | 2 |
| 2025-05-15T15:51:00 | 54.359886 | 7.367939 | 2.0 | 12.524 | 2 | 37.253 | 12.687 | 31.742 | 2 |
| 2025-05-15T15:52:00 | 54.361715 | 7.364124 | 2.0 | 12.519 | 2 | 37.281 | 12.688 | 31.767 | 2 |
| 2025-05-15T15:53:00 | 54.363642 | 7.360324 | 2.0 | 12.522 | 2 | 37.310 | 12.688 | 31.795 | 2 |
| 2025-05-15T15:54:00 | 54.365504 | 7.356430 | 2.0 | 12.523 | 2 | 37.354 | 12.690 | 31.835 | 2 |
| 2025-05-15T15:56:00 | 54.369329 | 7.348666 | 2.0 | 12.408 | 2 | 37.467 | 12.617 | 32.004 | 2 |
| 2025-05-15T15:57:00 | 54.371284 | 7.344645 | 2.0 | 12.412 | 2 | 37.484 | 12.581 | 32.051 | 2 |
| 2025-05-15T15:58:00 | 54.373265 | 7.340653 | 2.0 | 12.149 | 2 | 37.499 | 12.508 | 32.127 | 2 |
| 2025-05-15T15:59:00 | 54.375202 | 7.336714 | 2.0 | 12.154 | 2 | 37.490 | 12.341 | 32.262 | 2 |
| 2025-05-15T16:00:00 | 54.377121 | 7.332816 | 2.0 | 12.162 | 2 | 37.493 | 12.331 | 32.273 | 2 |
| 2025-05-15T16:01:00 | 54.379057 | 7.328930 | 2.0 | 12.169 | 2 | 37.506 | 12.337 | 32.281 | 2 |
| 2025-05-15T16:02:00 | 54.380984 | 7.324992 | 2.0 | 12.169 | 2 | 37.519 | 12.340 | 32.290 | 2 |
| 2025-05-15T16:03:00 | 54.382847 | 7.321146 | 2.0 | 12.174 | 2 | 37.437 | 12.347 | 32.206 | 2 |
| 2025-05-15T16:04:00 | 54.384607 | 7.317491 | 2.0 | 12.175 | 2 | 37.484 | 12.346 | 32.252 | 2 |
| 2025-05-15T16:05:00 | 54.386563 | 7.313682 | 2.0 | 12.174 | 2 | 37.544 | 12.346 | 32.309 | 2 |
| 2025-05-15T16:06:00 | 54.388510 | 7.309711 | 2.0 | 12.176 | 2 | 37.554 | 12.345 | 32.320 | 2 |
| 2025-05-15T16:07:00 | 54.390406 | 7.305787 | 2.0 | 12.173 | 2 | 37.562 | 12.346 | 32.326 | 2 |
| 2025-05-15T16:08:00 | 54.392315 | 7.301842 | 2.0 | 12.164 | 2 | 37.565 | 12.343 | 32.332 | 2 |
| 2025-05-15T16:09:00 | 54.394207 | 7.298066 | 2.0 | 12.154 | 2 | 37.561 | 12.334 | 32.336 | 2 |
| 2025-05-15T16:10:00 | 54.396060 | 7.294332 | 2.0 | 12.146 | 2 | 37.557 | 12.325 | 32.340 | 2 |
| 2025-05-15T16:11:00 | 54.397981 | 7.290407 | 2.0 | 12.137 | 2 | 37.550 | 12.317 | 32.340 | 2 |
| 2025-05-15T16:12:00 | 54.399911 | 7.286479 | 2.0 | 12.136 | 2 | 37.540 | 12.308 | 32.338 | 2 |
| 2025-05-15T16:13:00 | 54.401858 | 7.282474 | 2.0 | 12.136 | 2 | 37.539 | 12.308 | 32.337 | 2 |
| 2025-05-15T16:14:00 | 54.403725 | 7.278623 | 2.0 | 12.135 | 2 | 37.534 | 12.307 | 32.333 | 2 |
| 2025-05-15T16:15:00 | 54.405545 | 7.274867 | 2.0 | 12.137 | 2 | 37.523 | 12.308 | 32.322 | 2 |
| 2025-05-15T16:16:00 | 54.407371 | 7.271084 | 2.0 | 12.137 | 2 | 37.530 | 12.307 | 32.329 | 2 |
| 2025-05-15T16:17:00 | 54.409291 | 7.267265 | 2.0 | 12.142 | 2 | 37.536 | 12.310 | 32.333 | 2 |
| 2025-05-15T16:18:00 | 54.411200 | 7.263469 | 2.0 | 12.142 | 2 | 37.545 | 12.313 | 32.339 | 2 |
| 2025-05-15T16:19:00 | 54.413106 | 7.259486 | 2.0 | 12.141 | 2 | 37.542 | 12.313 | 32.336 | 2 |
| 2025-05-15T16:20:00 | 54.414963 | 7.255709 | 2.0 | 12.142 | 2 | 37.539 | 12.312 | 32.334 | 2 |
| 2025-05-15T16:21:00 | 54.416827 | 7.251877 | 2.0 | 12.140 | 2 | 37.539 | 12.312 | 32.334 | 2 |
| 2025-05-15T16:22:00 | 54.418722 | 7.248039 | 2.0 | 12.133 | 2 | 37.538 | 12.311 | 32.334 | 2 |
| 2025-05-15T16:23:00 | 54.420595 | 7.244166 | 2.0 | 12.130 | 2 | 37.540 | 12.303 | 32.342 | 2 |
| 2025-05-15T16:24:00 | 54.422480 | 7.240292 | 2.0 | 12.127 | 2 | 37.549 | 12.300 | 32.354 | 2 |
| 2025-05-15T16:25:00 | 54.424418 | 7.236364 | 2.0 | 12.128 | 2 | 37.559 | 12.299 | 32.364 | 2 |
| 2025-05-15T16:26:00 | 54.426355 | 7.232415 | 2.0 | 12.108 | 2 | 37.567 | 12.295 | 32.375 | 2 |
| 2025-05-15T16:27:00 | 54.428291 | 7.228552 | 2.0 | 12.094 | 2 | 37.572 | 12.278 | 32.395 | 2 |
| 2025-05-15T16:28:00 | 54.430180 | 7.224684 | 2.0 | 12.088 | 2 | 37.573 | 12.266 | 32.406 | 2 |
| 2025-05-15T16:29:00 | 54.432047 | 7.220845 | 2.0 | 12.097 | 2 | 37.580 | 12.262 | 32.416 | 2 |
| 2025-05-15T16:30:00 | 54.433928 | 7.216942 | 2.0 | 12.099 | 2 | 37.589 | 12.270 | 32.418 | 2 |
| 2025-05-15T16:31:00 | 54.435759 | 7.213136 | 2.0 | 12.094 | 2 | 37.596 | 12.269 | 32.426 | 2 |
| 2025-05-15T16:32:00 | 54.437638 | 7.209382 | 2.0 | 12.094 | 2 | 37.589 | 12.267 | 32.421 | 2 |
| 2025-05-15T16:33:00 | 54.439508 | 7.205550 | 2.0 | 12.093 | 2 | 37.579 | 12.265 | 32.413 | 2 |
| 2025-05-15T16:34:00 | 54.441395 | 7.201662 | 2.0 | 12.100 | 2 | 37.566 | 12.264 | 32.401 | 2 |
| 2025-05-15T16:35:00 | 54.443237 | 7.197862 | 2.0 | 12.109 | 2 | 37.564 | 12.273 | 32.391 | 2 |
| 2025-05-15T16:36:00 | 54.445126 | 7.194062 | 2.0 | 12.112 | 2 | 37.570 | 12.280 | 32.391 | 2 |
| 2025-05-15T16:37:00 | 54.447062 | 7.190169 | 2.0 | 12.106 | 2 | 37.573 | 12.281 | 32.393 | 2 |
| 2025-05-15T16:38:00 | 54.449020 | 7.186181 | 2.0 | 12.108 | 2 | 37.572 | 12.278 | 32.395 | 2 |
| 2025-05-15T16:39:00 | 54.450920 | 7.182225 | 2.0 | 12.114 | 2 | 37.565 | 12.280 | 32.386 | 2 |
| 2025-05-15T16:40:00 | 54.452866 | 7.178290 | 2.0 | 12.123 | 2 | 37.559 | 12.285 | 32.376 | 2 |
| 2025-05-15T16:41:00 | 54.454837 | 7.174284 | 2.0 | 12.126 | 2 | 37.556 | 12.294 | 32.366 | 2 |
| 2025-05-15T16:42:00 | 54.456633 | 7.170503 | 2.0 | 12.131 | 2 | 37.548 | 12.296 | 32.356 | 2 |
| 2025-05-15T16:43:00 | 54.458549 | 7.166593 | 2.0 | 12.142 | 2 | 37.545 | 12.303 | 32.347 | 2 |
| 2025-05-15T16:44:00 | 54.460483 | 7.162687 | 2.0 | 12.152 | 2 | 37.545 | 12.313 | 32.339 | 2 |
| 2025-05-15T16:45:00 | 54.462398 | 7.158752 | 2.0 | 12.159 | 2 | 37.548 | 12.323 | 32.333 | 2 |
| 2025-05-15T16:46:00 | 54.464315 | 7.154807 | 2.0 | 12.150 | 2 | 37.556 | 12.329 | 32.335 | 2 |
| 2025-05-15T16:47:00 | 54.466243 | 7.150832 | 2.0 | 12.162 | 2 | 37.550 | 12.322 | 32.336 | 2 |
| 2025-05-15T16:48:00 | 54.468168 | 7.146886 | 2.0 | 12.173 | 2 | 37.076 | 12.334 | 31.872 | 2 |
| 2025-05-15T16:49:00 | 54.470112 | 7.142912 | 2.0 | 12.175 | 2 | 37.546 | 12.343 | 32.314 | 2 |
| 2025-05-15T16:50:00 | 54.472043 | 7.138941 | 2.0 | 12.168 | 2 | 37.056 | 12.344 | 31.844 | 2 |
| 2025-05-15T16:51:00 | 54.473951 | 7.135103 | 2.0 | 12.162 | 2 | 37.020 | 12.338 | 31.815 | 2 |
| 2025-05-15T16:52:00 | 54.475709 | 7.131427 | 2.0 | 12.158 | 2 | 37.485 | 12.333 | 32.264 | 2 |
| 2025-05-15T16:53:00 | 54.477640 | 7.127584 | 2.0 | 12.167 | 2 | 37.472 | 12.329 | 32.255 | 2 |
| 2025-05-15T16:54:00 | 54.479519 | 7.123674 | 2.0 | 12.179 | 2 | 37.463 | 12.339 | 32.238 | 2 |
| 2025-05-15T16:55:00 | 54.481382 | 7.119813 | 2.0 | 12.188 | 2 | 37.465 | 12.351 | 32.229 | 2 |
| 2025-05-15T16:56:00 | 54.483230 | 7.116014 | 2.0 | 12.182 | 2 | 37.222 | 12.358 | 31.991 | 2 |
| 2025-05-15T16:57:00 | 54.485014 | 7.112362 | 2.0 | 12.165 | 2 | 37.109 | 12.351 | 31.889 | 2 |
| 2025-05-15T16:58:00 | 54.486859 | 7.108691 | 2.0 | 12.158 | 2 | 37.403 | 12.336 | 32.183 | 2 |
| 2025-05-15T16:59:00 | 54.488802 | 7.104757 | 2.0 | 12.157 | 2 | 37.427 | 12.331 | 32.210 | 2 |
| 2025-05-15T17:04:00 | 54.497961 | 7.085954 | 2.0 | 12.132 | 2 | 37.394 | 12.314 | 32.193 | 2 |
| 2025-05-15T17:05:00 | 54.499818 | 7.082163 | 2.0 | 12.127 | 2 | 37.364 | 12.301 | 32.176 | 2 |
| 2025-05-15T17:06:00 | 54.501694 | 7.078381 | 2.0 | 12.126 | 2 | 37.361 | 12.297 | 32.176 | 2 |
| 2025-05-15T17:07:00 | 54.503623 | 7.074412 | 2.0 | 12.123 | 2 | 37.355 | 12.295 | 32.172 | 2 |
| 2025-05-15T17:08:00 | 54.505514 | 7.070478 | 2.0 | 12.135 | 2 | 37.235 | 12.297 | 32.055 | 2 |
| 2025-05-15T17:09:00 | 54.507384 | 7.066744 | 2.0 | 12.145 | 2 | 37.306 | 12.307 | 32.115 | 2 |
| 2025-05-15T17:10:00 | 54.509237 | 7.062873 | 2.0 | 12.158 | 2 | 37.352 | 12.316 | 32.151 | 2 |
| 2025-05-15T17:11:00 | 54.511086 | 7.059076 | 2.0 | 12.203 | 2 | 37.360 | 12.333 | 32.144 | 2 |
| 2025-05-15T17:12:00 | 54.512983 | 7.055239 | 2.0 | 12.247 | 2 | 37.400 | 12.379 | 32.143 | 2 |
| 2025-05-15T17:13:00 | 54.514802 | 7.051420 | 2.0 | 12.279 | 2 | 37.437 | 12.420 | 32.143 | 2 |
| 2025-05-15T17:14:00 | 54.516629 | 7.047727 | 2.0 | 12.299 | 2 | 37.464 | 12.450 | 32.143 | 2 |
| 2025-05-15T17:15:00 | 54.518405 | 7.044021 | 2.0 | 12.304 | 2 | 37.148 | 12.473 | 31.822 | 2 |
| 2025-05-15T17:16:00 | 54.520215 | 7.040386 | 2.0 | 12.302 | 2 | 37.442 | 12.474 | 32.102 | 2 |
| 2025-05-15T17:18:00 | 54.523894 | 7.032979 | 2.0 | 12.290 | 2 | 37.375 | 12.466 | 32.045 | 2 |
| 2025-05-15T17:19:00 | 54.525737 | 7.029119 | 2.0 | 12.283 | 2 | 37.407 | 12.459 | 32.081 | 2 |
| 2025-05-15T17:20:00 | 54.527596 | 7.025310 | 2.0 | 12.276 | 2 | 37.424 | 12.453 | 32.103 | 2 |
| 2025-05-15T17:21:00 | 54.529415 | 7.021545 | 2.0 | 12.266 | 2 | 37.411 | 12.445 | 32.097 | 2 |
| 2025-05-15T17:22:00 | 54.531351 | 7.017741 | 2.0 | 12.261 | 2 | 37.406 | 12.436 | 32.100 | 2 |
| 2025-05-15T17:23:00 | 54.533082 | 7.014023 | 2.0 | 12.262 | 2 | 37.399 | 12.432 | 32.097 | 2 |
| 2025-05-15T17:25:00 | 54.536531 | 7.006911 | 2.0 | 12.247 | 2 | 37.326 | 12.424 | 32.034 | 2 |
| 2025-05-15T17:26:00 | 54.538342 | 7.003257 | 2.0 | 12.238 | 2 | 37.386 | 12.415 | 32.099 | 2 |
| 2025-05-15T17:27:00 | 54.540164 | 6.999543 | 2.0 | 12.231 | 2 | 37.387 | 12.411 | 32.103 | 2 |
| 2025-05-15T17:28:00 | 54.541919 | 6.995927 | 2.0 | 12.229 | 2 | 37.376 | 12.403 | 32.100 | 2 |
| 2025-05-15T17:29:00 | 54.543675 | 6.992338 | 2.0 | 12.230 | 2 | 37.384 | 12.403 | 32.107 | 2 |
| 2025-05-15T17:33:00 | 54.550705 | 6.977925 | 2.0 | 12.249 | 2 | 37.432 | 12.419 | 32.139 | 2 |
| 2025-05-15T17:34:00 | 54.552479 | 6.974330 | 2.0 | 12.253 | 2 | 37.449 | 12.419 | 32.156 | 2 |
| 2025-05-15T17:37:00 | 54.557624 | 6.963775 | 2.0 | 12.259 | 2 | 37.497 | 12.427 | 32.195 | 2 |
| 2025-05-15T17:38:00 | 54.559474 | 6.959977 | 2.0 | 12.260 | 2 | 37.522 | 12.430 | 32.216 | 2 |
| 2025-05-15T17:39:00 | 54.561256 | 6.956142 | 2.0 | 12.252 | 2 | 37.545 | 12.430 | 32.238 | 2 |
| 2025-05-15T17:40:00 | 54.563006 | 6.952510 | 2.0 | 12.248 | 2 | 37.570 | 12.422 | 32.269 | 2 |
| 2025-05-15T17:41:00 | 54.564782 | 6.948843 | 2.0 | 12.260 | 2 | 37.581 | 12.420 | 32.281 | 2 |
| 2025-05-15T17:44:00 | 54.569947 | 6.937714 | 2.0 | 12.337 | 2 | 37.662 | 12.486 | 32.302 | 2 |
| 2025-05-15T17:45:00 | 54.571751 | 6.933862 | 2.0 | 12.331 | 2 | 37.758 | 12.500 | 32.381 | 2 |
| 2025-05-15T17:46:00 | 54.573565 | 6.930090 | 2.0 | 12.341 | 2 | 37.835 | 12.502 | 32.453 | 2 |
| 2025-05-15T17:47:00 | 54.575315 | 6.926340 | 2.0 | 12.353 | 2 | 37.856 | 12.512 | 32.464 | 2 |
| 2025-05-15T17:48:00 | 54.577110 | 6.922521 | 2.0 | 12.278 | 2 | 37.874 | 12.517 | 32.477 | 2 |
| 2025-05-15T17:49:00 | 54.578930 | 6.918760 | 2.0 | 12.212 | 2 | 37.882 | 12.434 | 32.557 | 2 |
| 2025-05-15T17:50:00 | 54.580559 | 6.915151 | 2.0 | 12.206 | 2 | 37.842 | 12.387 | 32.559 | 2 |
| 2025-05-15T17:51:00 | 54.582306 | 6.911508 | 2.0 | 12.222 | 2 | 37.836 | 12.382 | 32.558 | 2 |
| 2025-05-15T17:52:00 | 54.584044 | 6.907949 | 2.0 | 12.235 | 2 | 37.828 | 12.397 | 32.537 | 2 |
| 2025-05-15T17:53:00 | 54.585679 | 6.904285 | 2.0 | 12.251 | 2 | 37.813 | 12.413 | 32.509 | 2 |
| 2025-05-15T17:54:00 | 54.587406 | 6.900648 | 2.0 | 12.256 | 2 | 37.818 | 12.422 | 32.506 | 2 |
| 2025-05-15T17:55:00 | 54.589133 | 6.896961 | 2.0 | 12.252 | 2 | 37.820 | 12.425 | 32.505 | 2 |
| 2025-05-15T17:56:00 | 54.590915 | 6.893210 | 2.0 | 12.241 | 2 | 37.804 | 12.420 | 32.494 | 2 |
| 2025-05-15T17:57:00 | 54.592678 | 6.889442 | 2.0 | 12.233 | 2 | 37.730 | 12.419 | 32.424 | 2 |
| 2025-05-15T17:58:00 | 54.594302 | 6.885871 | 2.0 | 12.223 | 2 | 37.761 | 12.406 | 32.465 | 2 |
| 2025-05-15T17:59:00 | 54.595936 | 6.882381 | 2.0 | 12.222 | 2 | 37.755 | 12.395 | 32.469 | 2 |
| 2025-05-15T18:00:00 | 54.597585 | 6.878920 | 2.0 | 12.218 | 2 | 37.759 | 12.393 | 32.475 | 2 |
| 2025-05-15T18:01:00 | 54.599217 | 6.875423 | 2.0 | 12.223 | 2 | 37.762 | 12.389 | 32.481 | 2 |
| 2025-05-15T18:02:00 | 54.600902 | 6.871826 | 2.0 | 12.233 | 2 | 37.770 | 12.396 | 32.482 | 2 |
| 2025-05-15T18:03:00 | 54.602574 | 6.868321 | 2.0 | 12.242 | 2 | 37.785 | 12.405 | 32.489 | 2 |
| 2025-05-15T18:04:00 | 54.604217 | 6.864700 | 2.0 | 12.218 | 2 | 37.809 | 12.409 | 32.509 | 2 |
| 2025-05-15T18:05:00 | 54.605945 | 6.861162 | 2.0 | 12.207 | 2 | 37.822 | 12.385 | 32.542 | 2 |
| 2025-05-15T18:06:00 | 54.607712 | 6.857497 | 2.0 | 12.195 | 2 | 37.830 | 12.376 | 32.557 | 2 |
| 2025-05-15T18:07:00 | 54.609482 | 6.853716 | 2.0 | 12.174 | 2 | 37.832 | 12.362 | 32.571 | 2 |
| 2025-05-15T18:08:00 | 54.611178 | 6.850054 | 2.0 | 12.152 | 2 | 37.827 | 12.340 | 32.586 | 2 |
| 2025-05-15T18:09:00 | 54.612901 | 6.846400 | 2.0 | 12.123 | 2 | 37.822 | 12.320 | 32.598 | 2 |
| 2025-05-15T18:10:00 | 54.614521 | 6.842931 | 2.0 | 12.101 | 2 | 37.810 | 12.294 | 32.609 | 2 |
| 2025-05-15T18:11:00 | 54.616262 | 6.839291 | 2.0 | 12.070 | 2 | 37.807 | 12.266 | 32.631 | 2 |
| 2025-05-15T18:12:00 | 54.617973 | 6.835649 | 2.0 | 12.049 | 2 | 37.777 | 12.245 | 32.620 | 2 |
| 2025-05-15T18:13:00 | 54.619798 | 6.832133 | 2.0 | 12.017 | 2 | 37.793 | 12.216 | 32.661 | 2 |
| 2025-05-15T18:14:00 | 54.621617 | 6.828657 | 2.0 | 12.006 | 2 | 37.788 | 12.191 | 32.678 | 2 |
| 2025-05-15T18:15:00 | 54.623391 | 6.825362 | 2.0 | 11.995 | 2 | 37.781 | 12.178 | 32.683 | 2 |
| 2025-05-15T18:16:00 | 54.625174 | 6.821930 | 2.0 | 11.995 | 2 | 37.780 | 12.168 | 32.690 | 2 |
| 2025-05-15T18:17:00 | 54.626923 | 6.818479 | 2.0 | 11.993 | 2 | 37.773 | 12.168 | 32.684 | 2 |
| 2025-05-15T18:18:00 | 54.628640 | 6.815187 | 2.0 | 11.988 | 2 | 37.501 | 12.168 | 32.422 | 2 |
| 2025-05-15T18:19:00 | 54.630524 | 6.811926 | 2.0 | 11.982 | 2 | 37.770 | 12.160 | 32.688 | 2 |
| 2025-05-15T18:20:00 | 54.632480 | 6.808619 | 2.0 | 11.977 | 2 | 37.779 | 12.153 | 32.703 | 2 |
| 2025-05-15T18:22:00 | 54.636351 | 6.801628 | 2.0 | 11.970 | 2 | 37.789 | 12.147 | 32.717 | 2 |
| 2025-05-15T18:23:00 | 54.638204 | 6.798376 | 2.0 | 11.960 | 2 | 37.751 | 12.142 | 32.685 | 2 |
| 2025-05-15T18:24:00 | 54.640014 | 6.795017 | 2.0 | 11.960 | 2 | 37.778 | 12.133 | 32.719 | 2 |
| 2025-05-15T18:25:00 | 54.641962 | 6.791691 | 2.0 | 11.966 | 2 | 37.793 | 12.135 | 32.732 | 2 |
| 2025-05-15T18:26:00 | 54.643836 | 6.788253 | 2.0 | 11.957 | 2 | 37.808 | 12.137 | 32.745 | 2 |
| 2025-05-15T18:27:00 | 54.645725 | 6.784817 | 2.0 | 11.952 | 2 | 37.813 | 12.129 | 32.756 | 2 |
| 2025-05-15T18:28:00 | 54.647688 | 6.781439 | 2.0 | 11.945 | 2 | 37.814 | 12.123 | 32.763 | 2 |
| 2025-05-15T18:29:00 | 54.649560 | 6.778045 | 2.0 | 11.942 | 2 | 37.815 | 12.118 | 32.768 | 2 |
| 2025-05-15T18:30:00 | 54.651428 | 6.774669 | 2.0 | 11.941 | 2 | 37.812 | 12.115 | 32.768 | 2 |
| 2025-05-15T18:31:00 | 54.653294 | 6.771409 | 2.0 | 11.935 | 2 | 37.804 | 12.114 | 32.761 | 2 |
| 2025-05-15T18:32:00 | 54.655160 | 6.768005 | 2.0 | 11.930 | 2 | 37.802 | 12.106 | 32.766 | 2 |
| 2025-05-15T18:33:00 | 54.657118 | 6.764589 | 2.0 | 11.924 | 2 | 37.805 | 12.101 | 32.773 | 2 |
| 2025-05-15T18:34:00 | 54.658974 | 6.761252 | 2.0 | 11.908 | 2 | 37.783 | 12.094 | 32.758 | 2 |
| 2025-05-15T18:35:00 | 54.660746 | 6.758099 | 2.0 | 11.908 | 2 | 37.791 | 12.081 | 32.777 | 2 |
| 2025-05-15T18:36:00 | 54.662506 | 6.754868 | 2.0 | 11.921 | 2 | 37.776 | 12.088 | 32.757 | 2 |
| 2025-05-15T18:38:00 | 54.666057 | 6.748563 | 2.0 | 11.899 | 2 | 37.760 | 12.075 | 32.753 | 2 |
| 2025-05-15T18:39:00 | 54.667820 | 6.745383 | 2.0 | 11.838 | 2 | 37.762 | 12.050 | 32.776 | 2 |
| 2025-05-15T18:43:00 | 54.674893 | 6.732788 | 2.0 | 11.840 | 2 | 37.768 | 12.015 | 32.813 | 2 |
| 2025-05-15T18:44:00 | 54.676678 | 6.729733 | 2.0 | 11.841 | 2 | 37.789 | 12.012 | 32.836 | 2 |
| 2025-05-15T18:45:00 | 54.678454 | 6.726595 | 2.0 | 11.841 | 2 | 37.690 | 12.018 | 32.735 | 2 |
| 2025-05-15T18:48:00 | 54.683613 | 6.717423 | 2.0 | 11.880 | 2 | 37.826 | 12.036 | 32.851 | 2 |
| 2025-05-15T18:52:00 | 54.690779 | 6.704617 | 2.0 | 11.841 | 2 | 37.861 | 12.021 | 32.898 | 2 |
| 2025-05-15T18:53:00 | 54.692644 | 6.701377 | 2.0 | 11.827 | 2 | 37.870 | 12.006 | 32.920 | 2 |
| 2025-05-15T18:54:00 | 54.694521 | 6.698001 | 2.0 | 11.833 | 2 | 37.871 | 12.000 | 32.926 | 2 |
| 2025-05-15T18:55:00 | 54.696314 | 6.694699 | 2.0 | 11.833 | 2 | 37.874 | 12.004 | 32.925 | 2 |
| 2025-05-15T18:56:00 | 54.698100 | 6.691458 | 2.0 | 11.828 | 2 | 37.877 | 12.004 | 32.928 | 2 |
| 2025-05-15T18:57:00 | 54.699924 | 6.688222 | 2.0 | 11.823 | 2 | 37.881 | 12.000 | 32.936 | 2 |
| 2025-05-15T18:58:00 | 54.701706 | 6.684969 | 2.0 | 11.817 | 2 | 37.887 | 11.995 | 32.946 | 2 |
| 2025-05-15T18:59:00 | 54.703501 | 6.681838 | 2.0 | 11.810 | 2 | 37.896 | 11.987 | 32.962 | 2 |
| 2025-05-15T19:00:00 | 54.705366 | 6.678578 | 2.0 | 11.808 | 2 | 37.913 | 11.982 | 32.983 | 2 |
| 2025-05-15T19:01:00 | 54.707183 | 6.675339 | 2.0 | 11.821 | 2 | 37.923 | 11.981 | 32.993 | 2 |
| 2025-05-15T19:02:00 | 54.709082 | 6.672019 | 2.0 | 11.843 | 2 | 37.971 | 11.997 | 33.025 | 2 |
| 2025-05-15T19:03:00 | 54.710888 | 6.668697 | 2.0 | 11.870 | 2 | 37.990 | 12.016 | 33.027 | 2 |
| 2025-05-15T19:05:00 | 54.714586 | 6.662117 | 2.0 | 11.910 | 2 | 38.099 | 12.080 | 33.076 | 2 |
| 2025-05-15T19:06:00 | 54.716369 | 6.658848 | 2.0 | 11.902 | 2 | 38.154 | 12.078 | 33.131 | 2 |
| 2025-05-15T19:07:00 | 54.718196 | 6.655636 | 2.0 | 11.912 | 2 | 38.171 | 12.072 | 33.153 | 2 |
| 2025-05-15T19:08:00 | 54.720052 | 6.652300 | 2.0 | 11.890 | 2 | 38.167 | 12.081 | 33.141 | 2 |
| 2025-05-15T19:09:00 | 54.721867 | 6.649112 | 2.0 | 11.885 | 2 | 38.163 | 12.063 | 33.153 | 2 |
| 2025-05-15T19:10:00 | 54.723590 | 6.646006 | 2.0 | 11.878 | 2 | 38.150 | 12.055 | 33.147 | 2 |
| 2025-05-15T19:11:00 | 54.725382 | 6.642839 | 2.0 | 11.871 | 2 | 38.132 | 12.052 | 33.133 | 2 |
| 2025-05-15T19:12:00 | 54.727093 | 6.639671 | 2.0 | 11.858 | 2 | 37.928 | 12.042 | 32.944 | 2 |
| 2025-05-15T19:13:00 | 54.728895 | 6.636539 | 2.0 | 11.842 | 2 | 38.017 | 12.028 | 33.043 | 2 |
| 2025-05-15T19:14:00 | 54.730730 | 6.633333 | 2.0 | 11.809 | 2 | 38.093 | 12.009 | 33.133 | 2 |
| 2025-05-15T19:15:00 | 54.732565 | 6.629993 | 2.0 | 11.810 | 2 | 38.064 | 11.981 | 33.130 | 2 |
| 2025-05-15T19:16:00 | 54.734428 | 6.626655 | 2.0 | 11.825 | 2 | 38.067 | 11.987 | 33.127 | 2 |
| 2025-05-15T19:17:00 | 54.736247 | 6.623341 | 2.0 | 11.827 | 2 | 38.080 | 11.998 | 33.130 | 2 |
| 2025-05-15T19:18:00 | 54.738101 | 6.620080 | 2.0 | 11.834 | 2 | 38.087 | 12.000 | 33.135 | 2 |
| 2025-05-15T19:19:00 | 54.739874 | 6.616929 | 2.0 | 11.848 | 2 | 38.120 | 12.007 | 33.161 | 2 |
| 2025-05-15T19:20:00 | 54.741708 | 6.613681 | 2.0 | 11.872 | 2 | 38.154 | 12.024 | 33.179 | 2 |
| 2025-05-15T19:21:00 | 54.743546 | 6.610403 | 2.0 | 11.890 | 2 | 38.195 | 12.046 | 33.199 | 2 |
| 2025-05-15T19:22:00 | 54.745328 | 6.607217 | 2.0 | 11.906 | 2 | 38.233 | 12.063 | 33.221 | 2 |
| 2025-05-15T19:23:00 | 54.747079 | 6.604085 | 2.0 | 11.913 | 2 | 38.249 | 12.077 | 33.224 | 2 |
| 2025-05-15T19:24:00 | 54.748898 | 6.600900 | 2.0 | 11.923 | 2 | 38.286 | 12.086 | 33.251 | 2 |
| 2025-05-15T19:25:00 | 54.750731 | 6.597703 | 2.0 | 11.926 | 2 | 38.320 | 12.093 | 33.278 | 2 |
| 2025-05-15T19:26:00 | 54.752564 | 6.594360 | 2.0 | 11.931 | 2 | 38.345 | 12.097 | 33.299 | 2 |
| 2025-05-15T19:27:00 | 54.754358 | 6.591047 | 2.0 | 11.940 | 2 | 38.376 | 12.103 | 33.323 | 2 |
| 2025-05-15T19:28:00 | 54.756222 | 6.587728 | 2.0 | 11.948 | 2 | 38.416 | 12.111 | 33.355 | 2 |
| 2025-05-15T19:29:00 | 54.758121 | 6.584487 | 2.0 | 11.954 | 2 | 38.447 | 12.118 | 33.379 | 2 |
| 2025-05-15T19:30:00 | 54.759898 | 6.581213 | 2.0 | 11.973 | 2 | 38.482 | 12.128 | 33.403 | 2 |
| 2025-05-15T19:31:00 | 54.761718 | 6.577966 | 2.0 | 11.993 | 2 | 38.535 | 12.146 | 33.439 | 2 |
| 2025-05-15T19:32:00 | 54.763528 | 6.574706 | 2.0 | 11.972 | 2 | 38.574 | 12.161 | 33.463 | 2 |
| 2025-05-15T19:33:00 | 54.765363 | 6.571408 | 2.0 | 11.937 | 2 | 38.584 | 12.141 | 33.490 | 2 |
| 2025-05-15T19:34:00 | 54.767179 | 6.568214 | 2.0 | 11.898 | 2 | 38.575 | 12.099 | 33.519 | 2 |
| 2025-05-15T19:35:00 | 54.768913 | 6.565063 | 2.0 | 11.906 | 2 | 38.373 | 12.074 | 33.346 | 2 |
| 2025-05-15T19:36:00 | 54.770721 | 6.561884 | 2.0 | 11.907 | 2 | 38.620 | 12.076 | 33.584 | 2 |
| 2025-05-15T19:37:00 | 54.772494 | 6.558599 | 2.0 | 11.915 | 2 | 38.637 | 12.079 | 33.598 | 2 |
| 2025-05-15T19:38:00 | 54.774349 | 6.555341 | 2.0 | 11.923 | 2 | 38.646 | 12.087 | 33.599 | 2 |
| 2025-05-15T19:39:00 | 54.776219 | 6.552018 | 2.0 | 11.929 | 2 | 38.652 | 12.094 | 33.599 | 2 |
| 2025-05-15T19:40:00 | 54.778012 | 6.548737 | 2.0 | 11.938 | 2 | 38.653 | 12.103 | 33.591 | 2 |
| 2025-05-15T19:41:00 | 54.779820 | 6.545620 | 2.0 | 11.944 | 2 | 38.656 | 12.111 | 33.587 | 2 |
| 2025-05-15T19:42:00 | 54.781636 | 6.542502 | 2.0 | 11.940 | 2 | 38.598 | 12.116 | 33.526 | 2 |
| 2025-05-15T19:43:00 | 54.783488 | 6.539303 | 2.0 | 11.933 | 2 | 38.642 | 12.110 | 33.574 | 2 |
| 2025-05-15T19:44:00 | 54.785337 | 6.536106 | 2.0 | 11.929 | 2 | 38.641 | 12.103 | 33.580 | 2 |
| 2025-05-15T19:45:00 | 54.787154 | 6.532933 | 2.0 | 11.922 | 2 | 38.634 | 12.099 | 33.577 | 2 |
| 2025-05-15T19:46:00 | 54.788990 | 6.529822 | 2.0 | 11.914 | 2 | 38.629 | 12.092 | 33.578 | 2 |
| 2025-05-15T19:47:00 | 54.790822 | 6.526677 | 2.0 | 11.913 | 2 | 38.623 | 12.086 | 33.578 | 2 |
| 2025-05-15T19:48:00 | 54.792668 | 6.523487 | 2.0 | 11.909 | 2 | 38.618 | 12.084 | 33.575 | 2 |
| 2025-05-15T19:49:00 | 54.794533 | 6.520275 | 2.0 | 11.903 | 2 | 38.614 | 12.080 | 33.574 | 2 |
| 2025-05-15T19:50:00 | 54.796368 | 6.517049 | 2.0 | 11.892 | 2 | 38.601 | 12.072 | 33.569 | 2 |
| 2025-05-15T19:51:00 | 54.798174 | 6.513900 | 2.0 | 11.890 | 2 | 38.590 | 12.064 | 33.565 | 2 |
| 2025-05-15T19:56:00 | 54.807187 | 6.498381 | 2.0 | 11.729 | 2 | 38.380 | 11.925 | 33.487 | 2 |
| 2025-05-15T19:57:00 | 54.809066 | 6.495191 | 2.0 | 11.753 | 2 | 38.327 | 11.908 | 33.450 | 2 |
| 2025-05-15T19:58:00 | 54.810863 | 6.492017 | 2.0 | 11.782 | 2 | 38.321 | 11.930 | 33.425 | 2 |
| 2025-05-15T19:59:00 | 54.812708 | 6.488856 | 2.0 | 11.812 | 2 | 38.330 | 11.957 | 33.409 | 2 |
| 2025-05-15T20:00:00 | 54.814578 | 6.485637 | 2.0 | 11.827 | 2 | 38.343 | 11.984 | 33.398 | 2 |
| 2025-05-15T20:01:00 | 54.816440 | 6.482324 | 2.0 | 11.835 | 2 | 38.344 | 11.998 | 33.386 | 2 |
| 2025-05-15T20:02:00 | 54.818342 | 6.479098 | 2.0 | 11.841 | 2 | 38.342 | 12.007 | 33.376 | 2 |
| 2025-05-15T20:03:00 | 54.820171 | 6.475888 | 2.0 | 11.840 | 2 | 38.337 | 12.011 | 33.368 | 2 |
| 2025-05-15T20:04:00 | 54.822048 | 6.472630 | 2.0 | 11.840 | 2 | 38.330 | 12.011 | 33.361 | 2 |
| 2025-05-15T20:05:00 | 54.823933 | 6.469420 | 2.0 | 11.847 | 2 | 38.330 | 12.011 | 33.361 | 2 |
| 2025-05-15T20:06:00 | 54.825835 | 6.466092 | 2.0 | 11.852 | 2 | 38.337 | 12.017 | 33.362 | 2 |
| 2025-05-15T20:07:00 | 54.827658 | 6.462869 | 2.0 | 11.854 | 2 | 38.344 | 12.024 | 33.363 | 2 |
| 2025-05-15T20:08:00 | 54.829389 | 6.460013 | 2.0 | 11.860 | 2 | 38.351 | 12.025 | 33.369 | 2 |
| 2025-05-15T20:09:00 | 54.831142 | 6.456868 | 2.0 | 11.874 | 2 | 38.360 | 12.032 | 33.371 | 2 |
| 2025-05-15T20:10:00 | 54.832956 | 6.453767 | 2.0 | 11.875 | 2 | 38.376 | 12.043 | 33.377 | 2 |
| 2025-05-15T20:11:00 | 54.834832 | 6.450597 | 2.0 | 11.876 | 2 | 38.387 | 12.045 | 33.386 | 2 |
| 2025-05-15T20:12:00 | 54.836670 | 6.447365 | 2.0 | 11.880 | 2 | 38.396 | 12.047 | 33.393 | 2 |
| 2025-05-15T20:13:00 | 54.838461 | 6.444270 | 2.0 | 11.885 | 2 | 38.407 | 12.053 | 33.398 | 2 |
| 2025-05-15T20:14:00 | 54.840255 | 6.441184 | 2.0 | 11.886 | 2 | 38.415 | 12.055 | 33.404 | 2 |
| 2025-05-15T20:15:00 | 54.842150 | 6.438014 | 2.0 | 11.890 | 2 | 38.424 | 12.057 | 33.411 | 2 |
| 2025-05-15T20:16:00 | 54.844059 | 6.434699 | 2.0 | 11.899 | 2 | 38.436 | 12.062 | 33.418 | 2 |
| 2025-05-15T20:17:00 | 54.845923 | 6.431425 | 2.0 | 11.908 | 2 | 38.451 | 12.071 | 33.424 | 2 |
| 2025-05-15T20:18:00 | 54.847762 | 6.428216 | 2.0 | 11.914 | 2 | 38.469 | 12.078 | 33.436 | 2 |
| 2025-05-15T20:19:00 | 54.849554 | 6.425025 | 2.0 | 11.927 | 2 | 38.485 | 12.087 | 33.443 | 2 |
| 2025-05-15T20:20:00 | 54.851411 | 6.421949 | 2.0 | 11.929 | 2 | 38.505 | 12.097 | 33.453 | 2 |
| 2025-05-15T20:21:00 | 54.853273 | 6.418793 | 2.0 | 11.938 | 2 | 38.409 | 12.101 | 33.357 | 2 |
| 2025-05-15T20:22:00 | 54.854984 | 6.415662 | 2.0 | 11.932 | 2 | 38.181 | 12.112 | 33.127 | 2 |
| 2025-05-15T20:23:00 | 54.856834 | 6.412460 | 2.0 | 11.887 | 2 | 38.545 | 12.092 | 33.497 | 2 |
| 2025-05-15T20:24:00 | 54.858711 | 6.409293 | 2.0 | 11.874 | 2 | 38.533 | 12.058 | 33.516 | 2 |
| 2025-05-15T20:25:00 | 54.860574 | 6.406072 | 2.0 | 11.835 | 2 | 38.068 | 12.038 | 33.083 | 2 |
| 2025-05-15T20:27:00 | 54.864210 | 6.399733 | 2.0 | 11.785 | 2 | 38.305 | 11.988 | 33.357 | 2 |
| 2025-05-15T20:28:00 | 54.866084 | 6.396492 | 2.0 | 11.777 | 2 | 38.415 | 11.958 | 33.491 | 2 |
| 2025-05-15T20:29:00 | 54.867968 | 6.393251 | 2.0 | 11.757 | 2 | 38.466 | 11.948 | 33.550 | 2 |
| 2025-05-15T20:30:00 | 54.869831 | 6.390082 | 2.0 | 11.769 | 2 | 38.459 | 11.931 | 33.558 | 2 |
| 2025-05-15T20:31:00 | 54.871599 | 6.386934 | 2.0 | 11.803 | 2 | 38.478 | 11.950 | 33.559 | 2 |
| 2025-05-15T20:32:00 | 54.873464 | 6.383795 | 2.0 | 11.787 | 2 | 38.502 | 11.967 | 33.567 | 2 |
| 2025-05-15T20:33:00 | 54.875329 | 6.380502 | 2.0 | 11.828 | 2 | 38.514 | 11.968 | 33.578 | 2 |
| 2025-05-15T20:34:00 | 54.877232 | 6.377204 | 2.0 | 11.783 | 2 | 38.535 | 11.980 | 33.588 | 2 |
| 2025-05-15T20:35:00 | 54.879145 | 6.373906 | 2.0 | 11.796 | 2 | 38.526 | 11.961 | 33.596 | 2 |
| 2025-05-15T20:36:00 | 54.881005 | 6.370688 | 2.0 | 11.767 | 2 | 38.535 | 11.961 | 33.605 | 2 |
| 2025-05-15T20:37:00 | 54.882852 | 6.367450 | 2.0 | 11.764 | 2 | 38.522 | 11.941 | 33.610 | 2 |
| 2025-05-15T20:38:00 | 54.884712 | 6.364251 | 2.0 | 11.780 | 2 | 38.519 | 11.941 | 33.607 | 2 |
| 2025-05-15T20:39:00 | 54.886512 | 6.361047 | 2.0 | 11.784 | 2 | 38.530 | 11.952 | 33.608 | 2 |
| 2025-05-15T20:40:00 | 54.888337 | 6.357941 | 2.0 | 11.793 | 2 | 38.536 | 11.955 | 33.611 | 2 |
| 2025-05-15T20:41:00 | 54.890193 | 6.354775 | 2.0 | 11.812 | 2 | 38.548 | 11.969 | 33.610 | 2 |
| 2025-05-15T20:42:00 | 54.892040 | 6.351598 | 2.0 | 11.827 | 2 | 38.566 | 11.984 | 33.614 | 2 |
| 2025-05-15T20:43:00 | 54.893872 | 6.348384 | 2.0 | 11.840 | 2 | 38.578 | 11.999 | 33.612 | 2 |
| 2025-05-15T20:44:00 | 54.895612 | 6.344953 | 2.0 | 11.849 | 2 | 38.588 | 12.012 | 33.610 | 2 |
| 2025-05-15T20:45:00 | 54.897289 | 6.341607 | 2.0 | 11.854 | 2 | 38.591 | 12.020 | 33.606 | 2 |
| 2025-05-15T20:46:00 | 54.898973 | 6.338301 | 2.0 | 11.863 | 2 | 38.593 | 12.026 | 33.603 | 2 |
| 2025-05-15T20:47:00 | 54.900712 | 6.335050 | 2.0 | 11.869 | 2 | 38.595 | 12.033 | 33.598 | 2 |
| 2025-05-15T20:48:00 | 54.902478 | 6.331708 | 2.0 | 11.881 | 2 | 38.532 | 12.042 | 33.529 | 2 |
| 2025-05-15T20:49:00 | 54.904190 | 6.328557 | 2.0 | 11.889 | 2 | 38.436 | 12.051 | 33.428 | 2 |
| 2025-05-15T20:50:00 | 54.905973 | 6.325264 | 2.0 | 11.903 | 2 | 38.470 | 12.061 | 33.452 | 2 |
| 2025-05-15T20:51:00 | 54.907729 | 6.321891 | 2.0 | 11.922 | 2 | 38.461 | 12.076 | 33.430 | 2 |
| 2025-05-15T20:52:00 | 54.909513 | 6.318615 | 2.0 | 11.936 | 2 | 38.605 | 12.094 | 33.553 | 2 |
| 2025-05-15T20:53:00 | 54.911324 | 6.315308 | 2.0 | 11.940 | 2 | 38.627 | 12.104 | 33.565 | 2 |
| 2025-05-15T20:54:00 | 54.913103 | 6.311957 | 2.0 | 11.949 | 2 | 38.618 | 12.111 | 33.550 | 2 |
| 2025-05-15T20:55:00 | 54.914891 | 6.308571 | 2.0 | 11.955 | 2 | 38.617 | 12.119 | 33.542 | 2 |
| 2025-05-15T20:56:00 | 54.916639 | 6.305343 | 2.0 | 11.960 | 2 | 38.620 | 12.124 | 33.541 | 2 |
| 2025-05-15T20:57:00 | 54.918427 | 6.302016 | 2.0 | 11.972 | 2 | 38.629 | 12.131 | 33.543 | 2 |
| 2025-05-15T20:58:00 | 54.920235 | 6.298721 | 2.0 | 11.977 | 2 | 38.637 | 12.141 | 33.542 | 2 |
| 2025-05-15T20:59:00 | 54.922025 | 6.295354 | 2.0 | 11.989 | 2 | 38.643 | 12.149 | 33.540 | 2 |
| 2025-05-15T21:00:00 | 54.923729 | 6.292092 | 2.0 | 11.995 | 2 | 38.653 | 12.159 | 33.541 | 2 |
| 2025-05-15T21:01:00 | 54.925447 | 6.288837 | 2.0 | 11.996 | 2 | 38.663 | 12.164 | 33.546 | 2 |
| 2025-05-15T21:02:00 | 54.927167 | 6.285727 | 2.0 | 12.005 | 2 | 38.684 | 12.168 | 33.563 | 2 |
| 2025-05-15T21:03:00 | 54.928871 | 6.282476 | 2.0 | 12.011 | 2 | 38.695 | 12.175 | 33.567 | 2 |
| 2025-05-15T21:04:00 | 54.930598 | 6.279246 | 2.0 | 12.014 | 2 | 38.705 | 12.181 | 33.572 | 2 |
| 2025-05-15T21:05:00 | 54.932393 | 6.276035 | 2.0 | 12.017 | 2 | 38.708 | 12.184 | 33.572 | 2 |
| 2025-05-15T21:06:00 | 54.934077 | 6.272868 | 2.0 | 12.017 | 2 | 38.321 | 12.186 | 33.196 | 2 |
| 2025-05-15T21:07:00 | 54.935828 | 6.269600 | 2.0 | 12.018 | 2 | 38.708 | 12.187 | 33.569 | 2 |
| 2025-05-15T21:08:00 | 54.937595 | 6.266391 | 2.0 | 12.001 | 2 | 38.198 | 12.184 | 33.079 | 2 |
| 2025-05-15T21:09:00 | 54.939339 | 6.263117 | 2.0 | 11.986 | 2 | 38.299 | 12.170 | 33.189 | 2 |
| 2025-05-15T21:10:00 | 54.941124 | 6.259805 | 2.0 | 11.963 | 2 | 38.674 | 12.152 | 33.568 | 2 |
| 2025-05-15T21:11:00 | 54.942899 | 6.256472 | 2.0 | 11.954 | 2 | 38.652 | 12.133 | 33.563 | 2 |
| 2025-05-15T21:12:00 | 54.944661 | 6.253156 | 2.0 | 11.955 | 2 | 38.646 | 12.127 | 33.563 | 2 |
| 2025-05-15T21:13:00 | 54.946460 | 6.249868 | 2.0 | 11.954 | 2 | 38.257 | 12.124 | 33.189 | 2 |
| 2025-05-15T21:14:00 | 54.948237 | 6.246550 | 2.0 | 11.964 | 2 | 38.663 | 12.127 | 33.580 | 2 |
| 2025-05-15T21:15:00 | 54.949993 | 6.243265 | 2.0 | 11.981 | 2 | 38.677 | 12.137 | 33.584 | 2 |
| 2025-05-15T21:16:00 | 54.951706 | 6.240058 | 2.0 | 12.002 | 2 | 38.265 | 12.154 | 33.171 | 2 |
| 2025-05-15T21:17:00 | 54.953411 | 6.236931 | 2.0 | 12.006 | 2 | 38.407 | 12.174 | 33.290 | 2 |
| 2025-05-15T21:18:00 | 54.955115 | 6.233674 | 2.0 | 12.013 | 2 | 38.368 | 12.177 | 33.250 | 2 |
| 2025-05-15T21:19:00 | 54.956830 | 6.230416 | 2.0 | 12.011 | 2 | 38.678 | 12.183 | 33.544 | 2 |
| 2025-05-15T21:20:00 | 54.958575 | 6.227186 | 2.0 | 11.950 | 2 | 38.746 | 12.178 | 33.614 | 2 |
| 2025-05-15T21:21:00 | 54.960310 | 6.224005 | 2.0 | 11.884 | 2 | 38.481 | 12.110 | 33.419 | 2 |
| 2025-05-15T21:22:00 | 54.962000 | 6.220914 | 2.0 | 11.791 | 2 | 38.586 | 12.040 | 33.583 | 2 |
| 2025-05-15T21:23:00 | 54.963693 | 6.217677 | 2.0 | 11.736 | 2 | 38.141 | 11.962 | 33.221 | 2 |
| 2025-05-15T21:24:00 | 54.965370 | 6.214497 | 2.0 | 11.696 | 2 | 38.053 | 11.907 | 33.185 | 2 |
| 2025-05-15T21:25:00 | 54.967106 | 6.211331 | 2.0 | 11.680 | 2 | 38.413 | 11.872 | 33.566 | 2 |
| 2025-05-15T21:26:00 | 54.968838 | 6.208060 | 2.0 | 11.670 | 2 | 38.144 | 11.853 | 33.322 | 2 |
| 2025-05-15T21:27:00 | 54.970560 | 6.204836 | 2.0 | 11.681 | 2 | 38.163 | 11.847 | 33.346 | 2 |
| 2025-05-15T21:28:00 | 54.972266 | 6.201617 | 2.0 | 11.705 | 2 | 38.189 | 11.858 | 33.361 | 2 |
| 2025-05-15T21:29:00 | 54.974001 | 6.198447 | 2.0 | 11.754 | 2 | 38.425 | 11.885 | 33.566 | 2 |
| 2025-05-15T21:30:00 | 54.975704 | 6.195215 | 2.0 | 11.760 | 2 | 38.201 | 11.929 | 33.309 | 2 |
| 2025-05-15T21:31:00 | 54.977413 | 6.192070 | 2.0 | 11.752 | 2 | 38.487 | 11.927 | 33.589 | 2 |
| 2025-05-15T21:32:00 | 54.979135 | 6.188804 | 2.0 | 11.754 | 2 | 38.467 | 11.925 | 33.571 | 2 |
| 2025-05-15T21:33:00 | 54.980869 | 6.185607 | 2.0 | 11.751 | 2 | 38.109 | 11.923 | 33.225 | 2 |
| 2025-05-15T21:34:00 | 54.982638 | 6.182406 | 2.0 | 11.763 | 2 | 38.480 | 11.924 | 33.585 | 2 |
| 2025-05-15T21:35:00 | 54.984321 | 6.179106 | 2.0 | 11.778 | 2 | 38.443 | 11.937 | 33.537 | 2 |
| 2025-05-15T21:36:00 | 54.986043 | 6.175929 | 2.0 | 11.786 | 2 | 38.368 | 11.949 | 33.453 | 2 |
| 2025-05-15T21:37:00 | 54.987708 | 6.172853 | 2.0 | 11.803 | 2 | 38.416 | 11.959 | 33.491 | 2 |
| 2025-05-15T21:38:00 | 54.989360 | 6.169820 | 2.0 | 11.819 | 2 | 38.521 | 11.974 | 33.580 | 2 |
| 2025-05-15T21:39:00 | 54.991018 | 6.166599 | 2.0 | 11.843 | 2 | 38.325 | 11.993 | 33.372 | 2 |
| 2025-05-15T21:40:00 | 54.992794 | 6.163361 | 2.0 | 11.861 | 2 | 38.418 | 12.016 | 33.442 | 2 |
| 2025-05-15T21:41:00 | 54.994564 | 6.160099 | 2.0 | 11.874 | 2 | 38.497 | 12.032 | 33.504 | 2 |
| 2025-05-15T21:42:00 | 54.996291 | 6.156811 | 2.0 | 11.888 | 2 | 38.438 | 12.045 | 33.435 | 2 |
| 2025-05-15T21:43:00 | 54.998004 | 6.153635 | 2.0 | 11.901 | 2 | 38.551 | 12.058 | 33.533 | 2 |
| 2025-05-15T21:44:00 | 54.999662 | 6.150499 | 2.0 | 11.933 | 2 | 38.528 | 12.074 | 33.496 | 2 |
| 2025-05-15T21:45:00 | 55.001351 | 6.147377 | 2.0 | 11.961 | 2 | 38.582 | 12.104 | 33.522 | 2 |
| 2025-05-15T21:46:00 | 55.003075 | 6.144171 | 2.0 | 11.974 | 2 | 38.698 | 12.130 | 33.611 | 2 |
| 2025-05-15T21:47:00 | 55.004768 | 6.140961 | 2.0 | 11.996 | 2 | 38.662 | 12.145 | 33.562 | 2 |
| 2025-05-15T21:48:00 | 55.006498 | 6.137748 | 2.0 | 12.031 | 2 | 38.754 | 12.170 | 33.629 | 2 |
| 2025-05-15T21:49:00 | 55.008191 | 6.134505 | 2.0 | 12.062 | 2 | 38.789 | 12.201 | 33.635 | 2 |
| 2025-05-15T21:50:00 | 55.009932 | 6.131317 | 2.0 | 12.092 | 2 | 38.861 | 12.234 | 33.675 | 2 |
| 2025-05-15T21:51:00 | 55.011634 | 6.128173 | 2.0 | 12.132 | 2 | 38.928 | 12.262 | 33.714 | 2 |
| 2025-05-15T21:52:00 | 55.013303 | 6.125025 | 2.0 | 12.149 | 2 | 38.985 | 12.302 | 33.733 | 2 |
| 2025-05-15T21:53:00 | 55.015016 | 6.121851 | 2.0 | 12.143 | 2 | 39.075 | 12.313 | 33.810 | 2 |
| 2025-05-15T21:54:00 | 55.016767 | 6.118647 | 2.0 | 12.127 | 2 | 39.038 | 12.307 | 33.780 | 2 |
| 2025-05-15T21:55:00 | 55.018607 | 6.115562 | 2.0 | 12.099 | 2 | 39.042 | 12.291 | 33.798 | 2 |
| 2025-05-15T21:56:00 | 55.020414 | 6.112497 | 2.0 | 12.077 | 2 | 38.998 | 12.264 | 33.780 | 2 |
| 2025-05-15T21:57:00 | 55.022165 | 6.109517 | 2.0 | 12.075 | 2 | 38.972 | 12.247 | 33.770 | 2 |
| 2025-05-15T21:58:00 | 55.023903 | 6.106539 | 2.0 | 12.051 | 2 | 38.967 | 12.241 | 33.771 | 2 |
| 2025-05-15T21:59:00 | 55.025541 | 6.103375 | 2.0 | 12.069 | 2 | 38.996 | 12.225 | 33.813 | 2 |
| 2025-05-15T22:00:00 | 55.027205 | 6.100230 | 2.0 | 12.125 | 2 | 39.023 | 12.252 | 33.815 | 2 |
| 2025-05-15T22:01:00 | 55.028886 | 6.097039 | 2.0 | 12.127 | 2 | 39.052 | 12.292 | 33.807 | 2 |
| 2025-05-15T22:02:00 | 55.030589 | 6.093812 | 2.0 | 12.115 | 2 | 39.060 | 12.293 | 33.814 | 2 |
| 2025-05-15T22:03:00 | 55.032327 | 6.090565 | 2.0 | 12.096 | 2 | 39.049 | 12.281 | 33.814 | 2 |
| 2025-05-15T22:04:00 | 55.034056 | 6.087343 | 2.0 | 12.074 | 2 | 39.017 | 12.263 | 33.799 | 2 |
| 2025-05-15T22:05:00 | 55.035762 | 6.084070 | 2.0 | 12.019 | 2 | 38.977 | 12.239 | 33.782 | 2 |
| 2025-05-15T22:06:00 | 55.037474 | 6.080823 | 2.0 | 12.000 | 2 | 38.915 | 12.187 | 33.769 | 2 |
| 2025-05-15T22:07:00 | 55.039165 | 6.077590 | 2.0 | 12.000 | 2 | 38.899 | 12.172 | 33.767 | 2 |
| 2025-05-15T22:08:00 | 55.040893 | 6.074362 | 2.0 | 11.999 | 2 | 38.899 | 12.170 | 33.769 | 2 |
| 2025-05-15T22:09:00 | 55.042575 | 6.071114 | 2.0 | 12.000 | 2 | 38.896 | 12.168 | 33.768 | 2 |
| 2025-05-15T22:10:00 | 55.044296 | 6.067905 | 2.0 | 11.999 | 2 | 38.907 | 12.170 | 33.777 | 2 |
| 2025-05-15T22:11:00 | 55.045968 | 6.064727 | 2.0 | 11.995 | 2 | 38.901 | 12.168 | 33.773 | 2 |
| 2025-05-15T22:12:00 | 55.047654 | 6.061640 | 2.0 | 11.998 | 2 | 38.906 | 12.166 | 33.780 | 2 |
| 2025-05-15T22:13:00 | 55.049308 | 6.058433 | 2.0 | 12.007 | 2 | 38.913 | 12.170 | 33.783 | 2 |
| 2025-05-15T22:14:00 | 55.050983 | 6.055195 | 2.0 | 12.011 | 2 | 38.925 | 12.177 | 33.788 | 2 |
| 2025-05-15T22:15:00 | 55.052650 | 6.052043 | 2.0 | 12.009 | 2 | 38.932 | 12.180 | 33.792 | 2 |
| 2025-05-15T22:16:00 | 55.054347 | 6.048859 | 2.0 | 12.010 | 2 | 38.932 | 12.178 | 33.794 | 2 |
| 2025-05-15T22:17:00 | 55.056028 | 6.045667 | 2.0 | 12.013 | 2 | 38.937 | 12.181 | 33.796 | 2 |
| 2025-05-15T22:18:00 | 55.057691 | 6.042531 | 2.0 | 12.015 | 2 | 38.941 | 12.182 | 33.799 | 2 |
| 2025-05-15T22:19:00 | 55.059362 | 6.039407 | 2.0 | 12.025 | 2 | 38.946 | 12.185 | 33.801 | 2 |
| 2025-05-15T22:20:00 | 55.061019 | 6.036248 | 2.0 | 12.033 | 2 | 38.958 | 12.198 | 33.801 | 2 |
| 2025-05-15T22:21:00 | 55.062636 | 6.033160 | 2.0 | 12.032 | 2 | 38.943 | 12.203 | 33.782 | 2 |
| 2025-05-15T22:22:00 | 55.064236 | 6.030182 | 2.0 | 12.038 | 2 | 38.847 | 12.203 | 33.689 | 2 |
| 2025-05-15T22:23:00 | 55.065892 | 6.027086 | 2.0 | 12.038 | 2 | 38.879 | 12.206 | 33.717 | 2 |
| 2025-05-15T22:24:00 | 55.067595 | 6.023959 | 2.0 | 12.045 | 2 | 38.892 | 12.209 | 33.727 | 2 |
| 2025-05-15T22:25:00 | 55.069249 | 6.020798 | 2.0 | 12.059 | 2 | 38.887 | 12.217 | 33.715 | 2 |
| 2025-05-15T22:26:00 | 55.070866 | 6.017634 | 2.0 | 12.074 | 2 | 38.891 | 12.230 | 33.707 | 2 |
| 2025-05-15T22:27:00 | 55.072495 | 6.014505 | 2.0 | 12.073 | 2 | 38.933 | 12.242 | 33.737 | 2 |
| 2025-05-15T22:28:00 | 55.074138 | 6.011420 | 2.0 | 12.074 | 2 | 38.986 | 12.241 | 33.789 | 2 |
| 2025-05-15T22:29:00 | 55.075812 | 6.008267 | 2.0 | 12.080 | 2 | 38.988 | 12.244 | 33.788 | 2 |
| 2025-05-15T22:30:00 | 55.077450 | 6.005136 | 2.0 | 12.089 | 2 | 38.985 | 12.251 | 33.779 | 2 |
| 2025-05-15T22:31:00 | 55.079104 | 6.001983 | 2.0 | 12.102 | 2 | 39.012 | 12.259 | 33.798 | 2 |
| 2025-05-15T22:32:00 | 55.080758 | 5.998832 | 2.0 | 12.119 | 2 | 39.042 | 12.273 | 33.814 | 2 |
| 2025-05-15T22:33:00 | 55.082428 | 5.995640 | 2.0 | 12.140 | 2 | 39.095 | 12.290 | 33.850 | 2 |
| 2025-05-15T22:34:00 | 55.084146 | 5.992538 | 2.0 | 12.164 | 2 | 39.142 | 12.311 | 33.877 | 2 |
| 2025-05-15T22:35:00 | 55.085775 | 5.989345 | 2.0 | 12.187 | 2 | 39.165 | 12.332 | 33.880 | 2 |
| 2025-05-15T22:36:00 | 55.087471 | 5.986138 | 2.0 | 12.236 | 2 | 39.230 | 12.362 | 33.915 | 2 |
| 2025-05-15T22:37:00 | 55.089194 | 5.982923 | 2.0 | 12.253 | 2 | 39.314 | 12.403 | 33.959 | 2 |
| 2025-05-15T22:38:00 | 55.090846 | 5.979697 | 2.0 | 12.228 | 2 | 39.375 | 12.416 | 34.006 | 2 |
| 2025-05-15T22:39:00 | 55.092506 | 5.976533 | 2.0 | 12.212 | 2 | 39.367 | 12.394 | 34.018 | 2 |
| 2025-05-15T22:40:00 | 55.094189 | 5.973462 | 2.0 | 12.127 | 2 | 39.380 | 12.359 | 34.063 | 2 |
| 2025-05-15T22:41:00 | 55.095794 | 5.970226 | 2.0 | 12.118 | 2 | 39.346 | 12.298 | 34.085 | 2 |
| 2025-05-15T22:42:00 | 55.097536 | 5.966987 | 2.0 | 12.106 | 2 | 39.346 | 12.288 | 34.094 | 2 |
| 2025-05-15T22:43:00 | 55.099263 | 5.963817 | 2.0 | 12.093 | 2 | 39.344 | 12.275 | 34.104 | 2 |
| 2025-05-15T22:44:00 | 55.100935 | 5.960596 | 2.0 | 12.090 | 2 | 39.342 | 12.265 | 34.112 | 2 |
| 2025-05-15T22:45:00 | 55.102567 | 5.957432 | 2.0 | 12.084 | 2 | 39.326 | 12.261 | 34.100 | 2 |
| 2025-05-15T22:46:00 | 55.104247 | 5.954289 | 2.0 | 12.075 | 2 | 39.336 | 12.253 | 34.117 | 2 |
| 2025-05-15T22:47:00 | 55.105957 | 5.951061 | 2.0 | 12.048 | 2 | 39.332 | 12.240 | 34.125 | 2 |
| 2025-05-15T22:48:00 | 55.107683 | 5.947871 | 2.0 | 12.035 | 2 | 39.312 | 12.217 | 34.126 | 2 |
| 2025-05-15T22:49:00 | 55.109343 | 5.944641 | 2.0 | 12.054 | 2 | 39.307 | 12.209 | 34.129 | 2 |
| 2025-05-15T22:50:00 | 55.111054 | 5.941436 | 2.0 | 12.039 | 2 | 39.324 | 12.223 | 34.132 | 2 |
| 2025-05-15T22:51:00 | 55.112726 | 5.938195 | 2.0 | 12.024 | 2 | 39.310 | 12.205 | 34.135 | 2 |
| 2025-05-15T22:52:00 | 55.114414 | 5.934979 | 2.0 | 12.035 | 2 | 39.302 | 12.197 | 34.135 | 2 |
| 2025-05-15T22:53:00 | 55.116129 | 5.931767 | 2.0 | 12.041 | 2 | 39.314 | 12.207 | 34.137 | 2 |
| 2025-05-15T22:54:00 | 55.117849 | 5.928623 | 2.0 | 12.042 | 2 | 39.320 | 12.210 | 34.140 | 2 |
| 2025-05-15T22:55:00 | 55.119489 | 5.925400 | 2.0 | 12.067 | 2 | 39.325 | 12.218 | 34.138 | 2 |
| 2025-05-15T22:57:00 | 55.122828 | 5.919125 | 2.0 | 12.088 | 2 | 39.375 | 12.259 | 34.149 | 2 |
| 2025-05-15T22:58:00 | 55.124467 | 5.915911 | 2.0 | 12.094 | 2 | 39.379 | 12.257 | 34.155 | 2 |
| 2025-05-15T22:59:00 | 55.126115 | 5.912887 | 2.0 | 12.115 | 2 | 39.395 | 12.274 | 34.155 | 2 |
| 2025-05-15T23:00:00 | 55.127766 | 5.909980 | 2.0 | 12.098 | 2 | 39.412 | 12.280 | 34.166 | 2 |
| 2025-05-15T23:01:00 | 55.129425 | 5.907004 | 2.0 | 12.106 | 2 | 39.402 | 12.270 | 34.165 | 2 |
| 2025-05-15T23:02:00 | 55.131004 | 5.904012 | 2.0 | 12.117 | 2 | 39.409 | 12.275 | 34.167 | 2 |
| 2025-05-15T23:03:00 | 55.132576 | 5.901135 | 2.0 | 12.128 | 2 | 39.424 | 12.286 | 34.172 | 2 |
| 2025-05-15T23:04:00 | 55.134156 | 5.898239 | 2.0 | 12.145 | 2 | 39.438 | 12.298 | 34.174 | 2 |
| 2025-05-15T23:05:00 | 55.135839 | 5.895319 | 2.0 | 12.170 | 2 | 39.458 | 12.318 | 34.175 | 2 |
| 2025-05-15T23:06:00 | 55.137739 | 5.893101 | 2.0 | 12.179 | 2 | 39.483 | 12.338 | 34.181 | 2 |
| 2025-05-15T23:07:00 | 55.139596 | 5.891025 | 2.0 | 12.182 | 2 | 39.499 | 12.347 | 34.188 | 2 |
| 2025-05-15T23:08:00 | 55.141521 | 5.888947 | 2.0 | 12.162 | 2 | 39.506 | 12.347 | 34.195 | 2 |
| 2025-05-15T23:09:00 | 55.143411 | 5.886879 | 2.0 | 12.120 | 2 | 39.479 | 12.325 | 34.189 | 2 |
| 2025-05-15T23:10:00 | 55.145249 | 5.884946 | 2.0 | 12.114 | 2 | 39.439 | 12.289 | 34.183 | 2 |
| 2025-05-15T23:11:00 | 55.147084 | 5.882951 | 2.0 | 12.119 | 2 | 39.434 | 12.287 | 34.180 | 2 |
| 2025-05-15T23:12:00 | 55.148984 | 5.880825 | 2.0 | 12.104 | 2 | 39.436 | 12.287 | 34.182 | 2 |
| 2025-05-15T23:13:00 | 55.150904 | 5.878728 | 2.0 | 12.101 | 2 | 39.426 | 12.274 | 34.185 | 2 |
| 2025-05-15T23:14:00 | 55.152909 | 5.876526 | 2.0 | 12.099 | 2 | 39.423 | 12.271 | 34.184 | 2 |
| 2025-05-15T23:15:00 | 55.154848 | 5.874343 | 2.0 | 12.099 | 2 | 39.425 | 12.270 | 34.187 | 2 |
| 2025-05-15T23:16:00 | 55.156518 | 5.871481 | 2.0 | 12.125 | 2 | 39.412 | 12.274 | 34.171 | 2 |
| 2025-05-15T23:17:00 | 55.158082 | 5.868170 | 2.0 | 12.136 | 2 | 39.454 | 12.294 | 34.193 | 2 |
| 2025-05-15T23:18:00 | 55.159705 | 5.864837 | 2.0 | 12.133 | 2 | 39.485 | 12.305 | 34.213 | 2 |
| 2025-05-15T23:19:00 | 55.161300 | 5.861449 | 2.0 | 12.107 | 2 | 39.483 | 12.293 | 34.222 | 2 |
| 2025-05-15T23:20:00 | 55.162791 | 5.857887 | 2.0 | 12.130 | 2 | 39.470 | 12.280 | 34.222 | 2 |
| 2025-05-15T23:21:00 | 55.164412 | 5.854415 | 2.0 | 12.113 | 2 | 39.501 | 12.297 | 34.236 | 2 |
| 2025-05-15T23:22:00 | 55.166045 | 5.851137 | 2.0 | 12.109 | 2 | 39.499 | 12.284 | 34.246 | 2 |
| 2025-05-15T23:23:00 | 55.167589 | 5.847808 | 2.0 | 12.112 | 2 | 39.494 | 12.279 | 34.246 | 2 |
| 2025-05-15T23:24:00 | 55.169212 | 5.844520 | 2.0 | 12.121 | 2 | 39.501 | 12.284 | 34.248 | 2 |
| 2025-05-15T23:25:00 | 55.170763 | 5.841274 | 2.0 | 12.126 | 2 | 39.517 | 12.291 | 34.257 | 2 |
| 2025-05-15T23:26:00 | 55.172351 | 5.837986 | 2.0 | 12.128 | 2 | 39.530 | 12.295 | 34.266 | 2 |
| 2025-05-15T23:27:00 | 55.173949 | 5.834653 | 2.0 | 12.138 | 2 | 39.543 | 12.299 | 34.275 | 2 |
| 2025-05-15T23:28:00 | 55.175450 | 5.831452 | 2.0 | 12.127 | 2 | 39.572 | 12.307 | 34.296 | 2 |
| 2025-05-15T23:29:00 | 55.176996 | 5.828184 | 2.0 | 12.127 | 2 | 39.588 | 12.299 | 34.318 | 2 |
| 2025-05-15T23:30:00 | 55.178612 | 5.824902 | 2.0 | 12.115 | 2 | 39.584 | 12.292 | 34.321 | 2 |
| 2025-05-15T23:31:00 | 55.180249 | 5.821564 | 2.0 | 12.113 | 2 | 39.576 | 12.286 | 34.319 | 2 |
| 2025-05-15T23:32:00 | 55.181816 | 5.818132 | 2.0 | 12.117 | 2 | 39.581 | 12.284 | 34.325 | 2 |
| 2025-05-15T23:33:00 | 55.183425 | 5.814776 | 2.0 | 12.123 | 2 | 39.593 | 12.287 | 34.334 | 2 |
| 2025-05-15T23:34:00 | 55.185047 | 5.811415 | 2.0 | 12.098 | 2 | 39.612 | 12.289 | 34.351 | 2 |
| 2025-05-15T23:35:00 | 55.186699 | 5.808014 | 2.0 | 12.069 | 2 | 39.603 | 12.264 | 34.365 | 2 |
| 2025-05-15T23:36:00 | 55.188342 | 5.804595 | 2.0 | 12.019 | 2 | 39.590 | 12.233 | 34.381 | 2 |
| 2025-05-15T23:37:00 | 55.189984 | 5.801078 | 2.0 | 11.947 | 2 | 39.562 | 12.180 | 34.403 | 2 |
| 2025-05-15T23:38:00 | 55.191601 | 5.797572 | 2.0 | 11.968 | 2 | 39.515 | 12.129 | 34.404 | 2 |
| 2025-05-15T23:39:00 | 55.193203 | 5.794391 | 2.0 | 11.981 | 2 | 39.484 | 12.142 | 34.362 | 2 |
| 2025-05-15T23:40:00 | 55.194778 | 5.791119 | 2.0 | 11.986 | 2 | 39.482 | 12.152 | 34.351 | 2 |
| 2025-05-15T23:41:00 | 55.196421 | 5.787717 | 2.0 | 11.975 | 2 | 39.470 | 12.154 | 34.337 | 2 |
| 2025-05-15T23:42:00 | 55.198084 | 5.784318 | 2.0 | 11.953 | 2 | 39.449 | 12.141 | 34.329 | 2 |
| 2025-05-15T23:43:00 | 55.199646 | 5.780961 | 2.0 | 11.952 | 2 | 39.418 | 12.125 | 34.313 | 2 |
| 2025-05-15T23:44:00 | 55.201264 | 5.777685 | 2.0 | 11.965 | 2 | 39.411 | 12.126 | 34.306 | 2 |
| 2025-05-15T23:45:00 | 55.202841 | 5.774330 | 2.0 | 11.976 | 2 | 39.425 | 12.138 | 34.308 | 2 |
| 2025-05-15T23:46:00 | 55.204449 | 5.770944 | 2.0 | 11.991 | 2 | 39.439 | 12.148 | 34.313 | 2 |
| 2025-05-15T23:47:00 | 55.206019 | 5.767582 | 2.0 | 11.996 | 2 | 39.458 | 12.164 | 34.316 | 2 |
| 2025-05-15T23:48:00 | 55.207680 | 5.764189 | 2.0 | 12.001 | 2 | 39.468 | 12.166 | 34.324 | 2 |
| 2025-05-15T23:49:00 | 55.209304 | 5.760799 | 2.0 | 12.001 | 2 | 39.476 | 12.170 | 34.328 | 2 |
| 2025-05-15T23:50:00 | 55.210913 | 5.757420 | 2.0 | 12.007 | 2 | 39.484 | 12.172 | 34.334 | 2 |
| 2025-05-15T23:51:00 | 55.212592 | 5.753954 | 2.0 | 12.005 | 2 | 39.496 | 12.176 | 34.342 | 2 |
| 2025-05-15T23:52:00 | 55.214274 | 5.750456 | 2.0 | 11.993 | 2 | 39.509 | 12.173 | 34.358 | 2 |
| 2025-05-15T23:53:00 | 55.215899 | 5.747036 | 2.0 | 11.971 | 2 | 39.522 | 12.163 | 34.379 | 2 |
| 2025-05-15T23:54:00 | 55.217541 | 5.743674 | 2.0 | 11.931 | 2 | 39.513 | 12.135 | 34.396 | 2 |
| 2025-05-15T23:55:00 | 55.219187 | 5.740228 | 2.0 | 11.903 | 2 | 39.480 | 12.098 | 34.398 | 2 |
| 2025-05-15T23:56:00 | 55.220832 | 5.736719 | 2.0 | 11.896 | 2 | 39.454 | 12.076 | 34.393 | 2 |
| 2025-05-15T23:57:00 | 55.222519 | 5.733249 | 2.0 | 11.891 | 2 | 39.445 | 12.069 | 34.391 | 2 |
| 2025-05-15T23:58:00 | 55.224164 | 5.729821 | 2.0 | 11.891 | 2 | 39.445 | 12.061 | 34.399 | 2 |
| 2025-05-15T23:59:00 | 55.225822 | 5.726386 | 2.0 | 11.889 | 2 | 39.456 | 12.064 | 34.407 | 2 |
| 2025-05-16T00:00:00 | 55.227476 | 5.722944 | 2.0 | 11.863 | 2 | 39.462 | 12.055 | 34.421 | 2 |
| 2025-05-16T00:01:00 | 55.229132 | 5.719384 | 2.0 | 11.848 | 2 | 39.455 | 12.038 | 34.430 | 2 |
| 2025-05-16T00:02:00 | 55.230761 | 5.715952 | 2.0 | 11.830 | 2 | 39.311 | 12.020 | 34.306 | 2 |
| 2025-05-16T00:04:00 | 55.234034 | 5.709292 | 2.0 | 11.830 | 2 | 39.310 | 12.005 | 34.319 | 2 |
| 2025-05-16T00:05:00 | 55.235690 | 5.705746 | 2.0 | 11.830 | 2 | 39.416 | 12.002 | 34.425 | 2 |
| 2025-05-16T00:06:00 | 55.237341 | 5.702266 | 2.0 | 11.830 | 2 | 39.415 | 12.003 | 34.423 | 2 |
| 2025-05-16T00:07:00 | 55.239051 | 5.698807 | 2.0 | 11.817 | 2 | 39.419 | 12.000 | 34.430 | 2 |
| 2025-05-16T00:08:00 | 55.240773 | 5.695265 | 2.0 | 11.797 | 2 | 39.408 | 11.985 | 34.433 | 2 |
| 2025-05-16T00:09:00 | 55.242507 | 5.691762 | 2.0 | 11.797 | 2 | 39.393 | 11.971 | 34.431 | 2 |
| 2025-05-16T00:10:00 | 55.244264 | 5.688308 | 2.0 | 11.794 | 2 | 39.391 | 11.969 | 34.431 | 2 |
| 2025-05-16T00:11:00 | 55.246023 | 5.684945 | 2.0 | 11.786 | 2 | 39.391 | 11.965 | 34.435 | 2 |
| 2025-05-16T00:12:00 | 55.247784 | 5.681610 | 2.0 | 11.777 | 2 | 39.386 | 11.956 | 34.438 | 2 |
| 2025-05-16T00:13:00 | 55.249537 | 5.678273 | 2.0 | 11.770 | 2 | 39.379 | 11.948 | 34.439 | 2 |
| 2025-05-16T00:14:00 | 55.251320 | 5.674837 | 2.0 | 11.744 | 2 | 39.374 | 11.937 | 34.444 | 2 |
| 2025-05-16T00:15:00 | 55.253132 | 5.671454 | 2.0 | 11.726 | 2 | 39.353 | 11.914 | 34.445 | 2 |
| 2025-05-16T00:16:00 | 55.254911 | 5.668078 | 2.0 | 11.707 | 2 | 39.340 | 11.897 | 34.448 | 2 |
| 2025-05-16T00:17:00 | 55.256642 | 5.664782 | 2.0 | 11.687 | 2 | 39.324 | 11.877 | 34.451 | 2 |
| 2025-05-16T00:18:00 | 55.258395 | 5.661463 | 2.0 | 11.678 | 2 | 39.313 | 11.860 | 34.456 | 2 |
| 2025-05-16T00:19:00 | 55.260186 | 5.658012 | 2.0 | 11.673 | 2 | 39.306 | 11.851 | 34.457 | 2 |
| 2025-05-16T00:20:00 | 55.261992 | 5.654599 | 2.0 | 11.664 | 2 | 39.299 | 11.843 | 34.458 | 2 |
| 2025-05-16T00:21:00 | 55.263745 | 5.651251 | 2.0 | 11.663 | 2 | 39.295 | 11.836 | 34.460 | 2 |
| 2025-05-16T00:22:00 | 55.265534 | 5.647872 | 2.0 | 11.658 | 2 | 39.294 | 11.834 | 34.461 | 2 |
| 2025-05-16T00:23:00 | 55.267328 | 5.644424 | 2.0 | 11.661 | 2 | 39.294 | 11.831 | 34.464 | 2 |
| 2025-05-16T00:24:00 | 55.269093 | 5.641004 | 2.0 | 11.672 | 2 | 39.297 | 11.835 | 34.463 | 2 |
| 2025-05-16T00:25:00 | 55.270858 | 5.637645 | 2.0 | 11.674 | 2 | 39.306 | 11.843 | 34.465 | 2 |
| 2025-05-16T00:26:00 | 55.272623 | 5.634247 | 2.0 | 11.670 | 2 | 39.308 | 11.844 | 34.466 | 2 |
| 2025-05-16T00:27:00 | 55.274375 | 5.630961 | 2.0 | 11.651 | 2 | 39.316 | 11.840 | 34.477 | 2 |
| 2025-05-16T00:28:00 | 55.276167 | 5.627561 | 2.0 | 11.643 | 2 | 39.309 | 11.824 | 34.485 | 2 |
| 2025-05-16T00:29:00 | 55.277916 | 5.624141 | 2.0 | 11.630 | 2 | 39.303 | 11.812 | 34.490 | 2 |
| 2025-05-16T00:30:00 | 55.279677 | 5.620924 | 2.0 | 11.623 | 2 | 39.294 | 11.801 | 34.492 | 2 |
| 2025-05-16T00:31:00 | 55.281368 | 5.617650 | 2.0 | 11.625 | 2 | 39.296 | 11.795 | 34.499 | 2 |
| 2025-05-16T00:32:00 | 55.283105 | 5.614343 | 2.0 | 11.621 | 2 | 39.302 | 11.797 | 34.503 | 2 |
| 2025-05-16T00:33:00 | 55.284815 | 5.611086 | 2.0 | 11.616 | 2 | 39.297 | 11.791 | 34.504 | 2 |
| 2025-05-16T00:34:00 | 55.286538 | 5.607798 | 2.0 | 11.614 | 2 | 39.298 | 11.788 | 34.508 | 2 |
| 2025-05-16T00:35:00 | 55.288277 | 5.604569 | 2.0 | 11.604 | 2 | 39.301 | 11.785 | 34.514 | 2 |
| 2025-05-16T00:36:00 | 55.290078 | 5.601362 | 2.0 | 11.574 | 2 | 39.294 | 11.771 | 34.520 | 2 |
| 2025-05-16T00:37:00 | 55.291842 | 5.597925 | 2.0 | 11.535 | 2 | 39.271 | 11.743 | 34.523 | 2 |
| 2025-05-16T00:38:00 | 55.293609 | 5.594440 | 2.0 | 11.484 | 2 | 39.238 | 11.702 | 34.529 | 2 |
| 2025-05-16T00:39:00 | 55.295440 | 5.590971 | 2.0 | 11.437 | 2 | 39.195 | 11.653 | 34.532 | 2 |
| 2025-05-16T00:40:00 | 55.297197 | 5.587508 | 2.0 | 11.394 | 2 | 39.150 | 11.604 | 34.534 | 2 |
| 2025-05-16T00:41:00 | 55.299024 | 5.584093 | 2.0 | 11.347 | 2 | 39.118 | 11.565 | 34.539 | 2 |
| 2025-05-16T00:42:00 | 55.300817 | 5.580653 | 2.0 | 11.307 | 2 | 39.079 | 11.518 | 34.544 | 2 |
| 2025-05-16T00:43:00 | 55.302547 | 5.577302 | 2.0 | 11.302 | 2 | 39.046 | 11.484 | 34.543 | 2 |
| 2025-05-16T00:44:00 | 55.304315 | 5.574004 | 2.0 | 11.300 | 2 | 39.041 | 11.478 | 34.544 | 2 |
| 2025-05-16T00:45:00 | 55.306098 | 5.570599 | 2.0 | 11.292 | 2 | 39.028 | 11.474 | 34.535 | 2 |
| 2025-05-16T00:46:00 | 55.307866 | 5.567232 | 2.0 | 11.289 | 2 | 39.026 | 11.468 | 34.539 | 2 |
| 2025-05-16T00:47:00 | 55.309654 | 5.563798 | 2.0 | 11.273 | 2 | 39.029 | 11.461 | 34.548 | 2 |
| 2025-05-16T00:48:00 | 55.311440 | 5.560402 | 2.0 | 11.271 | 2 | 39.024 | 11.449 | 34.554 | 2 |
| 2025-05-16T00:49:00 | 55.313215 | 5.556990 | 2.0 | 11.265 | 2 | 39.013 | 11.444 | 34.548 | 2 |
| 2025-05-16T00:50:00 | 55.315014 | 5.553583 | 2.0 | 11.271 | 2 | 39.016 | 11.441 | 34.554 | 2 |
| 2025-05-16T00:51:00 | 55.316821 | 5.550153 | 2.0 | 11.270 | 2 | 39.027 | 11.445 | 34.561 | 2 |
| 2025-05-16T00:52:00 | 55.318594 | 5.546775 | 2.0 | 11.268 | 2 | 39.031 | 11.444 | 34.566 | 2 |
| 2025-05-16T00:53:00 | 55.320316 | 5.543394 | 2.0 | 11.260 | 2 | 39.032 | 11.440 | 34.571 | 2 |
| 2025-05-16T00:54:00 | 55.322094 | 5.540038 | 2.0 | 11.252 | 2 | 39.027 | 11.433 | 34.572 | 2 |
| 2025-05-16T00:55:00 | 55.323802 | 5.536752 | 2.0 | 11.247 | 2 | 39.020 | 11.425 | 34.573 | 2 |
| 2025-05-16T00:56:00 | 55.325602 | 5.533440 | 2.0 | 11.240 | 2 | 39.016 | 11.420 | 34.574 | 2 |
| 2025-05-16T00:57:00 | 55.327361 | 5.529991 | 2.0 | 11.239 | 2 | 39.018 | 11.414 | 34.581 | 2 |
| 2025-05-16T00:58:00 | 55.329147 | 5.526574 | 2.0 | 11.242 | 2 | 39.023 | 11.415 | 34.585 | 2 |
| 2025-05-16T00:59:00 | 55.330881 | 5.523192 | 2.0 | 11.240 | 2 | 39.024 | 11.415 | 34.586 | 2 |
| 2025-05-16T01:00:00 | 55.332672 | 5.519876 | 2.0 | 11.237 | 2 | 39.028 | 11.412 | 34.593 | 2 |
| 2025-05-16T01:01:00 | 55.334443 | 5.516506 | 2.0 | 11.237 | 2 | 39.028 | 11.410 | 34.595 | 2 |
| 2025-05-16T01:02:00 | 55.336205 | 5.513177 | 2.0 | 11.236 | 2 | 39.034 | 11.409 | 34.602 | 2 |
| 2025-05-16T01:03:00 | 55.337999 | 5.509694 | 2.0 | 11.233 | 2 | 39.037 | 11.409 | 34.605 | 2 |
| 2025-05-16T01:04:00 | 55.339799 | 5.506283 | 2.0 | 11.216 | 2 | 39.037 | 11.404 | 34.609 | 2 |
| 2025-05-16T01:05:00 | 55.341622 | 5.502880 | 2.0 | 11.191 | 2 | 39.026 | 11.387 | 34.614 | 2 |
| 2025-05-16T01:06:00 | 55.343423 | 5.499443 | 2.0 | 11.182 | 2 | 39.006 | 11.364 | 34.616 | 2 |
| 2025-05-16T01:07:00 | 55.345159 | 5.495972 | 2.0 | 11.185 | 2 | 39.001 | 11.357 | 34.618 | 2 |
| 2025-05-16T01:08:00 | 55.346930 | 5.492620 | 2.0 | 11.189 | 2 | 39.004 | 11.360 | 34.618 | 2 |
| 2025-05-16T01:09:00 | 55.348642 | 5.489352 | 2.0 | 11.196 | 2 | 39.011 | 11.363 | 34.622 | 2 |
| 2025-05-16T01:10:00 | 55.350454 | 5.485896 | 2.0 | 11.195 | 2 | 39.020 | 11.369 | 34.625 | 2 |
| 2025-05-16T01:11:00 | 55.352261 | 5.482483 | 2.0 | 11.187 | 2 | 39.021 | 11.366 | 34.629 | 2 |
| 2025-05-16T01:12:00 | 55.354010 | 5.479096 | 2.0 | 11.179 | 2 | 39.018 | 11.361 | 34.631 | 2 |
| 2025-05-16T01:13:00 | 55.355730 | 5.475720 | 2.0 | 11.163 | 2 | 39.011 | 11.350 | 34.634 | 2 |
| 2025-05-16T01:14:00 | 55.357519 | 5.472283 | 2.0 | 11.144 | 2 | 38.999 | 11.335 | 34.637 | 2 |
| 2025-05-16T01:15:00 | 55.359314 | 5.468866 | 2.0 | 11.127 | 2 | 38.984 | 11.317 | 34.639 | 2 |
| 2025-05-16T01:16:00 | 55.361081 | 5.465408 | 2.0 | 11.111 | 2 | 38.964 | 11.300 | 34.635 | 2 |
| 2025-05-16T01:17:00 | 55.362856 | 5.462003 | 2.0 | 11.101 | 2 | 38.949 | 11.286 | 34.633 | 2 |
| 2025-05-16T01:18:00 | 55.364621 | 5.458632 | 2.0 | 11.094 | 2 | 38.942 | 11.276 | 34.636 | 2 |
| 2025-05-16T01:19:00 | 55.366401 | 5.455245 | 2.0 | 11.084 | 2 | 38.936 | 11.269 | 34.636 | 2 |
| 2025-05-16T01:20:00 | 55.368133 | 5.451903 | 2.0 | 11.081 | 2 | 38.929 | 11.259 | 34.639 | 2 |
| 2025-05-16T01:21:00 | 55.369861 | 5.448654 | 2.0 | 11.081 | 2 | 38.926 | 11.256 | 34.638 | 2 |
| 2025-05-16T01:22:00 | 55.371600 | 5.445326 | 2.0 | 11.078 | 2 | 38.926 | 11.255 | 34.639 | 2 |
| 2025-05-16T01:23:00 | 55.373285 | 5.442011 | 2.0 | 11.073 | 2 | 38.922 | 11.251 | 34.639 | 2 |
| 2025-05-16T01:24:00 | 55.375007 | 5.438689 | 2.0 | 11.072 | 2 | 38.920 | 11.246 | 34.642 | 2 |
| 2025-05-16T01:25:00 | 55.376742 | 5.435347 | 2.0 | 11.078 | 2 | 38.922 | 11.248 | 34.642 | 2 |
| 2025-05-16T01:26:00 | 55.378416 | 5.432046 | 2.0 | 11.083 | 2 | 38.925 | 11.253 | 34.640 | 2 |
| 2025-05-16T01:27:00 | 55.380128 | 5.428824 | 2.0 | 11.086 | 2 | 38.921 | 11.260 | 34.630 | 2 |
| 2025-05-16T01:28:00 | 55.381842 | 5.425527 | 2.0 | 11.088 | 2 | 38.922 | 11.260 | 34.631 | 2 |
| 2025-05-16T01:29:00 | 55.383566 | 5.422264 | 2.0 | 11.092 | 2 | 38.940 | 11.263 | 34.646 | 2 |
| 2025-05-16T01:30:00 | 55.385312 | 5.418878 | 2.0 | 11.091 | 2 | 38.943 | 11.265 | 34.647 | 2 |
| 2025-05-16T01:31:00 | 55.387129 | 5.415503 | 2.0 | 11.091 | 2 | 38.944 | 11.265 | 34.648 | 2 |
| 2025-05-16T01:32:00 | 55.388909 | 5.412049 | 2.0 | 11.086 | 2 | 38.940 | 11.265 | 34.644 | 2 |
| 2025-05-16T01:33:00 | 55.390578 | 5.408716 | 2.0 | 11.077 | 2 | 38.939 | 11.259 | 34.649 | 2 |
| 2025-05-16T01:34:00 | 55.392248 | 5.405483 | 2.0 | 11.074 | 2 | 38.923 | 11.249 | 34.642 | 2 |
| 2025-05-16T01:35:00 | 55.394007 | 5.402289 | 2.0 | 11.079 | 2 | 38.930 | 11.248 | 34.650 | 2 |
| 2025-05-16T01:36:00 | 55.395723 | 5.399069 | 2.0 | 11.081 | 2 | 38.936 | 11.252 | 34.652 | 2 |
| 2025-05-16T01:37:00 | 55.397391 | 5.395708 | 2.0 | 11.086 | 2 | 38.938 | 11.255 | 34.651 | 2 |
| 2025-05-16T01:38:00 | 55.399160 | 5.392360 | 2.0 | 11.090 | 2 | 38.944 | 11.261 | 34.652 | 2 |
| 2025-05-16T01:39:00 | 55.401078 | 5.389626 | 2.0 | 11.089 | 2 | 38.940 | 11.262 | 34.647 | 2 |
| 2025-05-16T01:40:00 | 55.403240 | 5.387460 | 2.0 | 11.088 | 2 | 38.940 | 11.263 | 34.646 | 2 |
| 2025-05-16T01:41:00 | 55.405204 | 5.385037 | 2.0 | 11.087 | 2 | 38.941 | 11.261 | 34.649 | 2 |
| 2025-05-16T01:42:00 | 55.407206 | 5.382643 | 2.0 | 11.082 | 2 | 38.946 | 11.260 | 34.655 | 2 |
| 2025-05-16T01:43:00 | 55.409174 | 5.380331 | 2.0 | 11.073 | 2 | 38.943 | 11.254 | 34.657 | 2 |
| 2025-05-16T01:44:00 | 55.411117 | 5.378016 | 2.0 | 11.070 | 2 | 38.937 | 11.245 | 34.660 | 2 |
| 2025-05-16T01:45:00 | 55.413166 | 5.375659 | 2.0 | 11.066 | 2 | 38.934 | 11.243 | 34.659 | 2 |
| 2025-05-16T01:46:00 | 55.415230 | 5.373280 | 2.0 | 11.057 | 2 | 38.931 | 11.238 | 34.660 | 2 |
| 2025-05-16T01:47:00 | 55.417178 | 5.370813 | 2.0 | 11.055 | 2 | 38.915 | 11.231 | 34.651 | 2 |
| 2025-05-16T01:48:00 | 55.419268 | 5.368355 | 2.0 | 11.051 | 2 | 38.907 | 11.228 | 34.646 | 2 |
| 2025-05-16T01:49:00 | 55.421338 | 5.365949 | 2.0 | 11.051 | 2 | 38.910 | 11.225 | 34.652 | 2 |
| 2025-05-16T01:50:00 | 55.423411 | 5.363427 | 2.0 | 11.052 | 2 | 38.917 | 11.224 | 34.660 | 2 |
| 2025-05-16T01:51:00 | 55.425427 | 5.361060 | 2.0 | 11.050 | 2 | 38.918 | 11.225 | 34.660 | 2 |
| 2025-05-16T01:52:00 | 55.427486 | 5.358619 | 2.0 | 11.048 | 2 | 38.918 | 11.223 | 34.662 | 2 |
| 2025-05-16T01:53:00 | 55.429552 | 5.356180 | 2.0 | 11.047 | 2 | 38.917 | 11.221 | 34.662 | 2 |
| 2025-05-16T01:54:00 | 55.431725 | 5.353636 | 2.0 | 11.047 | 2 | 38.915 | 11.219 | 34.662 | 2 |
| 2025-05-16T01:55:00 | 55.433852 | 5.351095 | 2.0 | 11.039 | 2 | 38.915 | 11.219 | 34.662 | 2 |
| 2025-05-16T01:56:00 | 55.435887 | 5.348592 | 2.0 | 11.038 | 2 | 38.908 | 11.211 | 34.663 | 2 |
| 2025-05-16T01:57:00 | 55.437962 | 5.346133 | 2.0 | 11.036 | 2 | 38.907 | 11.210 | 34.663 | 2 |
| 2025-05-16T01:58:00 | 55.440150 | 5.343565 | 2.0 | 11.032 | 2 | 38.906 | 11.210 | 34.662 | 2 |
| 2025-05-16T01:59:00 | 55.442269 | 5.341028 | 2.0 | 11.029 | 2 | 38.884 | 11.206 | 34.644 | 2 |
| 2025-05-16T02:00:00 | 55.444322 | 5.338641 | 2.0 | 11.023 | 2 | 38.774 | 11.206 | 34.535 | 2 |
| 2025-05-16T02:01:00 | 55.446467 | 5.336098 | 2.0 | 11.017 | 2 | 38.869 | 11.196 | 34.638 | 2 |
| 2025-05-16T02:02:00 | 55.448550 | 5.333603 | 2.0 | 11.021 | 2 | 38.867 | 11.191 | 34.641 | 2 |
| 2025-05-16T02:03:00 | 55.450657 | 5.331129 | 2.0 | 11.013 | 2 | 38.869 | 11.192 | 34.642 | 2 |
| 2025-05-16T02:04:00 | 55.452741 | 5.328641 | 2.0 | 11.020 | 2 | 38.864 | 11.187 | 34.642 | 2 |
| 2025-05-16T02:05:00 | 55.454906 | 5.326054 | 2.0 | 11.023 | 2 | 38.869 | 11.193 | 34.641 | 2 |
| 2025-05-16T02:06:00 | 55.456902 | 5.323000 | 2.0 | 11.033 | 2 | 38.875 | 11.197 | 34.643 | 2 |
| 2025-05-16T02:07:00 | 55.458890 | 5.319891 | 2.0 | 11.035 | 2 | 38.841 | 11.205 | 34.602 | 2 |
| 2025-05-16T02:08:00 | 55.460812 | 5.317013 | 2.0 | 11.037 | 2 | 38.892 | 11.207 | 34.651 | 2 |
| 2025-05-16T02:09:00 | 55.462790 | 5.313980 | 2.0 | 11.044 | 2 | 38.899 | 11.212 | 34.653 | 2 |
| 2025-05-16T02:10:00 | 55.464766 | 5.310858 | 2.0 | 11.045 | 2 | 38.904 | 11.218 | 34.652 | 2 |
| 2025-05-16T02:11:00 | 55.466656 | 5.307794 | 2.0 | 11.047 | 2 | 38.900 | 11.219 | 34.647 | 2 |
| 2025-05-16T02:12:00 | 55.468596 | 5.304720 | 2.0 | 11.044 | 2 | 38.900 | 11.217 | 34.649 | 2 |
| 2025-05-16T02:13:00 | 55.470526 | 5.301631 | 2.0 | 11.043 | 2 | 38.902 | 11.217 | 34.651 | 2 |
| 2025-05-16T02:14:00 | 55.472481 | 5.298582 | 2.0 | 11.036 | 2 | 38.901 | 11.216 | 34.651 | 2 |
| 2025-05-16T02:15:00 | 55.474427 | 5.295471 | 2.0 | 11.033 | 2 | 38.895 | 11.210 | 34.651 | 2 |
| 2025-05-16T02:16:00 | 55.476394 | 5.292420 | 2.0 | 11.027 | 2 | 38.891 | 11.206 | 34.651 | 2 |
| 2025-05-16T02:17:00 | 55.478321 | 5.289337 | 2.0 | 11.020 | 2 | 38.885 | 11.199 | 34.651 | 2 |
| 2025-05-16T02:18:00 | 55.480266 | 5.286213 | 2.0 | 11.014 | 2 | 38.873 | 11.193 | 34.645 | 2 |
| 2025-05-16T02:19:00 | 55.482229 | 5.283117 | 2.0 | 11.011 | 2 | 38.864 | 11.187 | 34.642 | 2 |
| 2025-05-16T02:20:00 | 55.484125 | 5.280156 | 2.0 | 11.009 | 2 | 38.859 | 11.187 | 34.637 | 2 |
| 2025-05-16T02:21:00 | 55.486082 | 5.277049 | 2.0 | 10.998 | 2 | 38.865 | 11.180 | 34.649 | 2 |
| 2025-05-16T02:22:00 | 55.488060 | 5.273850 | 2.0 | 10.990 | 2 | 38.858 | 11.171 | 34.651 | 2 |
| 2025-05-16T02:23:00 | 55.489976 | 5.270819 | 2.0 | 10.984 | 2 | 38.848 | 11.163 | 34.649 | 2 |
| 2025-05-16T02:24:00 | 55.491869 | 5.267783 | 2.0 | 10.978 | 2 | 38.843 | 11.157 | 34.649 | 2 |
| 2025-05-16T02:25:00 | 55.493719 | 5.264812 | 2.0 | 10.972 | 2 | 38.836 | 11.153 | 34.646 | 2 |
| 2025-05-16T02:26:00 | 55.495634 | 5.261878 | 2.0 | 10.968 | 2 | 38.832 | 11.146 | 34.649 | 2 |
| 2025-05-16T02:27:00 | 55.497478 | 5.258907 | 2.0 | 10.965 | 2 | 38.825 | 11.141 | 34.646 | 2 |
| 2025-05-16T02:28:00 | 55.499348 | 5.255891 | 2.0 | 10.956 | 2 | 38.809 | 11.138 | 34.633 | 2 |
| 2025-05-16T02:29:00 | 55.501208 | 5.252993 | 2.0 | 10.947 | 2 | 38.800 | 11.128 | 34.634 | 2 |
| 2025-05-16T02:31:00 | 55.504951 | 5.246966 | 2.0 | 10.942 | 2 | 38.735 | 11.124 | 34.573 | 2 |
| 2025-05-16T02:32:00 | 55.506852 | 5.243984 | 2.0 | 10.944 | 2 | 38.783 | 11.117 | 34.627 | 2 |
| 2025-05-16T02:33:00 | 55.508729 | 5.240957 | 2.0 | 10.950 | 2 | 38.790 | 11.119 | 34.632 | 2 |
| 2025-05-16T02:34:00 | 55.510641 | 5.238002 | 2.0 | 10.954 | 2 | 38.803 | 11.124 | 34.641 | 2 |
| 2025-05-16T02:35:00 | 55.512533 | 5.234929 | 2.0 | 10.959 | 2 | 38.802 | 11.127 | 34.637 | 2 |
| 2025-05-16T02:36:00 | 55.514442 | 5.231931 | 2.0 | 10.958 | 2 | 38.813 | 11.133 | 34.642 | 2 |
| 2025-05-16T02:37:00 | 55.516263 | 5.229039 | 2.0 | 10.959 | 2 | 38.814 | 11.131 | 34.645 | 2 |
| 2025-05-16T02:38:00 | 55.518197 | 5.225992 | 2.0 | 10.960 | 2 | 38.817 | 11.132 | 34.647 | 2 |
| 2025-05-16T02:39:00 | 55.520133 | 5.222866 | 2.0 | 10.963 | 2 | 38.817 | 11.134 | 34.645 | 2 |
| 2025-05-16T02:40:00 | 55.521951 | 5.219982 | 2.0 | 10.968 | 2 | 38.824 | 11.136 | 34.650 | 2 |
| 2025-05-16T02:41:00 | 55.523788 | 5.217074 | 2.0 | 10.966 | 2 | 38.830 | 11.140 | 34.652 | 2 |
| 2025-05-16T02:42:00 | 55.525653 | 5.214104 | 2.0 | 10.969 | 2 | 38.832 | 11.139 | 34.655 | 2 |
| 2025-05-16T02:43:00 | 55.527492 | 5.211195 | 2.0 | 10.973 | 2 | 38.835 | 11.142 | 34.655 | 2 |
| 2025-05-16T02:44:00 | 55.529376 | 5.208267 | 2.0 | 10.983 | 2 | 38.840 | 11.147 | 34.656 | 2 |
| 2025-05-16T02:45:00 | 55.531287 | 5.205215 | 2.0 | 10.994 | 2 | 38.849 | 11.157 | 34.655 | 2 |
| 2025-05-16T02:47:00 | 55.534707 | 5.199759 | 2.0 | 11.003 | 2 | 38.693 | 11.180 | 34.478 | 2 |
| 2025-05-16T02:48:00 | 55.536300 | 5.197198 | 2.0 | 11.005 | 2 | 38.780 | 11.180 | 34.565 | 2 |
| 2025-05-16T02:49:00 | 55.537980 | 5.194616 | 2.0 | 11.006 | 2 | 38.844 | 11.179 | 34.629 | 2 |
| 2025-05-16T02:50:00 | 55.539770 | 5.191746 | 2.0 | 11.006 | 2 | 38.869 | 11.179 | 34.654 | 2 |
| 2025-05-16T02:51:00 | 55.541642 | 5.188847 | 2.0 | 11.012 | 2 | 38.872 | 11.180 | 34.656 | 2 |
| 2025-05-16T02:52:00 | 55.543496 | 5.185822 | 2.0 | 11.019 | 2 | 38.879 | 11.185 | 34.659 | 2 |
| 2025-05-16T02:53:00 | 55.545364 | 5.182863 | 2.0 | 11.022 | 2 | 38.885 | 11.193 | 34.657 | 2 |
| 2025-05-16T02:54:00 | 55.547198 | 5.179942 | 2.0 | 11.024 | 2 | 38.891 | 11.194 | 34.662 | 2 |
| 2025-05-16T02:55:00 | 55.549082 | 5.176698 | 2.0 | 11.023 | 2 | 38.893 | 11.195 | 34.663 | 2 |
| 2025-05-16T02:56:00 | 55.550950 | 5.173558 | 2.0 | 11.015 | 2 | 38.882 | 11.196 | 34.651 | 2 |
| 2025-05-16T03:00:00 | 55.557781 | 5.161859 | 2.0 | 11.011 | 2 | 38.894 | 11.190 | 34.669 | 2 |
| 2025-05-16T03:01:00 | 55.559517 | 5.158863 | 2.0 | 11.009 | 2 | 38.890 | 11.186 | 34.669 | 2 |
| 2025-05-16T03:02:00 | 55.561254 | 5.155814 | 2.0 | 11.003 | 2 | 38.887 | 11.181 | 34.670 | 2 |
| 2025-05-16T03:03:00 | 55.562940 | 5.152745 | 2.0 | 11.000 | 2 | 38.886 | 11.175 | 34.675 | 2 |
| 2025-05-16T03:04:00 | 55.564633 | 5.149557 | 2.0 | 11.000 | 2 | 38.873 | 11.173 | 34.664 | 2 |
| 2025-05-16T03:05:00 | 55.566308 | 5.146513 | 2.0 | 11.000 | 2 | 38.882 | 11.171 | 34.675 | 2 |
| 2025-05-16T03:06:00 | 55.568092 | 5.143296 | 2.0 | 10.999 | 2 | 38.889 | 11.173 | 34.680 | 2 |
| 2025-05-16T03:07:00 | 55.569885 | 5.140054 | 2.0 | 11.002 | 2 | 38.890 | 11.172 | 34.682 | 2 |
| 2025-05-16T03:08:00 | 55.571639 | 5.136803 | 2.0 | 11.000 | 2 | 38.892 | 11.172 | 34.684 | 2 |
| 2025-05-16T03:09:00 | 55.573378 | 5.133632 | 2.0 | 11.005 | 2 | 38.892 | 11.174 | 34.682 | 2 |
| 2025-05-16T03:10:00 | 55.574895 | 5.130672 | 2.0 | 11.011 | 2 | 38.710 | 11.191 | 34.485 | 2 |
| 2025-05-16T03:11:00 | 55.576406 | 5.127907 | 2.0 | 11.017 | 2 | 38.650 | 11.185 | 34.431 | 2 |
| 2025-05-16T03:12:00 | 55.578074 | 5.124914 | 2.0 | 11.020 | 2 | 38.890 | 11.190 | 34.665 | 2 |
| 2025-05-16T03:17:00 | 55.586610 | 5.109476 | 2.0 | 11.002 | 2 | 38.903 | 11.178 | 34.689 | 2 |
| 2025-05-16T03:18:00 | 55.588309 | 5.106306 | 2.0 | 10.987 | 2 | 38.880 | 11.189 | 34.656 | 2 |
| 2025-05-16T03:19:00 | 55.589963 | 5.103243 | 2.0 | 10.974 | 2 | 38.627 | 11.170 | 34.422 | 2 |
| 2025-05-16T03:21:00 | 55.592891 | 5.097896 | 2.0 | 10.975 | 2 | 38.852 | 11.159 | 34.656 | 2 |
| 2025-05-16T03:22:00 | 55.594421 | 5.095141 | 2.0 | 10.979 | 2 | 38.861 | 11.150 | 34.674 | 2 |
| 2025-05-16T03:23:00 | 55.596040 | 5.092230 | 2.0 | 10.979 | 2 | 38.878 | 11.152 | 34.689 | 2 |
| 2025-05-16T03:24:00 | 55.597758 | 5.089128 | 2.0 | 10.978 | 2 | 38.881 | 11.151 | 34.693 | 2 |
| 2025-05-16T03:25:00 | 55.599476 | 5.085833 | 2.0 | 10.975 | 2 | 38.735 | 11.157 | 34.542 | 2 |
| 2025-05-16T03:36:00 | 55.617042 | 5.054412 | 2.0 | 10.879 | 2 | 38.735 | 11.067 | 34.627 | 2 |
| 2025-05-16T03:37:00 | 55.618633 | 5.051299 | 2.0 | 10.870 | 2 | 38.789 | 11.050 | 34.696 | 2 |
| 2025-05-16T03:38:00 | 55.620259 | 5.048300 | 2.0 | 10.869 | 2 | 38.788 | 11.043 | 34.702 | 2 |
| 2025-05-16T03:39:00 | 55.621890 | 5.045136 | 2.0 | 10.860 | 2 | 38.456 | 11.079 | 34.337 | 2 |
| 2025-05-16T03:42:00 | 55.626849 | 5.035816 | 2.0 | 10.838 | 2 | 38.756 | 11.013 | 34.698 | 2 |
| 2025-05-16T03:45:00 | 55.631557 | 5.027023 | 2.0 | 10.870 | 2 | 38.779 | 11.042 | 34.694 | 2 |
| 2025-05-16T03:48:00 | 55.636455 | 5.017685 | 2.0 | 10.896 | 2 | 38.688 | 11.063 | 34.583 | 2 |
| 2025-05-16T03:49:00 | 55.638013 | 5.014682 | 2.0 | 10.904 | 2 | 38.706 | 11.072 | 34.593 | 2 |
| 2025-05-16T03:50:00 | 55.639634 | 5.011506 | 2.0 | 10.912 | 2 | 38.815 | 11.078 | 34.696 | 2 |
| 2025-05-16T03:51:00 | 55.641201 | 5.008349 | 2.0 | 10.917 | 2 | 38.804 | 11.086 | 34.677 | 2 |
| 2025-05-16T03:52:00 | 55.642711 | 5.005167 | 2.0 | 10.912 | 2 | 38.846 | 11.096 | 34.710 | 2 |
| 2025-05-16T03:53:00 | 55.644306 | 5.001928 | 2.0 | 10.914 | 2 | 38.841 | 11.087 | 34.713 | 2 |
| 2025-05-16T03:54:00 | 55.645919 | 4.998771 | 2.0 | 10.909 | 2 | 38.841 | 11.084 | 34.716 | 2 |
| 2025-05-16T03:55:00 | 55.647568 | 4.995425 | 2.0 | 10.912 | 2 | 38.690 | 11.084 | 34.566 | 2 |
| 2025-05-16T03:56:00 | 55.649233 | 4.992077 | 2.0 | 10.913 | 2 | 38.784 | 11.083 | 34.660 | 2 |
| 2025-05-16T03:57:00 | 55.650783 | 4.988820 | 2.0 | 10.910 | 2 | 38.710 | 11.087 | 34.583 | 2 |
| 2025-05-16T03:58:00 | 55.652332 | 4.985598 | 2.0 | 10.897 | 2 | 38.853 | 11.082 | 34.730 | 2 |
| 2025-05-16T03:59:00 | 55.653989 | 4.982416 | 2.0 | 10.881 | 2 | 38.847 | 11.066 | 34.739 | 2 |
| 2025-05-16T04:00:00 | 55.655591 | 4.979094 | 2.0 | 10.860 | 2 | 38.684 | 11.054 | 34.588 | 2 |
| 2025-05-16T04:03:00 | 55.660122 | 4.969874 | 2.0 | 10.815 | 2 | 38.769 | 11.001 | 34.723 | 2 |
| 2025-05-16T04:09:00 | 55.668812 | 4.951958 | 2.0 | 10.698 | 2 | 38.521 | 10.883 | 34.586 | 2 |
| 2025-05-16T04:10:00 | 55.670296 | 4.949070 | 2.0 | 10.685 | 2 | 38.652 | 10.871 | 34.729 | 2 |
| 2025-05-16T04:17:00 | 55.681422 | 4.926609 | 2.0 | 10.539 | 2 | 38.478 | 10.730 | 34.688 | 2 |
| 2025-05-16T04:18:00 | 55.683061 | 4.923340 | 2.0 | 10.531 | 2 | 38.515 | 10.710 | 34.745 | 2 |
| 2025-05-16T04:22:00 | 55.689215 | 4.910686 | 2.0 | 10.506 | 2 | 38.367 | 10.696 | 34.609 | 2 |
| 2025-05-16T04:23:00 | 55.690839 | 4.907542 | 2.0 | 10.493 | 2 | 38.471 | 10.681 | 34.728 | 2 |
| 2025-05-16T04:25:00 | 55.693998 | 4.901046 | 2.0 | 10.492 | 2 | 38.309 | 10.672 | 34.573 | 2 |
| 2025-05-16T04:26:00 | 55.695558 | 4.897929 | 2.0 | 10.484 | 2 | 38.449 | 10.666 | 34.720 | 2 |
| 2025-05-16T04:30:00 | 55.701609 | 4.885493 | 2.0 | 10.420 | 2 | 38.219 | 10.622 | 34.530 | 2 |
| 2025-05-16T04:31:00 | 55.703234 | 4.882170 | 2.0 | 10.416 | 2 | 38.400 | 10.596 | 34.737 | 2 |
| 2025-05-16T04:34:00 | 55.707725 | 4.872640 | 2.0 | 10.441 | 2 | 38.380 | 10.603 | 34.710 | 2 |
| 2025-05-16T04:35:00 | 55.709308 | 4.869262 | 2.0 | 10.459 | 2 | 38.393 | 10.617 | 34.710 | 2 |
| 2025-05-16T04:44:00 | 55.722354 | 4.841850 | 2.0 | 10.574 | 2 | 38.500 | 10.755 | 34.687 | 2 |
| 2025-05-16T04:46:00 | 55.725291 | 4.835560 | 2.0 | 10.589 | 2 | 38.357 | 10.765 | 34.534 | 2 |
| 2025-05-16T04:47:00 | 55.726844 | 4.832324 | 2.0 | 10.594 | 2 | 38.402 | 10.766 | 34.578 | 2 |
| 2025-05-16T04:53:00 | 55.735548 | 4.813840 | 2.0 | 10.650 | 2 | 38.427 | 10.823 | 34.549 | 2 |
| 2025-05-16T04:56:00 | 55.740078 | 4.804345 | 2.0 | 10.593 | 2 | 38.400 | 10.789 | 34.554 | 2 |
| 2025-05-16T04:57:00 | 55.741638 | 4.801114 | 2.0 | 10.587 | 2 | 38.520 | 10.773 | 34.690 | 2 |
| 2025-05-16T04:58:00 | 55.743157 | 4.797760 | 2.0 | 10.577 | 2 | 38.479 | 10.760 | 34.661 | 2 |
| 2025-05-16T04:59:00 | 55.744799 | 4.794386 | 2.0 | 10.565 | 2 | 38.505 | 10.751 | 34.695 | 2 |
| 2025-05-16T05:00:00 | 55.746178 | 4.791203 | 2.0 | 10.548 | 2 | 38.508 | 10.741 | 34.708 | 2 |
| 2025-05-16T05:01:00 | 55.747585 | 4.788280 | 2.0 | 10.546 | 2 | 38.451 | 10.725 | 34.666 | 2 |
| 2025-05-16T05:02:00 | 55.748998 | 4.785315 | 2.0 | 10.537 | 2 | 38.490 | 10.718 | 34.712 | 2 |
| 2025-05-16T05:03:00 | 55.750514 | 4.782078 | 2.0 | 10.531 | 2 | 38.492 | 10.712 | 34.719 | 2 |
| 2025-05-16T05:04:00 | 55.752129 | 4.778786 | 2.0 | 10.517 | 2 | 38.176 | 10.706 | 34.408 | 2 |
| 2025-05-16T05:07:00 | 55.756554 | 4.769203 | 2.0 | 10.476 | 2 | 38.195 | 10.658 | 34.472 | 2 |
| 2025-05-16T05:08:00 | 55.757844 | 4.766360 | 2.0 | 10.460 | 2 | 38.503 | 10.777 | 34.669 | 2 |
| 2025-05-16T05:11:00 | 55.761995 | 4.757898 | 2.0 | 10.450 | 2 | 38.203 | 10.629 | 34.507 | 2 |
| 2025-05-16T05:14:00 | 55.765730 | 4.749813 | 2.0 | 10.436 | 2 | 38.243 | 10.619 | 34.557 | 2 |
| 2025-05-16T05:15:00 | 55.767294 | 4.746726 | 2.0 | 10.441 | 2 | 38.381 | 10.615 | 34.700 | 2 |
| 2025-05-16T05:18:00 | 55.771365 | 4.738096 | 2.0 | 10.455 | 2 | 38.370 | 10.620 | 34.684 | 2 |
| 2025-05-16T05:19:00 | 55.772675 | 4.735358 | 2.0 | 10.466 | 2 | 38.407 | 10.628 | 34.714 | 2 |
| 2025-05-16T05:20:00 | 55.773961 | 4.732577 | 2.0 | 10.474 | 2 | 38.410 | 10.641 | 34.704 | 2 |
| 2025-05-16T05:22:00 | 55.776229 | 4.727505 | 2.0 | 10.488 | 2 | 38.227 | 10.657 | 34.505 | 2 |
| 2025-05-16T05:23:00 | 55.777430 | 4.725007 | 2.0 | 10.492 | 2 | 38.135 | 10.660 | 34.410 | 2 |
| 2025-05-16T05:24:00 | 55.778498 | 4.722674 | 2.0 | 10.496 | 2 | 38.361 | 10.664 | 34.633 | 2 |
| 2025-05-16T05:25:00 | 55.779703 | 4.720205 | 2.0 | 10.505 | 2 | 38.419 | 10.671 | 34.685 | 2 |
| 2025-05-16T05:26:00 | 55.780902 | 4.717658 | 2.0 | 10.514 | 2 | 38.385 | 10.681 | 34.641 | 2 |
| 2025-05-16T05:29:00 | 55.784177 | 4.710520 | 2.0 | 10.534 | 2 | 38.391 | 10.698 | 34.631 | 2 |
| 2025-05-16T05:30:00 | 55.785360 | 4.708046 | 2.0 | 10.540 | 2 | 38.468 | 10.708 | 34.699 | 2 |
| 2025-05-16T05:32:00 | 55.787902 | 4.702775 | 2.0 | 10.546 | 2 | 38.413 | 10.717 | 34.635 | 2 |
| 2025-05-16T05:33:00 | 55.789142 | 4.700037 | 2.0 | 10.549 | 2 | 38.477 | 10.718 | 34.699 | 2 |
| 2025-05-16T05:37:00 | 55.793426 | 4.690682 | 2.0 | 10.585 | 2 | 38.341 | 10.749 | 34.533 | 2 |
| 2025-05-16T05:39:00 | 55.795722 | 4.686002 | 2.0 | 10.598 | 2 | 38.526 | 10.761 | 34.707 | 2 |
| 2025-05-16T05:41:00 | 55.797842 | 4.681293 | 2.0 | 10.582 | 2 | 38.369 | 10.771 | 34.540 | 2 |
| 2025-05-16T05:42:00 | 55.799022 | 4.678784 | 2.0 | 10.572 | 2 | 38.488 | 10.753 | 34.676 | 2 |
| 2025-05-16T05:43:00 | 55.800312 | 4.676274 | 2.0 | 10.571 | 2 | 38.510 | 10.744 | 34.707 | 2 |
| 2025-05-16T05:44:00 | 55.801602 | 4.673644 | 2.0 | 10.566 | 2 | 38.510 | 10.740 | 34.711 | 2 |
| 2025-05-16T05:45:00 | 55.802884 | 4.670721 | 2.0 | 10.562 | 2 | 38.438 | 10.739 | 34.640 | 2 |
| 2025-05-16T05:46:00 | 55.804268 | 4.667890 | 2.0 | 10.553 | 2 | 38.424 | 10.733 | 34.631 | 2 |
| 2025-05-16T05:47:00 | 55.805382 | 4.665170 | 2.0 | 10.535 | 2 | 38.421 | 10.743 | 34.619 | 2 |
| 2025-05-16T05:49:00 | 55.807803 | 4.660718 | 2.0 | 10.519 | 2 | 38.434 | 10.707 | 34.666 | 2 |
| 2025-05-16T05:51:00 | 55.810364 | 4.655886 | 2.0 | 10.502 | 2 | 38.308 | 10.685 | 34.560 | 2 |
| 2025-05-16T05:52:00 | 55.811824 | 4.653205 | 2.0 | 10.503 | 2 | 38.424 | 10.678 | 34.683 | 2 |
| 2025-05-16T05:54:00 | 55.814548 | 4.648267 | 2.0 | 10.500 | 2 | 38.360 | 10.674 | 34.623 | 2 |
| 2025-05-16T05:55:00 | 55.816115 | 4.645480 | 2.0 | 10.502 | 2 | 38.416 | 10.672 | 34.681 | 2 |
| 2025-05-16T05:56:00 | 55.817521 | 4.642676 | 2.0 | 10.509 | 2 | 38.408 | 10.689 | 34.657 | 2 |
| 2025-05-16T06:04:00 | 55.827134 | 4.624688 | 2.0 | 10.469 | 2 | 38.209 | 10.647 | 34.496 | 2 |
| 2025-05-16T06:05:00 | 55.828483 | 4.622364 | 2.0 | 10.466 | 2 | 38.351 | 10.644 | 34.642 | 2 |
| 2025-05-16T06:06:00 | 55.829817 | 4.619791 | 2.0 | 10.467 | 2 | 38.343 | 10.641 | 34.637 | 2 |
| 2025-05-16T06:07:00 | 55.831183 | 4.617270 | 2.0 | 10.462 | 2 | 38.366 | 10.636 | 34.665 | 2 |
| 2025-05-16T06:08:00 | 55.832701 | 4.614640 | 2.0 | 10.461 | 2 | 38.175 | 10.640 | 34.469 | 2 |
| 2025-05-16T06:10:00 | 55.835330 | 4.609579 | 2.0 | 10.449 | 2 | 38.288 | 10.633 | 34.589 | 2 |
| 2025-05-16T06:11:00 | 55.836790 | 4.607054 | 2.0 | 10.453 | 2 | 38.365 | 10.621 | 34.678 | 2 |
| 2025-05-16T06:12:00 | 55.838300 | 4.604247 | 2.0 | 10.458 | 2 | 38.370 | 10.628 | 34.677 | 2 |
| 2025-05-16T06:14:00 | 55.841142 | 4.598902 | 2.0 | 10.452 | 2 | 38.203 | 10.624 | 34.512 | 2 |
| 2025-05-16T06:15:00 | 55.842583 | 4.596326 | 2.0 | 10.463 | 2 | 38.383 | 10.623 | 34.694 | 2 |
| 2025-05-16T06:16:00 | 55.843988 | 4.593737 | 2.0 | 10.484 | 2 | 38.395 | 10.639 | 34.691 | 2 |
| 2025-05-16T06:18:00 | 55.846698 | 4.588575 | 2.0 | 10.517 | 2 | 38.381 | 10.666 | 34.652 | 2 |
| 2025-05-16T06:25:00 | 55.855964 | 4.571841 | 2.0 | 10.623 | 2 | 38.428 | 10.776 | 34.594 | 2 |
| 2025-05-16T06:26:00 | 55.857454 | 4.569202 | 2.0 | 10.621 | 2 | 38.553 | 10.793 | 34.704 | 2 |
| 2025-05-16T06:29:00 | 55.861276 | 4.561793 | 2.0 | 10.616 | 2 | 38.176 | 10.798 | 34.321 | 2 |
| 2025-05-16T06:33:00 | 55.866191 | 4.552784 | 2.0 | 10.634 | 2 | 38.507 | 10.806 | 34.645 | 2 |
| 2025-05-16T06:35:00 | 55.868699 | 4.548218 | 2.0 | 10.652 | 2 | 38.333 | 10.820 | 34.458 | 2 |
| 2025-05-16T06:36:00 | 55.870111 | 4.545801 | 2.0 | 10.657 | 2 | 38.576 | 10.825 | 34.696 | 2 |
| 2025-05-16T06:37:00 | 55.871552 | 4.543325 | 2.0 | 10.661 | 2 | 38.590 | 10.828 | 34.708 | 2 |
| 2025-05-16T06:43:00 | 55.878956 | 4.529643 | 2.0 | 10.655 | 2 | 38.272 | 10.836 | 34.381 | 2 |
| 2025-05-16T06:44:00 | 55.880245 | 4.527219 | 2.0 | 10.658 | 2 | 38.554 | 10.834 | 34.666 | 2 |
| 2025-05-16T06:47:00 | 55.884172 | 4.519881 | 2.0 | 10.648 | 2 | 38.527 | 10.828 | 34.645 | 2 |
| 2025-05-16T06:48:00 | 55.885483 | 4.517360 | 2.0 | 10.639 | 2 | 38.258 | 10.825 | 34.378 | 2 |
| 2025-05-16T06:49:00 | 55.886901 | 4.514880 | 2.0 | 10.644 | 2 | 38.329 | 10.811 | 34.462 | 2 |
| 2025-05-16T06:55:00 | 55.894800 | 4.500392 | 2.0 | 10.617 | 2 | 38.251 | 10.803 | 34.391 | 2 |
| 2025-05-16T06:59:00 | 55.900204 | 4.490575 | 2.0 | 10.612 | 2 | 38.427 | 10.813 | 34.558 | 2 |
| 2025-05-16T07:00:00 | 55.901612 | 4.487896 | 2.0 | 10.614 | 2 | 38.154 | 10.782 | 34.314 | 2 |
| 2025-05-16T07:05:00 | 55.907926 | 4.476150 | 2.0 | 10.594 | 2 | 38.175 | 10.792 | 34.326 | 2 |
| 2025-05-16T07:06:00 | 55.909306 | 4.473675 | 2.0 | 10.596 | 2 | 38.398 | 10.775 | 34.565 | 2 |
| 2025-05-16T07:07:00 | 55.910831 | 4.471109 | 2.0 | 10.598 | 2 | 38.487 | 10.774 | 34.656 | 2 |
| 2025-05-16T07:08:00 | 55.912109 | 4.468589 | 2.0 | 10.602 | 2 | 38.541 | 10.773 | 34.711 | 2 |
| 2025-05-16T07:09:00 | 55.913559 | 4.465930 | 2.0 | 10.606 | 2 | 38.553 | 10.775 | 34.721 | 2 |
| 2025-05-16T07:10:00 | 55.915074 | 4.463147 | 2.0 | 10.618 | 2 | 38.275 | 10.784 | 34.433 | 2 |
| 2025-05-16T07:11:00 | 55.916609 | 4.460415 | 2.0 | 10.614 | 2 | 38.278 | 10.791 | 34.430 | 2 |
| 2025-05-16T07:14:00 | 55.920489 | 4.453218 | 2.0 | 10.596 | 2 | 38.261 | 10.771 | 34.432 | 2 |
| 2025-05-16T07:17:00 | 55.924449 | 4.445798 | 2.0 | 10.615 | 2 | 38.429 | 10.779 | 34.593 | 2 |
| 2025-05-16T07:18:00 | 55.925929 | 4.443292 | 2.0 | 10.619 | 2 | 38.573 | 10.788 | 34.729 | 2 |
| 2025-05-16T07:19:00 | 55.927347 | 4.440747 | 2.0 | 10.633 | 2 | 38.558 | 10.795 | 34.707 | 2 |
| 2025-05-16T07:20:00 | 55.928893 | 4.438058 | 2.0 | 10.639 | 2 | 38.494 | 10.801 | 34.637 | 2 |
| 2025-05-16T07:23:00 | 55.932776 | 4.430559 | 2.0 | 10.660 | 2 | 38.552 | 10.827 | 34.671 | 2 |
| 2025-05-16T07:24:00 | 55.934208 | 4.428095 | 2.0 | 10.661 | 2 | 38.584 | 10.837 | 34.693 | 2 |
| 2025-05-16T07:26:00 | 55.936911 | 4.423090 | 2.0 | 10.665 | 2 | 38.612 | 10.837 | 34.721 | 2 |
| 2025-05-16T07:28:00 | 55.939780 | 4.417812 | 2.0 | 10.654 | 2 | 38.500 | 10.831 | 34.615 | 2 |
| 2025-05-16T07:29:00 | 55.941277 | 4.415195 | 2.0 | 10.646 | 2 | 38.600 | 10.823 | 34.722 | 2 |
| 2025-05-16T07:30:00 | 55.942779 | 4.412490 | 2.0 | 10.639 | 2 | 38.613 | 10.815 | 34.743 | 2 |
| 2025-05-16T07:31:00 | 55.944268 | 4.409627 | 2.0 | 10.647 | 2 | 38.609 | 10.811 | 34.743 | 2 |
| 2025-05-16T07:36:00 | 55.950657 | 4.397730 | 2.0 | 10.656 | 2 | 38.387 | 10.835 | 34.498 | 2 |
| 2025-05-16T07:39:00 | 55.954841 | 4.390192 | 2.0 | 10.643 | 2 | 38.604 | 10.820 | 34.729 | 2 |
| 2025-05-16T07:40:00 | 55.956396 | 4.387381 | 2.0 | 10.648 | 2 | 38.607 | 10.815 | 34.737 | 2 |
| 2025-05-16T07:41:00 | 55.957852 | 4.384637 | 2.0 | 10.656 | 2 | 38.608 | 10.824 | 34.730 | 2 |
| 2025-05-16T07:44:00 | 55.961474 | 4.377634 | 2.0 | 10.615 | 2 | 38.284 | 10.794 | 34.433 | 2 |
| 2025-05-16T07:46:00 | 55.964131 | 4.372877 | 2.0 | 10.595 | 2 | 38.410 | 10.781 | 34.572 | 2 |
| 2025-05-16T07:47:00 | 55.965467 | 4.370297 | 2.0 | 10.600 | 2 | 38.583 | 10.774 | 34.752 | 2 |
| 2025-05-16T07:48:00 | 55.966993 | 4.367676 | 2.0 | 10.589 | 2 | 38.589 | 10.767 | 34.765 | 2 |
| 2025-05-16T07:49:00 | 55.968545 | 4.364915 | 2.0 | 10.588 | 2 | 38.512 | 10.761 | 34.693 | 2 |
| 2025-05-16T07:51:00 | 55.971193 | 4.359782 | 2.0 | 10.604 | 2 | 38.512 | 10.767 | 34.687 | 2 |
| 2025-05-16T07:54:00 | 55.975360 | 4.352269 | 2.0 | 10.634 | 2 | 38.520 | 10.798 | 34.666 | 2 |
| 2025-05-16T07:55:00 | 55.976529 | 4.349774 | 2.0 | 10.637 | 2 | 38.607 | 10.834 | 34.719 | 2 |
| 2025-05-16T07:58:00 | 55.980691 | 4.342366 | 2.0 | 10.639 | 2 | 38.607 | 10.835 | 34.718 | 2 |
| 2025-05-16T08:00:00 | 55.983729 | 4.336753 | 2.0 | 10.621 | 2 | 38.592 | 10.801 | 34.735 | 2 |
| 2025-05-16T08:01:00 | 55.985230 | 4.334072 | 2.0 | 10.625 | 2 | 38.570 | 10.796 | 34.718 | 2 |
| 2025-05-16T08:02:00 | 55.986716 | 4.331176 | 2.0 | 10.629 | 2 | 38.528 | 10.797 | 34.675 | 2 |
| 2025-05-16T08:03:00 | 55.988147 | 4.328552 | 2.0 | 10.626 | 2 | 38.588 | 10.799 | 34.733 | 2 |
| 2025-05-16T08:04:00 | 55.989670 | 4.325696 | 2.0 | 10.630 | 2 | 38.462 | 10.802 | 34.604 | 2 |
| 2025-05-16T08:05:00 | 55.991022 | 4.323145 | 2.0 | 10.620 | 2 | 38.287 | 10.802 | 34.428 | 2 |
| 2025-05-16T08:08:00 | 55.995183 | 4.315478 | 2.0 | 10.593 | 2 | 38.591 | 10.780 | 34.754 | 2 |
| 2025-05-16T08:10:00 | 55.997839 | 4.310483 | 2.0 | 10.568 | 2 | 38.395 | 10.754 | 34.582 | 2 |
| 2025-05-16T08:13:00 | 56.001712 | 4.303323 | 2.0 | 10.547 | 2 | 38.560 | 10.720 | 34.780 | 2 |
| 2025-05-16T08:14:00 | 56.003144 | 4.300727 | 2.0 | 10.538 | 2 | 38.537 | 10.723 | 34.754 | 2 |
| 2025-05-16T08:15:00 | 56.004523 | 4.298141 | 2.0 | 10.527 | 2 | 38.550 | 10.712 | 34.778 | 2 |
| 2025-05-16T08:16:00 | 56.005988 | 4.295399 | 2.0 | 10.524 | 2 | 38.538 | 10.698 | 34.779 | 2 |
| 2025-05-16T08:17:00 | 56.007525 | 4.292649 | 2.0 | 10.514 | 2 | 38.535 | 10.694 | 34.780 | 2 |
| 2025-05-16T08:19:00 | 56.010361 | 4.287273 | 2.0 | 10.521 | 2 | 38.522 | 10.687 | 34.773 | 2 |
| 2025-05-16T08:20:00 | 56.011887 | 4.284460 | 2.0 | 10.532 | 2 | 38.534 | 10.693 | 34.780 | 2 |
| 2025-05-16T08:23:00 | 56.015944 | 4.276860 | 2.0 | 10.535 | 2 | 38.543 | 10.715 | 34.768 | 2 |
| 2025-05-16T08:24:00 | 56.017428 | 4.274281 | 2.0 | 10.536 | 2 | 38.557 | 10.704 | 34.792 | 2 |
| 2025-05-16T08:25:00 | 56.018907 | 4.271503 | 2.0 | 10.530 | 2 | 38.516 | 10.706 | 34.749 | 2 |
| 2025-05-16T08:26:00 | 56.020409 | 4.268730 | 2.0 | 10.520 | 2 | 38.489 | 10.701 | 34.727 | 2 |
| 2025-05-16T08:27:00 | 56.021771 | 4.266114 | 2.0 | 10.513 | 2 | 38.299 | 10.694 | 34.542 | 2 |
| 2025-05-16T08:28:00 | 56.023115 | 4.263461 | 2.0 | 10.503 | 2 | 38.431 | 10.684 | 34.685 | 2 |
| 2025-05-16T08:29:00 | 56.024643 | 4.260733 | 2.0 | 10.484 | 2 | 38.482 | 10.671 | 34.748 | 2 |
| 2025-05-16T08:30:00 | 56.026301 | 4.257888 | 2.0 | 10.466 | 2 | 38.520 | 10.652 | 34.805 | 2 |
| 2025-05-16T08:31:00 | 56.027805 | 4.255007 | 2.0 | 10.450 | 2 | 38.447 | 10.638 | 34.745 | 2 |
| 2025-05-16T08:32:00 | 56.029376 | 4.252088 | 2.0 | 10.434 | 2 | 38.466 | 10.622 | 34.779 | 2 |
| 2025-05-16T08:34:00 | 56.032485 | 4.246290 | 2.0 | 10.429 | 2 | 38.309 | 10.602 | 34.640 | 2 |
| 2025-05-16T08:35:00 | 56.033949 | 4.243420 | 2.0 | 10.424 | 2 | 38.472 | 10.599 | 34.807 | 2 |
| 2025-05-16T08:36:00 | 56.035423 | 4.240751 | 2.0 | 10.424 | 2 | 38.392 | 10.599 | 34.726 | 2 |
| 2025-05-16T08:39:00 | 56.039773 | 4.232666 | 2.0 | 10.413 | 2 | 38.447 | 10.588 | 34.792 | 2 |
| 2025-05-16T08:43:00 | 56.045347 | 4.222462 | 2.0 | 10.430 | 2 | 38.461 | 10.602 | 34.793 | 2 |
| 2025-05-16T08:45:00 | 56.048195 | 4.217072 | 2.0 | 10.460 | 2 | 38.369 | 10.625 | 34.678 | 2 |
| 2025-05-16T08:47:00 | 56.051150 | 4.211617 | 2.0 | 10.479 | 2 | 38.493 | 10.640 | 34.789 | 2 |
| 2025-05-16T08:48:00 | 56.052657 | 4.208776 | 2.0 | 10.463 | 2 | 38.463 | 10.646 | 34.753 | 2 |
| 2025-05-16T08:49:00 | 56.054150 | 4.206024 | 2.0 | 10.459 | 2 | 38.502 | 10.634 | 34.804 | 2 |
| 2025-05-16T08:50:00 | 56.055588 | 4.203193 | 2.0 | 10.461 | 2 | 38.425 | 10.632 | 34.728 | 2 |
| 2025-05-16T08:51:00 | 56.056963 | 4.200611 | 2.0 | 10.474 | 2 | 38.445 | 10.638 | 34.743 | 2 |
| 2025-05-16T08:53:00 | 56.059897 | 4.195300 | 2.0 | 10.474 | 2 | 38.520 | 10.649 | 34.808 | 2 |
| 2025-05-16T09:01:00 | 56.071295 | 4.174236 | 2.0 | 10.462 | 2 | 38.507 | 10.630 | 34.813 | 2 |
| 2025-05-16T09:04:00 | 56.075534 | 4.166318 | 2.0 | 10.464 | 2 | 38.411 | 10.632 | 34.714 | 2 |
| 2025-05-16T09:05:00 | 56.077061 | 4.163559 | 2.0 | 10.469 | 2 | 38.488 | 10.635 | 34.789 | 2 |
| 2025-05-16T09:08:00 | 56.081505 | 4.155289 | 2.0 | 10.479 | 2 | 38.515 | 10.649 | 34.803 | 2 |
| 2025-05-16T09:09:00 | 56.082807 | 4.152696 | 2.0 | 10.465 | 2 | 38.406 | 10.720 | 34.625 | 2 |
| 2025-05-16T09:11:00 | 56.085627 | 4.147608 | 2.0 | 10.474 | 2 | 38.513 | 10.640 | 34.809 | 2 |
| 2025-05-16T09:12:00 | 56.087086 | 4.144907 | 2.0 | 10.470 | 2 | 38.525 | 10.650 | 34.812 | 2 |
| 2025-05-16T09:13:00 | 56.088584 | 4.142213 | 2.0 | 10.471 | 2 | 38.521 | 10.642 | 34.815 | 2 |
| 2025-05-16T09:15:00 | 56.091603 | 4.136565 | 2.0 | 10.467 | 2 | 38.348 | 10.638 | 34.645 | 2 |
| 2025-05-16T09:16:00 | 56.093087 | 4.133747 | 2.0 | 10.471 | 2 | 38.512 | 10.641 | 34.807 | 2 |
| 2025-05-16T09:17:00 | 56.094515 | 4.131097 | 2.0 | 10.472 | 2 | 38.398 | 10.642 | 34.691 | 2 |
| 2025-05-16T09:20:00 | 56.099005 | 4.122727 | 2.0 | 10.455 | 2 | 38.258 | 10.632 | 34.560 | 2 |
| 2025-05-16T09:32:00 | 56.116458 | 4.090844 | 2.0 | 10.442 | 2 | 38.292 | 10.609 | 34.616 | 2 |
| 2025-05-16T09:33:00 | 56.118211 | 4.088126 | 2.0 | 10.435 | 2 | 38.501 | 10.612 | 34.824 | 2 |
| 2025-05-16T09:34:00 | 56.119875 | 4.085336 | 2.0 | 10.422 | 2 | 38.498 | 10.606 | 34.827 | 2 |
| 2025-05-16T09:35:00 | 56.121527 | 4.082708 | 2.0 | 10.403 | 2 | 38.469 | 10.591 | 34.812 | 2 |
| 2025-05-16T09:36:00 | 56.123071 | 4.080272 | 2.0 | 10.383 | 2 | 38.424 | 10.574 | 34.782 | 2 |
| 2025-05-16T09:37:00 | 56.124683 | 4.077728 | 2.0 | 10.373 | 2 | 38.372 | 10.555 | 34.748 | 2 |
| 2025-05-16T09:42:00 | 56.132152 | 4.065658 | 2.0 | 10.386 | 2 | 38.268 | 10.559 | 34.639 | 2 |
| 2025-05-16T09:46:00 | 56.138311 | 4.055710 | 2.0 | 10.403 | 2 | 38.451 | 10.567 | 34.816 | 2 |
| 2025-05-16T09:53:00 | 56.149256 | 4.038741 | 2.0 | 10.430 | 2 | 38.484 | 10.607 | 34.812 | 2 |
| 2025-05-16T09:54:00 | 56.150998 | 4.036035 | 2.0 | 10.439 | 2 | 38.503 | 10.601 | 34.836 | 2 |
| 2025-05-16T09:56:00 | 56.154450 | 4.030622 | 2.0 | 10.450 | 2 | 38.281 | 10.620 | 34.594 | 2 |
| 2025-05-16T09:57:00 | 56.156131 | 4.028053 | 2.0 | 10.455 | 2 | 38.402 | 10.627 | 34.710 | 2 |
| 2025-05-16T09:59:00 | 56.159160 | 4.023180 | 2.0 | 10.430 | 2 | 38.433 | 10.620 | 34.748 | 2 |
| 2025-05-16T10:03:00 | 56.165725 | 4.012776 | 2.0 | 10.388 | 2 | 38.434 | 10.560 | 34.806 | 2 |
| 2025-05-16T10:04:00 | 56.167471 | 4.010064 | 2.0 | 10.387 | 2 | 38.469 | 10.559 | 34.842 | 2 |
| 2025-05-16T10:05:00 | 56.169207 | 4.007224 | 2.0 | 10.386 | 2 | 38.471 | 10.556 | 34.847 | 2 |
| 2025-05-16T10:09:00 | 56.175610 | 3.996742 | 2.0 | 10.384 | 2 | 38.301 | 10.558 | 34.674 | 2 |
| 2025-05-16T10:10:00 | 56.177190 | 3.994033 | 2.0 | 10.371 | 2 | 38.458 | 10.556 | 34.834 | 2 |
| 2025-05-16T10:11:00 | 56.178856 | 3.991446 | 2.0 | 10.348 | 2 | 38.173 | 10.542 | 34.560 | 2 |
| 2025-05-16T10:12:00 | 56.180465 | 3.988694 | 2.0 | 10.325 | 2 | 38.439 | 10.518 | 34.851 | 2 |
| 2025-05-16T10:15:00 | 56.185358 | 3.980462 | 2.0 | 10.276 | 2 | 38.370 | 10.456 | 34.841 | 2 |
| 2025-05-16T10:16:00 | 56.187042 | 3.977672 | 2.0 | 10.284 | 2 | 38.374 | 10.450 | 34.851 | 2 |
| 2025-05-16T10:17:00 | 56.188728 | 3.974890 | 2.0 | 10.289 | 2 | 38.379 | 10.457 | 34.849 | 2 |
| 2025-05-16T10:21:00 | 56.195216 | 3.964101 | 2.0 | 10.338 | 2 | 38.329 | 10.509 | 34.749 | 2 |
| 2025-05-16T10:24:00 | 56.200193 | 3.956157 | 2.0 | 10.354 | 2 | 38.445 | 10.522 | 34.853 | 2 |
| 2025-05-16T10:25:00 | 56.201820 | 3.953481 | 2.0 | 10.379 | 2 | 38.445 | 10.532 | 34.844 | 2 |
| 2025-05-16T10:26:00 | 56.203575 | 3.950750 | 2.0 | 10.398 | 2 | 38.478 | 10.545 | 34.865 | 2 |
| 2025-05-16T10:27:00 | 56.205274 | 3.948038 | 2.0 | 10.418 | 2 | 38.509 | 10.569 | 34.873 | 2 |
| 2025-05-16T10:28:00 | 56.206906 | 3.945366 | 2.0 | 10.421 | 2 | 38.529 | 10.587 | 34.876 | 2 |
| 2025-05-16T10:29:00 | 56.208515 | 3.942626 | 2.0 | 10.413 | 2 | 38.525 | 10.594 | 34.865 | 2 |
| 2025-05-16T10:30:00 | 56.210191 | 3.939787 | 2.0 | 10.403 | 2 | 38.525 | 10.583 | 34.876 | 2 |
| 2025-05-16T10:31:00 | 56.211819 | 3.937022 | 2.0 | 10.405 | 2 | 38.473 | 10.582 | 34.824 | 2 |
| 2025-05-16T10:33:00 | 56.215063 | 3.931591 | 2.0 | 10.400 | 2 | 38.103 | 10.578 | 34.455 | 2 |
| 2025-05-16T10:34:00 | 56.216764 | 3.928908 | 2.0 | 10.397 | 2 | 38.143 | 10.566 | 34.507 | 2 |
| 2025-05-16T10:35:00 | 56.218399 | 3.926028 | 2.0 | 10.410 | 2 | 38.455 | 10.578 | 34.810 | 2 |
| 2025-05-16T10:36:00 | 56.220140 | 3.923337 | 2.0 | 10.413 | 2 | 38.530 | 10.580 | 34.884 | 2 |
| 2025-05-16T10:37:00 | 56.221899 | 3.920541 | 2.0 | 10.420 | 2 | 38.528 | 10.583 | 34.879 | 2 |
| 2025-05-16T10:38:00 | 56.223457 | 3.918000 | 2.0 | 10.416 | 2 | 38.485 | 10.703 | 34.721 | 2 |
| 2025-05-16T10:39:00 | 56.225130 | 3.915359 | 2.0 | 10.422 | 2 | 38.194 | 10.640 | 34.488 | 2 |
| 2025-05-16T10:40:00 | 56.226907 | 3.912519 | 2.0 | 10.431 | 2 | 38.535 | 10.600 | 34.870 | 2 |
| 2025-05-16T10:41:00 | 56.228623 | 3.909635 | 2.0 | 10.445 | 2 | 38.542 | 10.605 | 34.872 | 2 |
| 2025-05-16T10:44:00 | 56.233303 | 3.901978 | 2.0 | 10.441 | 2 | 38.537 | 10.609 | 34.863 | 2 |
| 2025-05-16T10:45:00 | 56.234918 | 3.899236 | 2.0 | 10.439 | 2 | 38.461 | 10.616 | 34.780 | 2 |
| 2025-05-16T10:46:00 | 56.236540 | 3.896548 | 2.0 | 10.440 | 2 | 38.364 | 10.613 | 34.685 | 2 |
| 2025-05-16T10:48:00 | 56.239553 | 3.891465 | 2.0 | 10.440 | 2 | 38.414 | 10.609 | 34.739 | 2 |
| 2025-05-16T10:49:00 | 56.241158 | 3.888742 | 2.0 | 10.430 | 2 | 38.554 | 10.609 | 34.880 | 2 |
| 2025-05-16T10:50:00 | 56.242728 | 3.886078 | 2.0 | 10.425 | 2 | 38.541 | 10.598 | 34.878 | 2 |
| 2025-05-16T10:51:00 | 56.244340 | 3.883474 | 2.0 | 10.418 | 2 | 38.531 | 10.592 | 34.873 | 2 |
| 2025-05-16T10:52:00 | 56.245901 | 3.880823 | 2.0 | 10.426 | 2 | 38.544 | 10.589 | 34.889 | 2 |
| 2025-05-16T10:53:00 | 56.247555 | 3.878144 | 2.0 | 10.420 | 2 | 38.553 | 10.594 | 34.894 | 2 |
| 2025-05-16T10:54:00 | 56.249287 | 3.875375 | 2.0 | 10.426 | 2 | 38.545 | 10.593 | 34.886 | 2 |
| 2025-05-16T10:55:00 | 56.250935 | 3.872652 | 2.0 | 10.431 | 2 | 38.249 | 10.606 | 34.576 | 2 |
| 2025-05-16T10:57:00 | 56.254150 | 3.867573 | 2.0 | 10.442 | 2 | 38.561 | 10.610 | 34.886 | 2 |
| 2025-05-16T10:58:00 | 56.255758 | 3.864993 | 2.0 | 10.450 | 2 | 38.573 | 10.616 | 34.893 | 2 |
| 2025-05-16T10:59:00 | 56.257414 | 3.862270 | 2.0 | 10.445 | 2 | 38.583 | 10.617 | 34.902 | 2 |
| 2025-05-16T11:00:00 | 56.259092 | 3.859548 | 2.0 | 10.446 | 2 | 38.582 | 10.615 | 34.903 | 2 |
| 2025-05-16T11:01:00 | 56.261086 | 3.857868 | 2.0 | 10.440 | 2 | 38.584 | 10.614 | 34.906 | 2 |
| 2025-05-16T11:02:00 | 56.263059 | 3.857188 | 2.0 | 10.428 | 2 | 38.547 | 10.611 | 34.871 | 2 |
| 2025-05-16T11:03:00 | 56.264807 | 3.856491 | 2.0 | 10.433 | 2 | 38.380 | 10.750 | 34.571 | 2 |
| 2025-05-16T11:04:00 | 56.266616 | 3.855958 | 2.0 | 10.429 | 2 | 38.424 | 10.614 | 34.744 | 2 |
| 2025-05-16T11:05:00 | 56.268502 | 3.855303 | 2.0 | 10.425 | 2 | 38.297 | 10.608 | 34.622 | 2 |
| 2025-05-16T11:07:00 | 56.272176 | 3.854138 | 2.0 | 10.409 | 2 | 38.277 | 10.586 | 34.623 | 2 |
| 2025-05-16T11:08:00 | 56.273898 | 3.853498 | 2.0 | 10.412 | 2 | 38.552 | 10.581 | 34.905 | 2 |
| 2025-05-16T11:10:00 | 56.277147 | 3.852305 | 2.0 | 10.388 | 2 | 38.520 | 10.566 | 34.887 | 2 |
| 2025-05-16T11:11:00 | 56.279010 | 3.851733 | 2.0 | 10.397 | 2 | 38.525 | 10.560 | 34.898 | 2 |
| 2025-05-16T11:12:00 | 56.281022 | 3.851038 | 2.0 | 10.388 | 2 | 38.530 | 10.562 | 34.901 | 2 |
| 2025-05-16T11:13:00 | 56.282978 | 3.850362 | 2.0 | 10.376 | 2 | 38.365 | 10.566 | 34.731 | 2 |
| 2025-05-16T11:14:00 | 56.284803 | 3.849619 | 2.0 | 10.384 | 2 | 38.321 | 10.551 | 34.700 | 2 |
| 2025-05-16T11:15:00 | 56.286414 | 3.849093 | 2.0 | 10.377 | 2 | 38.519 | 10.556 | 34.896 | 2 |
| 2025-05-16T11:16:00 | 56.288138 | 3.848508 | 2.0 | 10.383 | 2 | 38.470 | 10.553 | 34.849 | 2 |
| 2025-05-16T11:17:00 | 56.289906 | 3.847970 | 2.0 | 10.385 | 2 | 38.434 | 10.560 | 34.806 | 2 |
| 2025-05-16T11:19:00 | 56.293179 | 3.846668 | 2.0 | 10.375 | 2 | 38.309 | 10.552 | 34.687 | 2 |
| 2025-05-16T11:22:00 | 56.298579 | 3.844860 | 2.0 | 10.375 | 2 | 38.454 | 10.564 | 34.822 | 2 |
| 2025-05-16T11:25:00 | 56.303204 | 3.843157 | 2.0 | 10.370 | 2 | 38.500 | 10.537 | 34.895 | 2 |
| 2025-05-16T11:26:00 | 56.304368 | 3.842697 | 2.0 | 10.368 | 2 | 38.527 | 10.539 | 34.920 | 2 |
| 2025-05-16T11:27:00 | 56.305518 | 3.842288 | 2.0 | 10.367 | 2 | 38.526 | 10.535 | 34.923 | 2 |
| 2025-05-16T11:28:00 | 56.306643 | 3.841848 | 2.0 | 10.357 | 2 | 38.515 | 10.535 | 34.912 | 2 |
| 2025-05-16T11:29:00 | 56.307847 | 3.841383 | 2.0 | 10.356 | 2 | 38.518 | 10.528 | 34.921 | 2 |
| 2025-05-16T11:30:00 | 56.309172 | 3.840937 | 2.0 | 10.362 | 2 | 38.512 | 10.528 | 34.915 | 2 |
| 2025-05-16T11:31:00 | 56.310250 | 3.840575 | 2.0 | 10.360 | 2 | 38.506 | 10.526 | 34.911 | 2 |
| 2025-05-16T11:32:00 | 56.311242 | 3.840208 | 2.0 | 10.354 | 2 | 38.513 | 10.526 | 34.918 | 2 |
| 2025-05-16T11:33:00 | 56.312319 | 3.839822 | 2.0 | 10.349 | 2 | 38.511 | 10.521 | 34.921 | 2 |
| 2025-05-16T11:34:00 | 56.313361 | 3.839407 | 2.0 | 10.343 | 2 | 38.502 | 10.519 | 34.914 | 2 |
| 2025-05-16T11:35:00 | 56.314532 | 3.838969 | 2.0 | 10.338 | 2 | 38.497 | 10.508 | 34.919 | 2 |
| 2025-05-16T11:36:00 | 56.315722 | 3.838610 | 2.0 | 10.340 | 2 | 38.505 | 10.508 | 34.928 | 2 |
| 2025-05-16T11:37:00 | 56.316937 | 3.838232 | 2.0 | 10.332 | 2 | 38.505 | 10.504 | 34.931 | 2 |
| 2025-05-16T11:38:00 | 56.318188 | 3.837803 | 2.0 | 10.334 | 2 | 38.504 | 10.502 | 34.932 | 2 |
| 2025-05-16T11:39:00 | 56.319292 | 3.837440 | 2.0 | 10.337 | 2 | 38.504 | 10.504 | 34.930 | 2 |
| 2025-05-16T11:40:00 | 56.320181 | 3.837080 | 2.0 | 10.334 | 2 | 38.506 | 10.504 | 34.932 | 2 |
| 2025-05-16T11:41:00 | 56.320954 | 3.836749 | 2.0 | 10.324 | 2 | 38.343 | 10.502 | 34.769 | 2 |
| 2025-05-16T11:43:00 | 56.322358 | 3.836078 | 2.0 | 10.331 | 2 | 38.490 | 10.503 | 34.917 | 2 |
| 2025-05-16T11:44:00 | 56.323232 | 3.835715 | 2.0 | 10.332 | 2 | 38.498 | 10.498 | 34.930 | 2 |
| 2025-05-16T11:45:00 | 56.324058 | 3.835327 | 2.0 | 10.338 | 2 | 38.503 | 10.500 | 34.933 | 2 |
| 2025-05-16T11:46:00 | 56.324893 | 3.834994 | 2.0 | 10.334 | 2 | 38.506 | 10.504 | 34.932 | 2 |
| 2025-05-16T11:47:00 | 56.325724 | 3.834609 | 2.0 | 10.337 | 2 | 38.506 | 10.502 | 34.934 | 2 |
| 2025-05-16T11:48:00 | 56.326605 | 3.834362 | 2.0 | 10.337 | 2 | 38.509 | 10.506 | 34.934 | 2 |
| 2025-05-16T11:49:00 | 56.327434 | 3.834149 | 2.0 | 10.335 | 2 | 38.507 | 10.504 | 34.933 | 2 |
| 2025-05-16T11:50:00 | 56.328225 | 3.833979 | 2.0 | 10.331 | 2 | 38.509 | 10.505 | 34.934 | 2 |
| 2025-05-16T11:51:00 | 56.329048 | 3.833808 | 2.0 | 10.338 | 2 | 38.504 | 10.502 | 34.932 | 2 |
| 2025-05-16T11:52:00 | 56.329674 | 3.833624 | 2.0 | 10.345 | 2 | 38.509 | 10.507 | 34.933 | 2 |
| 2025-05-16T11:53:00 | 56.330382 | 3.833564 | 2.0 | 10.335 | 2 | 38.515 | 10.512 | 34.934 | 2 |
| 2025-05-16T11:54:00 | 56.331018 | 3.833451 | 2.0 | 10.336 | 2 | 38.509 | 10.504 | 34.935 | 2 |
| 2025-05-16T11:55:00 | 56.331548 | 3.833353 | 2.0 | 10.330 | 2 | 38.505 | 10.500 | 34.935 | 2 |
| 2025-05-16T11:56:00 | 56.331884 | 3.833236 | 2.0 | 10.345 | 2 | 38.505 | 10.502 | 34.933 | 2 |
| 2025-05-16T11:57:00 | 56.332007 | 3.833067 | 2.0 | 10.345 | 2 | 38.514 | 10.511 | 34.934 | 2 |
| 2025-05-16T11:58:00 | 56.332151 | 3.833010 | 2.0 | 10.338 | 2 | 38.516 | 10.512 | 34.935 | 2 |
| 2025-05-16T11:59:00 | 56.332317 | 3.833153 | 2.0 | 10.339 | 2 | 38.508 | 10.502 | 34.936 | 2 |
| 2025-05-16T12:00:00 | 56.332480 | 3.833270 | 2.0 | 10.336 | 2 | 38.510 | 10.506 | 34.935 | 2 |
| 2025-05-16T12:01:00 | 56.332682 | 3.833370 | 2.0 | 10.327 | 2 | 38.507 | 10.501 | 34.936 | 2 |
| 2025-05-16T12:02:00 | 56.332766 | 3.833360 | 2.0 | 10.332 | 2 | 38.499 | 10.493 | 34.936 | 2 |
| 2025-05-16T12:03:00 | 56.332821 | 3.833346 | 2.0 | 10.342 | 2 | 38.505 | 10.502 | 34.933 | 2 |
| 2025-05-16T12:04:00 | 56.332893 | 3.833332 | 2.0 | 10.347 | 2 | 38.512 | 10.509 | 34.934 | 2 |
| 2025-05-16T12:05:00 | 56.332876 | 3.833310 | 2.0 | 10.348 | 2 | 38.519 | 10.516 | 34.934 | 2 |
| 2025-05-16T12:06:00 | 56.332858 | 3.833260 | 2.0 | 10.347 | 2 | 38.520 | 10.515 | 34.936 | 2 |
| 2025-05-16T12:07:00 | 56.332877 | 3.833251 | 2.0 | 10.350 | 2 | 38.519 | 10.515 | 34.935 | 2 |
| 2025-05-16T12:08:00 | 56.332930 | 3.833228 | 2.0 | 10.333 | 2 | 38.520 | 10.516 | 34.935 | 2 |
| 2025-05-16T12:09:00 | 56.332994 | 3.833203 | 2.0 | 10.336 | 2 | 38.503 | 10.499 | 34.934 | 2 |
| 2025-05-16T12:10:00 | 56.333055 | 3.833206 | 2.0 | 10.339 | 2 | 38.509 | 10.506 | 34.934 | 2 |
| 2025-05-16T12:11:00 | 56.333049 | 3.833246 | 2.0 | 10.339 | 2 | 38.511 | 10.507 | 34.935 | 2 |
| 2025-05-16T12:12:00 | 56.333034 | 3.833319 | 2.0 | 10.336 | 2 | 38.509 | 10.505 | 34.934 | 2 |
| 2025-05-16T12:13:00 | 56.333035 | 3.833399 | 2.0 | 10.340 | 2 | 38.508 | 10.505 | 34.933 | 2 |
| 2025-05-16T12:14:00 | 56.333025 | 3.833497 | 2.0 | 10.345 | 2 | 38.512 | 10.508 | 34.935 | 2 |
| 2025-05-16T12:15:00 | 56.332996 | 3.833598 | 2.0 | 10.347 | 2 | 38.512 | 10.513 | 34.930 | 2 |
| 2025-05-16T12:16:00 | 56.333022 | 3.833601 | 2.0 | 10.343 | 2 | 38.515 | 10.513 | 34.933 | 2 |
| 2025-05-16T12:17:00 | 56.333116 | 3.833559 | 2.0 | 10.338 | 2 | 38.513 | 10.509 | 34.935 | 2 |
| 2025-05-16T12:18:00 | 56.333142 | 3.833534 | 2.0 | 10.333 | 2 | 38.507 | 10.504 | 34.933 | 2 |
| 2025-05-16T12:19:00 | 56.333139 | 3.833478 | 2.0 | 10.336 | 2 | 38.502 | 10.502 | 34.930 | 2 |
| 2025-05-16T12:20:00 | 56.333069 | 3.833363 | 2.0 | 10.339 | 2 | 38.504 | 10.503 | 34.931 | 2 |
| 2025-05-16T12:21:00 | 56.333058 | 3.833165 | 2.0 | 10.339 | 2 | 38.509 | 10.507 | 34.933 | 2 |
| 2025-05-16T12:22:00 | 56.333072 | 3.833141 | 2.0 | 10.345 | 2 | 38.510 | 10.507 | 34.934 | 2 |
| 2025-05-16T12:23:00 | 56.333109 | 3.833136 | 2.0 | 10.354 | 2 | 38.517 | 10.515 | 34.933 | 2 |
| 2025-05-16T12:24:00 | 56.333157 | 3.833058 | 2.0 | 10.363 | 2 | 38.525 | 10.523 | 34.933 | 2 |
| 2025-05-16T12:25:00 | 56.333164 | 3.832998 | 2.0 | 10.360 | 2 | 38.532 | 10.529 | 34.935 | 2 |
| 2025-05-16T12:26:00 | 56.333112 | 3.832983 | 2.0 | 10.360 | 2 | 38.524 | 10.527 | 34.929 | 2 |
| 2025-05-16T12:27:00 | 56.333210 | 3.832984 | 2.0 | 10.355 | 2 | 38.528 | 10.527 | 34.933 | 2 |
| 2025-05-16T12:28:00 | 56.333241 | 3.833025 | 2.0 | 10.348 | 2 | 38.522 | 10.519 | 34.934 | 2 |
| 2025-05-16T12:29:00 | 56.333263 | 3.833041 | 2.0 | 10.351 | 2 | 38.517 | 10.516 | 34.932 | 2 |
| 2025-05-16T12:30:00 | 56.333252 | 3.832948 | 2.0 | 10.354 | 2 | 38.519 | 10.518 | 34.932 | 2 |
| 2025-05-16T12:31:00 | 56.333260 | 3.832776 | 2.0 | 10.356 | 2 | 38.523 | 10.520 | 34.934 | 2 |
| 2025-05-16T12:32:00 | 56.333316 | 3.832683 | 2.0 | 10.375 | 2 | 38.527 | 10.524 | 34.934 | 2 |
| 2025-05-16T12:33:00 | 56.333362 | 3.832604 | 2.0 | 10.377 | 2 | 38.541 | 10.541 | 34.932 | 2 |
| 2025-05-16T12:34:00 | 56.333373 | 3.832571 | 2.0 | 10.375 | 2 | 38.545 | 10.543 | 34.934 | 2 |
| 2025-05-16T12:35:00 | 56.333358 | 3.832572 | 2.0 | 10.372 | 2 | 38.543 | 10.541 | 34.934 | 2 |
| 2025-05-16T12:36:00 | 56.333298 | 3.832613 | 2.0 | 10.375 | 2 | 38.542 | 10.539 | 34.935 | 2 |
| 2025-05-16T12:37:00 | 56.333237 | 3.832604 | 2.0 | 10.373 | 2 | 38.543 | 10.541 | 34.934 | 2 |
| 2025-05-16T12:38:00 | 56.333211 | 3.832514 | 2.0 | 10.379 | 2 | 38.543 | 10.542 | 34.933 | 2 |
| 2025-05-16T12:39:00 | 56.333248 | 3.832338 | 2.0 | 10.386 | 2 | 38.548 | 10.547 | 34.934 | 2 |
| 2025-05-16T12:40:00 | 56.333302 | 3.832195 | 2.0 | 10.386 | 2 | 38.553 | 10.551 | 34.935 | 2 |
| 2025-05-16T12:41:00 | 56.333334 | 3.832057 | 2.0 | 10.386 | 2 | 38.553 | 10.552 | 34.934 | 2 |
| 2025-05-16T12:42:00 | 56.333252 | 3.831933 | 2.0 | 10.386 | 2 | 38.555 | 10.553 | 34.935 | 2 |
| 2025-05-16T12:43:00 | 56.333161 | 3.831783 | 2.0 | 10.385 | 2 | 38.553 | 10.551 | 34.935 | 2 |
| 2025-05-16T12:44:00 | 56.333122 | 3.831705 | 2.0 | 10.387 | 2 | 38.554 | 10.552 | 34.935 | 2 |
| 2025-05-16T12:45:00 | 56.333113 | 3.831866 | 2.0 | 10.393 | 2 | 38.556 | 10.555 | 34.934 | 2 |
| 2025-05-16T12:46:00 | 56.333203 | 3.832024 | 2.0 | 10.396 | 2 | 38.561 | 10.560 | 34.934 | 2 |
| 2025-05-16T12:47:00 | 56.333206 | 3.831971 | 2.0 | 10.384 | 2 | 38.562 | 10.560 | 34.935 | 2 |
| 2025-05-16T12:48:00 | 56.333168 | 3.831851 | 2.0 | 10.386 | 2 | 38.553 | 10.550 | 34.936 | 2 |
| 2025-05-16T12:49:00 | 56.333147 | 3.831803 | 2.0 | 10.385 | 2 | 38.553 | 10.551 | 34.935 | 2 |
| 2025-05-16T12:50:00 | 56.333240 | 3.831817 | 2.0 | 10.378 | 2 | 38.553 | 10.550 | 34.936 | 2 |
| 2025-05-16T12:51:00 | 56.333329 | 3.831782 | 2.0 | 10.376 | 2 | 38.545 | 10.543 | 34.934 | 2 |
| 2025-05-16T12:52:00 | 56.333382 | 3.831740 | 2.0 | 10.393 | 2 | 38.541 | 10.547 | 34.927 | 2 |
| 2025-05-16T12:53:00 | 56.333340 | 3.831734 | 2.0 | 10.383 | 2 | 38.553 | 10.558 | 34.928 | 2 |
| 2025-05-16T12:54:00 | 56.333346 | 3.831662 | 2.0 | 10.381 | 2 | 38.549 | 10.551 | 34.931 | 2 |
| 2025-05-16T12:55:00 | 56.333662 | 3.831597 | 2.0 | 10.397 | 2 | 38.550 | 10.550 | 34.933 | 2 |
| 2025-05-16T12:56:00 | 56.334471 | 3.831729 | 2.0 | 10.413 | 2 | 38.561 | 10.563 | 34.931 | 2 |
| 2025-05-16T12:57:00 | 56.335498 | 3.831917 | 2.0 | 10.404 | 2 | 38.573 | 10.577 | 34.930 | 2 |
| 2025-05-16T12:58:00 | 56.336601 | 3.832067 | 2.0 | 10.398 | 2 | 38.567 | 10.569 | 34.932 | 2 |
| 2025-05-16T12:59:00 | 56.337827 | 3.832213 | 2.0 | 10.411 | 2 | 38.566 | 10.568 | 34.932 | 2 |
| 2025-05-16T13:00:00 | 56.339081 | 3.832213 | 2.0 | 10.412 | 2 | 38.569 | 10.577 | 34.926 | 2 |
| 2025-05-16T13:01:00 | 56.340784 | 3.832302 | 2.0 | 10.418 | 2 | 38.576 | 10.580 | 34.930 | 2 |
| 2025-05-16T13:02:00 | 56.342776 | 3.832330 | 2.0 | 10.424 | 2 | 38.586 | 10.590 | 34.931 | 2 |
| 2025-05-16T13:03:00 | 56.344795 | 3.832311 | 2.0 | 10.444 | 2 | 38.586 | 10.596 | 34.925 | 2 |
| 2025-05-16T13:04:00 | 56.346948 | 3.832298 | 2.0 | 10.432 | 2 | 38.588 | 10.604 | 34.919 | 2 |
| 2025-05-16T13:05:00 | 56.349201 | 3.832311 | 2.0 | 10.438 | 2 | 38.544 | 10.604 | 34.875 | 2 |
| 2025-05-16T13:06:00 | 56.351362 | 3.832264 | 2.0 | 10.422 | 2 | 38.599 | 10.602 | 34.932 | 2 |
| 2025-05-16T13:07:00 | 56.353467 | 3.832282 | 2.0 | 10.426 | 2 | 38.597 | 10.596 | 34.936 | 2 |
| 2025-05-16T13:08:00 | 56.355612 | 3.832303 | 2.0 | 10.435 | 2 | 38.598 | 10.594 | 34.939 | 2 |
| 2025-05-16T13:09:00 | 56.357920 | 3.832284 | 2.0 | 10.427 | 2 | 38.592 | 10.600 | 34.927 | 2 |
| 2025-05-16T13:10:00 | 56.360091 | 3.832288 | 2.0 | 10.427 | 2 | 38.578 | 10.595 | 34.918 | 2 |
| 2025-05-16T13:11:00 | 56.362187 | 3.832200 | 2.0 | 10.422 | 2 | 38.585 | 10.594 | 34.926 | 2 |
| 2025-05-16T13:12:00 | 56.364346 | 3.832202 | 2.0 | 10.421 | 2 | 38.592 | 10.595 | 34.932 | 2 |
| 2025-05-16T13:13:00 | 56.366583 | 3.832244 | 2.0 | 10.412 | 2 | 38.591 | 10.588 | 34.938 | 2 |
| 2025-05-16T13:14:00 | 56.368767 | 3.832266 | 2.0 | 10.414 | 2 | 38.577 | 10.584 | 34.927 | 2 |
| 2025-05-16T13:15:00 | 56.370914 | 3.832238 | 2.0 | 10.407 | 2 | 38.534 | 10.582 | 34.886 | 2 |
| 2025-05-16T13:16:00 | 56.373175 | 3.832263 | 2.0 | 10.398 | 2 | 38.576 | 10.575 | 34.935 | 2 |
| 2025-05-16T13:17:00 | 56.375391 | 3.832247 | 2.0 | 10.398 | 2 | 38.576 | 10.568 | 34.942 | 2 |
| 2025-05-16T13:18:00 | 56.377619 | 3.832208 | 2.0 | 10.390 | 2 | 38.408 | 10.568 | 34.772 | 2 |
| 2025-05-16T13:19:00 | 56.379721 | 3.832202 | 2.0 | 10.389 | 2 | 38.525 | 10.563 | 34.895 | 2 |
| 2025-05-16T13:20:00 | 56.381866 | 3.832196 | 2.0 | 10.385 | 2 | 38.568 | 10.555 | 34.946 | 2 |
| 2025-05-16T13:21:00 | 56.384169 | 3.832204 | 2.0 | 10.389 | 2 | 38.568 | 10.558 | 34.943 | 2 |
| 2025-05-16T13:22:00 | 56.386480 | 3.832199 | 2.0 | 10.393 | 2 | 38.272 | 10.562 | 34.641 | 2 |
| 2025-05-16T13:25:00 | 56.392925 | 3.832160 | 2.0 | 10.385 | 2 | 38.569 | 10.560 | 34.942 | 2 |
| 2025-05-16T13:27:00 | 56.397483 | 3.832198 | 2.0 | 10.399 | 2 | 38.569 | 10.563 | 34.939 | 2 |
| 2025-05-16T13:28:00 | 56.399758 | 3.832193 | 2.0 | 10.401 | 2 | 38.576 | 10.566 | 34.944 | 2 |
| 2025-05-16T13:29:00 | 56.402011 | 3.832208 | 2.0 | 10.399 | 2 | 38.570 | 10.571 | 34.933 | 2 |
| 2025-05-16T13:30:00 | 56.404084 | 3.832219 | 2.0 | 10.398 | 2 | 38.569 | 10.572 | 34.931 | 2 |
| 2025-05-16T13:32:00 | 56.408493 | 3.832115 | 2.0 | 10.399 | 2 | 38.103 | 10.597 | 34.437 | 2 |
| 2025-05-16T13:33:00 | 56.410736 | 3.832113 | 2.0 | 10.390 | 2 | 38.570 | 10.572 | 34.932 | 2 |
| 2025-05-16T13:35:00 | 56.415033 | 3.832129 | 2.0 | 10.378 | 2 | 38.252 | 10.554 | 34.628 | 2 |
| 2025-05-16T13:36:00 | 56.417310 | 3.832117 | 2.0 | 10.375 | 2 | 38.477 | 10.545 | 34.864 | 2 |
| 2025-05-16T13:37:00 | 56.419521 | 3.832091 | 2.0 | 10.386 | 2 | 38.552 | 10.547 | 34.938 | 2 |
| 2025-05-16T13:38:00 | 56.421669 | 3.832073 | 2.0 | 10.374 | 2 | 38.563 | 10.554 | 34.942 | 2 |
| 2025-05-16T13:39:00 | 56.423954 | 3.832101 | 2.0 | 10.371 | 2 | 38.558 | 10.542 | 34.948 | 2 |
| 2025-05-16T13:40:00 | 56.426357 | 3.832074 | 2.0 | 10.365 | 2 | 38.556 | 10.539 | 34.949 | 2 |
| 2025-05-16T13:42:00 | 56.431118 | 3.832051 | 2.0 | 10.354 | 2 | 38.284 | 10.532 | 34.681 | 2 |
| 2025-05-16T13:44:00 | 56.435838 | 3.832151 | 2.0 | 10.328 | 2 | 38.534 | 10.512 | 34.953 | 2 |
| 2025-05-16T13:45:00 | 56.438256 | 3.832054 | 2.0 | 10.321 | 2 | 38.523 | 10.499 | 34.954 | 2 |
| 2025-05-16T13:46:00 | 56.440677 | 3.832092 | 2.0 | 10.328 | 2 | 38.519 | 10.493 | 34.956 | 2 |
| 2025-05-16T13:47:00 | 56.443196 | 3.832050 | 2.0 | 10.340 | 2 | 38.526 | 10.502 | 34.955 | 2 |
| 2025-05-16T13:48:00 | 56.445668 | 3.832062 | 2.0 | 10.352 | 2 | 38.532 | 10.513 | 34.950 | 2 |
| 2025-05-16T13:49:00 | 56.448050 | 3.832079 | 2.0 | 10.367 | 2 | 38.534 | 10.526 | 34.940 | 2 |
| 2025-05-16T13:52:00 | 56.455352 | 3.832074 | 2.0 | 10.403 | 2 | 38.078 | 10.572 | 34.435 | 2 |
| 2025-05-16T13:53:00 | 56.457813 | 3.832050 | 2.0 | 10.410 | 2 | 38.308 | 10.574 | 34.665 | 2 |
| 2025-05-16T13:54:00 | 56.460244 | 3.832028 | 2.0 | 10.428 | 2 | 38.606 | 10.585 | 34.956 | 2 |
| 2025-05-16T13:58:00 | 56.470095 | 3.832029 | 2.0 | 10.486 | 2 | 38.348 | 10.638 | 34.645 | 2 |
| 2025-05-16T13:59:00 | 56.472549 | 3.832057 | 2.0 | 10.487 | 2 | 38.145 | 10.663 | 34.417 | 2 |
| 2025-05-16T14:00:00 | 56.474982 | 3.832071 | 2.0 | 10.505 | 2 | 38.281 | 10.661 | 34.556 | 2 |
| 2025-05-16T14:01:00 | 56.477614 | 3.832253 | 2.0 | 10.504 | 2 | 38.691 | 10.676 | 34.954 | 2 |
| 2025-05-16T14:02:00 | 56.480183 | 3.832471 | 2.0 | 10.507 | 2 | 38.696 | 10.670 | 34.965 | 2 |
| 2025-05-16T14:03:00 | 56.482777 | 3.832606 | 2.0 | 10.519 | 2 | 38.707 | 10.676 | 34.970 | 2 |
| 2025-05-16T14:04:00 | 56.485324 | 3.832746 | 2.0 | 10.530 | 2 | 38.723 | 10.690 | 34.973 | 2 |
| 2025-05-16T14:05:00 | 56.487735 | 3.832922 | 2.0 | 10.534 | 2 | 38.732 | 10.701 | 34.972 | 2 |
| 2025-05-16T14:06:00 | 56.490278 | 3.833060 | 2.0 | 10.541 | 2 | 38.683 | 10.705 | 34.918 | 2 |
| 2025-05-16T14:07:00 | 56.492728 | 3.833100 | 2.0 | 10.530 | 2 | 38.714 | 10.707 | 34.948 | 2 |
| 2025-05-16T14:10:00 | 56.499542 | 3.833128 | 2.0 | 10.525 | 2 | 38.718 | 10.693 | 34.965 | 2 |
| 2025-05-16T14:11:00 | 56.501119 | 3.833154 | 2.0 | 10.538 | 2 | 38.723 | 10.691 | 34.972 | 2 |
| 2025-05-16T14:12:00 | 56.501914 | 3.833076 | 2.0 | 10.535 | 2 | 38.736 | 10.702 | 34.975 | 2 |
| 2025-05-16T14:13:00 | 56.502136 | 3.832878 | 2.0 | 10.536 | 2 | 38.742 | 10.706 | 34.977 | 2 |
| 2025-05-16T14:14:00 | 56.502089 | 3.832476 | 2.0 | 10.537 | 2 | 38.724 | 10.698 | 34.966 | 2 |
| 2025-05-16T14:15:00 | 56.502058 | 3.832170 | 2.0 | 10.544 | 2 | 38.742 | 10.704 | 34.979 | 2 |
| 2025-05-16T14:16:00 | 56.502040 | 3.831999 | 2.0 | 10.542 | 2 | 38.749 | 10.710 | 34.980 | 2 |
| 2025-05-16T14:17:00 | 56.502070 | 3.831854 | 2.0 | 10.536 | 2 | 38.748 | 10.706 | 34.983 | 2 |
| 2025-05-16T14:18:00 | 56.502107 | 3.831793 | 2.0 | 10.541 | 2 | 38.742 | 10.700 | 34.983 | 2 |
| 2025-05-16T14:19:00 | 56.502130 | 3.831823 | 2.0 | 10.553 | 2 | 38.750 | 10.711 | 34.980 | 2 |
| 2025-05-16T14:20:00 | 56.502122 | 3.831898 | 2.0 | 10.558 | 2 | 38.761 | 10.719 | 34.983 | 2 |
| 2025-05-16T14:21:00 | 56.502119 | 3.831949 | 2.0 | 10.557 | 2 | 38.765 | 10.722 | 34.985 | 2 |
| 2025-05-16T14:22:00 | 56.502070 | 3.831947 | 2.0 | 10.549 | 2 | 38.766 | 10.720 | 34.988 | 2 |
| 2025-05-16T14:23:00 | 56.502016 | 3.831907 | 2.0 | 10.548 | 2 | 38.759 | 10.714 | 34.986 | 2 |
| 2025-05-16T14:24:00 | 56.501972 | 3.831820 | 2.0 | 10.545 | 2 | 38.756 | 10.710 | 34.987 | 2 |
| 2025-05-16T14:25:00 | 56.501996 | 3.831693 | 2.0 | 10.550 | 2 | 38.758 | 10.713 | 34.986 | 2 |
| 2025-05-16T14:26:00 | 56.502058 | 3.831546 | 2.0 | 10.542 | 2 | 38.759 | 10.713 | 34.987 | 2 |
| 2025-05-16T14:27:00 | 56.502096 | 3.831454 | 2.0 | 10.557 | 2 | 38.756 | 10.714 | 34.983 | 2 |
| 2025-05-16T14:28:00 | 56.502111 | 3.831388 | 2.0 | 10.555 | 2 | 38.767 | 10.721 | 34.988 | 2 |
| 2025-05-16T14:29:00 | 56.502108 | 3.831399 | 2.0 | 10.554 | 2 | 38.766 | 10.720 | 34.988 | 2 |
| 2025-05-16T14:30:00 | 56.502089 | 3.831435 | 2.0 | 10.554 | 2 | 38.766 | 10.720 | 34.988 | 2 |
| 2025-05-16T14:31:00 | 56.502111 | 3.831450 | 2.0 | 10.558 | 2 | 38.767 | 10.720 | 34.989 | 2 |
| 2025-05-16T14:32:00 | 56.502132 | 3.831429 | 2.0 | 10.555 | 2 | 38.770 | 10.724 | 34.988 | 2 |
| 2025-05-16T14:33:00 | 56.502111 | 3.831347 | 2.0 | 10.553 | 2 | 38.768 | 10.721 | 34.989 | 2 |
| 2025-05-16T14:34:00 | 56.502074 | 3.831305 | 2.0 | 10.550 | 2 | 38.766 | 10.718 | 34.989 | 2 |
| 2025-05-16T14:35:00 | 56.502089 | 3.831242 | 2.0 | 10.548 | 2 | 38.763 | 10.716 | 34.988 | 2 |
| 2025-05-16T14:36:00 | 56.502142 | 3.831206 | 2.0 | 10.550 | 2 | 38.761 | 10.715 | 34.987 | 2 |
| 2025-05-16T14:37:00 | 56.502098 | 3.831249 | 2.0 | 10.549 | 2 | 38.763 | 10.717 | 34.987 | 2 |
| 2025-05-16T14:38:00 | 56.502098 | 3.831279 | 2.0 | 10.548 | 2 | 38.762 | 10.716 | 34.987 | 2 |
| 2025-05-16T14:39:00 | 56.502072 | 3.831293 | 2.0 | 10.556 | 2 | 38.762 | 10.715 | 34.988 | 2 |
| 2025-05-16T14:40:00 | 56.502064 | 3.831237 | 2.0 | 10.551 | 2 | 38.769 | 10.723 | 34.988 | 2 |
| 2025-05-16T14:41:00 | 56.502069 | 3.831122 | 2.0 | 10.556 | 2 | 38.762 | 10.715 | 34.988 | 2 |
| 2025-05-16T14:42:00 | 56.502098 | 3.831094 | 2.0 | 10.568 | 2 | 38.771 | 10.726 | 34.987 | 2 |
| 2025-05-16T14:43:00 | 56.502128 | 3.831158 | 2.0 | 10.563 | 2 | 38.777 | 10.731 | 34.988 | 2 |
| 2025-05-16T14:44:00 | 56.502248 | 3.831193 | 2.0 | 10.558 | 2 | 38.775 | 10.729 | 34.988 | 2 |
| 2025-05-16T14:45:00 | 56.502501 | 3.831247 | 2.0 | 10.563 | 2 | 38.771 | 10.724 | 34.989 | 2 |
| 2025-05-16T14:46:00 | 56.503436 | 3.831359 | 2.0 | 10.566 | 2 | 38.776 | 10.731 | 34.987 | 2 |
| 2025-05-16T14:47:00 | 56.505055 | 3.831572 | 2.0 | 10.561 | 2 | 38.773 | 10.731 | 34.984 | 2 |
| 2025-05-16T14:48:00 | 56.507337 | 3.831736 | 2.0 | 10.572 | 2 | 38.773 | 10.733 | 34.982 | 2 |
| 2025-05-16T14:49:00 | 56.509775 | 3.831805 | 2.0 | 10.573 | 2 | 38.777 | 10.745 | 34.975 | 2 |
| 2025-05-16T14:50:00 | 56.512210 | 3.831812 | 2.0 | 10.575 | 2 | 38.787 | 10.743 | 34.987 | 2 |
| 2025-05-16T14:51:00 | 56.514807 | 3.831929 | 2.0 | 10.562 | 2 | 38.789 | 10.743 | 34.989 | 2 |
| 2025-05-16T14:52:00 | 56.517299 | 3.832005 | 2.0 | 10.556 | 2 | 38.781 | 10.732 | 34.991 | 2 |
| 2025-05-16T14:53:00 | 56.519814 | 3.832025 | 2.0 | 10.534 | 2 | 38.333 | 10.725 | 34.547 | 2 |
| 2025-05-16T14:54:00 | 56.522297 | 3.832152 | 2.0 | 10.516 | 2 | 38.299 | 10.726 | 34.512 | 2 |
| 2025-05-16T14:55:00 | 56.524756 | 3.832186 | 2.0 | 10.504 | 2 | 38.700 | 10.692 | 34.948 | 2 |
| 2025-05-16T14:56:00 | 56.526974 | 3.832265 | 2.0 | 10.490 | 2 | 38.708 | 10.677 | 34.970 | 2 |
| 2025-05-16T14:57:00 | 56.529165 | 3.832328 | 2.0 | 10.483 | 2 | 38.695 | 10.661 | 34.973 | 2 |
| 2025-05-16T14:58:00 | 56.531551 | 3.832369 | 2.0 | 10.469 | 2 | 38.700 | 10.647 | 34.991 | 2 |
| 2025-05-16T14:59:00 | 56.534093 | 3.832518 | 2.0 | 10.466 | 2 | 38.688 | 10.638 | 34.988 | 2 |
| 2025-05-16T15:00:00 | 56.536446 | 3.832587 | 2.0 | 10.460 | 2 | 38.654 | 10.639 | 34.952 | 2 |
| 2025-05-16T15:05:00 | 56.547659 | 3.832859 | 2.0 | 10.471 | 2 | 38.398 | 10.643 | 34.690 | 2 |
| 2025-05-16T15:08:00 | 56.554727 | 3.833258 | 2.0 | 10.476 | 2 | 38.578 | 10.643 | 34.872 | 2 |
| 2025-05-16T15:09:00 | 56.557143 | 3.833339 | 2.0 | 10.480 | 2 | 38.694 | 10.646 | 34.986 | 2 |
| 2025-05-16T15:12:00 | 56.564222 | 3.833354 | 2.0 | 10.454 | 2 | 38.567 | 10.636 | 34.867 | 2 |
| 2025-05-16T15:13:00 | 56.566776 | 3.833388 | 2.0 | 10.450 | 2 | 38.654 | 10.627 | 34.964 | 2 |
| 2025-05-16T15:14:00 | 56.569274 | 3.833364 | 2.0 | 10.433 | 2 | 38.663 | 10.616 | 34.983 | 2 |
| 2025-05-16T15:15:00 | 56.571778 | 3.833299 | 2.0 | 10.416 | 2 | 38.650 | 10.598 | 34.988 | 2 |
| 2025-05-16T15:16:00 | 56.574312 | 3.833343 | 2.0 | 10.411 | 2 | 38.634 | 10.589 | 34.980 | 2 |
| 2025-05-16T15:17:00 | 56.576799 | 3.833329 | 2.0 | 10.413 | 2 | 38.628 | 10.584 | 34.979 | 2 |
| 2025-05-16T15:18:00 | 56.579107 | 3.833329 | 2.0 | 10.411 | 2 | 38.621 | 10.582 | 34.974 | 2 |
| 2025-05-16T15:19:00 | 56.581575 | 3.833353 | 2.0 | 10.412 | 2 | 38.623 | 10.580 | 34.978 | 2 |
| 2025-05-16T15:20:00 | 56.584100 | 3.833320 | 2.0 | 10.418 | 2 | 38.626 | 10.580 | 34.981 | 2 |
| 2025-05-16T15:21:00 | 56.586638 | 3.833352 | 2.0 | 10.415 | 2 | 38.638 | 10.585 | 34.988 | 2 |
| 2025-05-16T15:22:00 | 56.588993 | 3.833310 | 2.0 | 10.405 | 2 | 38.630 | 10.586 | 34.979 | 2 |
| 2025-05-16T15:23:00 | 56.591264 | 3.833310 | 2.0 | 10.416 | 2 | 38.605 | 10.576 | 34.963 | 2 |
| 2025-05-16T15:24:00 | 56.593705 | 3.833327 | 2.0 | 10.409 | 2 | 38.628 | 10.585 | 34.978 | 2 |
| 2025-05-16T15:26:00 | 56.598672 | 3.833298 | 2.0 | 10.409 | 2 | 38.621 | 10.581 | 34.975 | 2 |
| 2025-05-16T15:27:00 | 56.601209 | 3.833312 | 2.0 | 10.407 | 2 | 38.624 | 10.579 | 34.980 | 2 |
| 2025-05-16T15:28:00 | 56.603754 | 3.833309 | 2.0 | 10.406 | 2 | 38.628 | 10.578 | 34.985 | 2 |
| 2025-05-16T15:30:00 | 56.608568 | 3.833329 | 2.0 | 10.414 | 2 | 38.616 | 10.579 | 34.972 | 2 |
| 2025-05-16T15:31:00 | 56.611065 | 3.833284 | 2.0 | 10.421 | 2 | 38.640 | 10.586 | 34.989 | 2 |
| 2025-05-16T15:32:00 | 56.613467 | 3.833275 | 2.0 | 10.426 | 2 | 38.250 | 10.605 | 34.577 | 2 |
| 2025-05-16T15:34:00 | 56.618417 | 3.833359 | 2.0 | 10.474 | 2 | 38.599 | 10.619 | 34.916 | 2 |
| 2025-05-16T15:35:00 | 56.620913 | 3.833336 | 2.0 | 10.483 | 2 | 38.702 | 10.643 | 34.997 | 2 |
| 2025-05-16T15:36:00 | 56.623357 | 3.833315 | 2.0 | 10.478 | 2 | 38.726 | 10.647 | 35.017 | 2 |
| 2025-05-16T15:37:00 | 56.625825 | 3.833307 | 2.0 | 10.465 | 2 | 38.725 | 10.645 | 35.018 | 2 |
| 2025-05-16T15:38:00 | 56.628279 | 3.833339 | 2.0 | 10.441 | 2 | 38.711 | 10.629 | 35.019 | 2 |
| 2025-05-16T15:39:00 | 56.630771 | 3.833318 | 2.0 | 10.429 | 2 | 38.579 | 10.612 | 34.903 | 2 |
| 2025-05-16T15:41:00 | 56.635480 | 3.833230 | 2.0 | 10.386 | 2 | 38.647 | 10.589 | 34.993 | 2 |
| 2025-05-16T15:42:00 | 56.637915 | 3.833297 | 2.0 | 10.363 | 2 | 38.618 | 10.554 | 34.998 | 2 |
| 2025-05-16T15:46:00 | 56.647590 | 3.833297 | 2.0 | 10.366 | 2 | 38.555 | 10.531 | 34.956 | 2 |
| 2025-05-16T15:47:00 | 56.650159 | 3.833349 | 2.0 | 10.371 | 2 | 38.331 | 10.539 | 34.722 | 2 |
| 2025-05-16T15:50:00 | 56.657224 | 3.833251 | 2.0 | 10.342 | 2 | 38.203 | 10.549 | 34.583 | 2 |
| 2025-05-16T15:51:00 | 56.659740 | 3.833341 | 2.0 | 10.331 | 2 | 38.466 | 10.515 | 34.881 | 2 |
| 2025-05-16T15:52:00 | 56.662198 | 3.833347 | 2.0 | 10.332 | 2 | 38.556 | 10.505 | 34.982 | 2 |
| 2025-05-16T15:53:00 | 56.664313 | 3.833347 | 2.0 | 10.324 | 2 | 38.567 | 10.506 | 34.992 | 2 |
| 2025-05-16T15:54:00 | 56.665467 | 3.833247 | 2.0 | 10.328 | 2 | 38.562 | 10.493 | 35.000 | 2 |
| 2025-05-16T15:55:00 | 56.666086 | 3.833190 | 2.0 | 10.335 | 2 | 38.560 | 10.499 | 34.992 | 2 |
| 2025-05-16T15:56:00 | 56.666255 | 3.833149 | 2.0 | 10.324 | 2 | 38.567 | 10.500 | 34.998 | 2 |
| 2025-05-16T15:57:00 | 56.666316 | 3.833131 | 2.0 | 10.327 | 2 | 38.562 | 10.490 | 35.003 | 2 |
| 2025-05-16T15:58:00 | 56.666382 | 3.833067 | 2.0 | 10.333 | 2 | 38.569 | 10.495 | 35.005 | 2 |
| 2025-05-16T15:59:00 | 56.666444 | 3.832996 | 2.0 | 10.341 | 2 | 38.571 | 10.502 | 35.000 | 2 |
| 2025-05-16T16:00:00 | 56.666421 | 3.832993 | 2.0 | 10.339 | 2 | 38.579 | 10.506 | 35.004 | 2 |
| 2025-05-16T16:01:00 | 56.666426 | 3.833039 | 2.0 | 10.330 | 2 | 38.577 | 10.504 | 35.004 | 2 |
| 2025-05-16T16:02:00 | 56.666450 | 3.833040 | 2.0 | 10.331 | 2 | 38.574 | 10.498 | 35.007 | 2 |
| 2025-05-16T16:03:00 | 56.666427 | 3.832989 | 2.0 | 10.331 | 2 | 38.574 | 10.498 | 35.007 | 2 |
| 2025-05-16T16:04:00 | 56.666437 | 3.832909 | 2.0 | 10.328 | 2 | 38.572 | 10.496 | 35.007 | 2 |
| 2025-05-16T16:05:00 | 56.666480 | 3.832775 | 2.0 | 10.329 | 2 | 38.572 | 10.497 | 35.006 | 2 |
| 2025-05-16T16:06:00 | 56.666484 | 3.832656 | 2.0 | 10.322 | 2 | 38.566 | 10.494 | 35.003 | 2 |
| 2025-05-16T16:07:00 | 56.666455 | 3.832536 | 2.0 | 10.319 | 2 | 38.562 | 10.488 | 35.004 | 2 |
| 2025-05-16T16:08:00 | 56.666380 | 3.832401 | 2.0 | 10.316 | 2 | 38.557 | 10.485 | 35.002 | 2 |
| 2025-05-16T16:09:00 | 56.666380 | 3.832268 | 2.0 | 10.305 | 2 | 38.557 | 10.479 | 35.008 | 2 |
| 2025-05-16T16:10:00 | 56.666363 | 3.832168 | 2.0 | 10.316 | 2 | 38.552 | 10.475 | 35.007 | 2 |
| 2025-05-16T16:11:00 | 56.666391 | 3.832101 | 2.0 | 10.319 | 2 | 38.559 | 10.483 | 35.006 | 2 |
| 2025-05-16T16:12:00 | 56.666396 | 3.832068 | 2.0 | 10.317 | 2 | 38.563 | 10.485 | 35.008 | 2 |
| 2025-05-16T16:13:00 | 56.666378 | 3.832063 | 2.0 | 10.318 | 2 | 38.561 | 10.483 | 35.008 | 2 |
| 2025-05-16T16:14:00 | 56.666346 | 3.832063 | 2.0 | 10.333 | 2 | 38.564 | 10.487 | 35.007 | 2 |
| 2025-05-16T16:15:00 | 56.666353 | 3.832029 | 2.0 | 10.350 | 2 | 38.577 | 10.500 | 35.008 | 2 |
| 2025-05-16T16:16:00 | 56.666390 | 3.831968 | 2.0 | 10.349 | 2 | 38.591 | 10.515 | 35.008 | 2 |
| 2025-05-16T16:17:00 | 56.666445 | 3.831919 | 2.0 | 10.353 | 2 | 38.593 | 10.516 | 35.009 | 2 |
| 2025-05-16T16:18:00 | 56.666506 | 3.831891 | 2.0 | 10.346 | 2 | 38.595 | 10.517 | 35.010 | 2 |
| 2025-05-16T16:19:00 | 56.666514 | 3.831823 | 2.0 | 10.339 | 2 | 38.589 | 10.511 | 35.010 | 2 |
| 2025-05-16T16:20:00 | 56.666489 | 3.831780 | 2.0 | 10.340 | 2 | 38.583 | 10.504 | 35.010 | 2 |
| 2025-05-16T16:21:00 | 56.666469 | 3.831758 | 2.0 | 10.344 | 2 | 38.584 | 10.508 | 35.007 | 2 |
| 2025-05-16T16:22:00 | 56.666453 | 3.831717 | 2.0 | 10.339 | 2 | 38.584 | 10.509 | 35.007 | 2 |
| 2025-05-16T16:23:00 | 56.666462 | 3.831647 | 2.0 | 10.334 | 2 | 38.582 | 10.505 | 35.008 | 2 |
| 2025-05-16T16:24:00 | 56.666430 | 3.831596 | 2.0 | 10.332 | 2 | 38.578 | 10.501 | 35.008 | 2 |
| 2025-05-16T16:25:00 | 56.666421 | 3.831556 | 2.0 | 10.323 | 2 | 38.575 | 10.496 | 35.010 | 2 |
| 2025-05-16T16:26:00 | 56.666468 | 3.831556 | 2.0 | 10.319 | 2 | 38.569 | 10.490 | 35.010 | 2 |
| 2025-05-16T16:27:00 | 56.666424 | 3.831610 | 2.0 | 10.326 | 2 | 38.566 | 10.488 | 35.008 | 2 |
| 2025-05-16T16:28:00 | 56.666430 | 3.831695 | 2.0 | 10.332 | 2 | 38.571 | 10.494 | 35.008 | 2 |
| 2025-05-16T16:29:00 | 56.666389 | 3.831719 | 2.0 | 10.331 | 2 | 38.574 | 10.498 | 35.007 | 2 |
| 2025-05-16T16:30:00 | 56.666393 | 3.831702 | 2.0 | 10.327 | 2 | 38.575 | 10.497 | 35.009 | 2 |
| 2025-05-16T16:31:00 | 56.666373 | 3.831623 | 2.0 | 10.319 | 2 | 38.569 | 10.494 | 35.006 | 2 |
| 2025-05-16T16:32:00 | 56.666365 | 3.831561 | 2.0 | 10.320 | 2 | 38.562 | 10.486 | 35.006 | 2 |
| 2025-05-16T16:33:00 | 56.666357 | 3.831564 | 2.0 | 10.324 | 2 | 38.564 | 10.488 | 35.006 | 2 |
| 2025-05-16T16:34:00 | 56.666340 | 3.831654 | 2.0 | 10.327 | 2 | 38.568 | 10.491 | 35.008 | 2 |
| 2025-05-16T16:35:00 | 56.666320 | 3.831732 | 2.0 | 10.335 | 2 | 38.573 | 10.495 | 35.009 | 2 |
| 2025-05-16T16:36:00 | 56.666338 | 3.831721 | 2.0 | 10.338 | 2 | 38.579 | 10.501 | 35.009 | 2 |
| 2025-05-16T16:37:00 | 56.666407 | 3.831673 | 2.0 | 10.339 | 2 | 38.583 | 10.504 | 35.010 | 2 |
| 2025-05-16T16:38:00 | 56.666464 | 3.831704 | 2.0 | 10.333 | 2 | 38.583 | 10.505 | 35.009 | 2 |
| 2025-05-16T16:39:00 | 56.666438 | 3.831790 | 2.0 | 10.329 | 2 | 38.578 | 10.500 | 35.009 | 2 |
| 2025-05-16T16:40:00 | 56.666415 | 3.831858 | 2.0 | 10.328 | 2 | 38.574 | 10.496 | 35.009 | 2 |
| 2025-05-16T16:41:00 | 56.666387 | 3.831916 | 2.0 | 10.325 | 2 | 38.573 | 10.495 | 35.009 | 2 |
| 2025-05-16T16:42:00 | 56.666392 | 3.831960 | 2.0 | 10.328 | 2 | 38.566 | 10.492 | 35.005 | 2 |
| 2025-05-16T16:43:00 | 56.666414 | 3.831995 | 2.0 | 10.335 | 2 | 38.574 | 10.498 | 35.007 | 2 |
| 2025-05-16T16:44:00 | 56.666406 | 3.832014 | 2.0 | 10.339 | 2 | 38.580 | 10.502 | 35.009 | 2 |
| 2025-05-16T16:45:00 | 56.666394 | 3.831958 | 2.0 | 10.346 | 2 | 38.585 | 10.507 | 35.009 | 2 |
| 2025-05-16T16:46:00 | 56.666379 | 3.831918 | 2.0 | 10.346 | 2 | 38.590 | 10.513 | 35.009 | 2 |
| 2025-05-16T16:47:00 | 56.666342 | 3.831941 | 2.0 | 10.339 | 2 | 38.584 | 10.511 | 35.005 | 2 |
| 2025-05-16T16:48:00 | 56.666311 | 3.832012 | 2.0 | 10.338 | 2 | 38.582 | 10.505 | 35.008 | 2 |
| 2025-05-16T16:49:00 | 56.666283 | 3.832157 | 2.0 | 10.335 | 2 | 38.583 | 10.505 | 35.009 | 2 |
| 2025-05-16T16:50:00 | 56.666271 | 3.832254 | 2.0 | 10.331 | 2 | 38.576 | 10.500 | 35.007 | 2 |
| 2025-05-16T16:51:00 | 56.666272 | 3.832337 | 2.0 | 10.336 | 2 | 38.576 | 10.499 | 35.008 | 2 |
| 2025-05-16T16:52:00 | 56.666257 | 3.832362 | 2.0 | 10.339 | 2 | 38.581 | 10.504 | 35.008 | 2 |
| 2025-05-16T16:53:00 | 56.666258 | 3.832364 | 2.0 | 10.335 | 2 | 38.584 | 10.506 | 35.009 | 2 |
| 2025-05-16T16:54:00 | 56.666268 | 3.832393 | 2.0 | 10.328 | 2 | 38.568 | 10.501 | 34.998 | 2 |
| 2025-05-16T16:55:00 | 56.666321 | 3.832417 | 2.0 | 10.328 | 2 | 38.570 | 10.496 | 35.005 | 2 |
| 2025-05-16T16:56:00 | 56.666339 | 3.832407 | 2.0 | 10.325 | 2 | 38.573 | 10.495 | 35.009 | 2 |
| 2025-05-16T16:57:00 | 56.666275 | 3.832419 | 2.0 | 10.320 | 2 | 38.570 | 10.491 | 35.010 | 2 |
| 2025-05-16T16:58:00 | 56.666283 | 3.832412 | 2.0 | 10.325 | 2 | 38.567 | 10.487 | 35.010 | 2 |
| 2025-05-16T16:59:00 | 56.666292 | 3.832363 | 2.0 | 10.329 | 2 | 38.571 | 10.492 | 35.010 | 2 |
| 2025-05-16T17:00:00 | 56.666287 | 3.832276 | 2.0 | 10.331 | 2 | 38.574 | 10.496 | 35.009 | 2 |
| 2025-05-16T17:01:00 | 56.666353 | 3.832162 | 2.0 | 10.331 | 2 | 38.575 | 10.496 | 35.010 | 2 |
| 2025-05-16T17:02:00 | 56.666389 | 3.832050 | 2.0 | 10.331 | 2 | 38.577 | 10.498 | 35.010 | 2 |
| 2025-05-16T17:03:00 | 56.666415 | 3.832028 | 2.0 | 10.334 | 2 | 38.578 | 10.498 | 35.011 | 2 |
| 2025-05-16T17:04:00 | 56.666470 | 3.832064 | 2.0 | 10.333 | 2 | 38.580 | 10.500 | 35.011 | 2 |
| 2025-05-16T17:05:00 | 56.666440 | 3.832050 | 2.0 | 10.332 | 2 | 38.579 | 10.500 | 35.010 | 2 |
| 2025-05-16T17:06:00 | 56.666387 | 3.831960 | 2.0 | 10.327 | 2 | 38.577 | 10.498 | 35.010 | 2 |
| 2025-05-16T17:07:00 | 56.666385 | 3.831999 | 2.0 | 10.323 | 2 | 38.572 | 10.492 | 35.011 | 2 |
| 2025-05-16T17:08:00 | 56.666376 | 3.832114 | 2.0 | 10.325 | 2 | 38.569 | 10.490 | 35.010 | 2 |
| 2025-05-16T17:09:00 | 56.666378 | 3.832139 | 2.0 | 10.329 | 2 | 38.571 | 10.492 | 35.010 | 2 |
| 2025-05-16T17:11:00 | 56.666372 | 3.832074 | 2.0 | 10.326 | 2 | 38.576 | 10.497 | 35.010 | 2 |
| 2025-05-16T17:12:00 | 56.666416 | 3.832111 | 2.0 | 10.322 | 2 | 38.502 | 10.493 | 34.939 | 2 |
| 2025-05-16T17:13:00 | 56.666476 | 3.832205 | 2.0 | 10.318 | 2 | 38.569 | 10.490 | 35.010 | 2 |
| 2025-05-16T17:14:00 | 56.666577 | 3.832294 | 2.0 | 10.317 | 2 | 38.174 | 10.484 | 34.616 | 2 |
| 2025-05-16T17:15:00 | 56.666659 | 3.832391 | 2.0 | 10.327 | 2 | 38.398 | 10.486 | 34.840 | 2 |
| 2025-05-16T17:16:00 | 56.666674 | 3.832460 | 2.0 | 10.337 | 2 | 38.574 | 10.496 | 35.009 | 2 |
| 2025-05-16T17:19:00 | 56.666572 | 3.832697 | 2.0 | 10.329 | 2 | 38.577 | 10.498 | 35.010 | 2 |
| 2025-05-16T17:20:00 | 56.666577 | 3.832800 | 2.0 | 10.339 | 2 | 38.186 | 10.497 | 34.616 | 2 |
| 2025-05-16T17:22:00 | 56.666698 | 3.832949 | 2.0 | 10.333 | 2 | 38.040 | 10.503 | 34.462 | 2 |
| 2025-05-16T17:23:00 | 56.666801 | 3.833069 | 2.0 | 10.332 | 2 | 38.536 | 10.499 | 34.968 | 2 |
| 2025-05-16T17:24:00 | 56.667027 | 3.833144 | 2.0 | 10.330 | 2 | 38.564 | 10.498 | 34.997 | 2 |
| 2025-05-16T17:25:00 | 56.667370 | 3.833238 | 2.0 | 10.333 | 2 | 38.290 | 10.495 | 34.723 | 2 |
| 2025-05-16T17:26:00 | 56.667968 | 3.833366 | 2.0 | 10.343 | 2 | 38.067 | 10.502 | 34.491 | 2 |
| 2025-05-16T17:27:00 | 56.668783 | 3.834075 | 2.0 | 10.335 | 2 | 38.532 | 10.507 | 34.956 | 2 |
| 2025-05-16T17:28:00 | 56.669462 | 3.836487 | 2.0 | 10.324 | 2 | 38.426 | 10.500 | 34.855 | 2 |
| 2025-05-16T17:34:00 | 56.674736 | 3.858914 | 2.0 | 10.290 | 2 | 38.093 | 10.460 | 34.557 | 2 |
| 2025-05-16T17:35:00 | 56.675745 | 3.863015 | 2.0 | 10.303 | 2 | 38.109 | 10.464 | 34.569 | 2 |
| 2025-05-16T17:36:00 | 56.676761 | 3.867089 | 2.0 | 10.319 | 2 | 38.099 | 10.475 | 34.549 | 2 |
| 2025-05-16T17:37:00 | 56.677712 | 3.871191 | 2.0 | 10.313 | 2 | 38.574 | 10.486 | 35.019 | 2 |
| 2025-05-16T17:40:00 | 56.680542 | 3.883160 | 2.0 | 10.297 | 2 | 38.295 | 10.474 | 34.748 | 2 |
| 2025-05-16T17:41:00 | 56.681567 | 3.887200 | 2.0 | 10.299 | 2 | 38.239 | 10.468 | 34.697 | 2 |
| 2025-05-16T17:42:00 | 56.682540 | 3.891236 | 2.0 | 10.321 | 2 | 38.213 | 10.471 | 34.668 | 2 |
| 2025-05-16T17:43:00 | 56.683332 | 3.895447 | 2.0 | 10.331 | 2 | 38.255 | 10.491 | 34.691 | 2 |
| 2025-05-16T17:44:00 | 56.683083 | 3.899985 | 2.0 | 10.346 | 2 | 38.285 | 10.503 | 34.710 | 2 |
| 2025-05-16T17:46:00 | 56.679919 | 3.907219 | 2.0 | 10.335 | 2 | 38.272 | 10.515 | 34.685 | 2 |
| 2025-05-16T17:47:00 | 56.677419 | 3.908598 | 2.0 | 10.329 | 2 | 38.262 | 10.505 | 34.685 | 2 |
| 2025-05-16T17:50:00 | 56.671233 | 3.908347 | 2.0 | 10.324 | 2 | 38.121 | 10.489 | 34.557 | 2 |
| 2025-05-16T17:51:00 | 56.669610 | 3.909039 | 2.0 | 10.320 | 2 | 38.129 | 10.490 | 34.565 | 2 |
| 2025-05-16T17:52:00 | 56.668014 | 3.909525 | 2.0 | 10.313 | 2 | 38.504 | 10.487 | 34.947 | 2 |
| 2025-05-16T17:53:00 | 56.666237 | 3.909280 | 2.0 | 10.316 | 2 | 38.234 | 10.480 | 34.680 | 2 |
| 2025-05-16T17:54:00 | 56.664297 | 3.909184 | 2.0 | 10.325 | 2 | 38.153 | 10.485 | 34.594 | 2 |
| 2025-05-16T17:55:00 | 56.662307 | 3.909366 | 2.0 | 10.326 | 2 | 38.158 | 10.492 | 34.592 | 2 |
| 2025-05-16T17:56:00 | 56.660234 | 3.909416 | 2.0 | 10.327 | 2 | 38.176 | 10.493 | 34.609 | 2 |
| 2025-05-16T17:57:00 | 56.658084 | 3.909359 | 2.0 | 10.337 | 2 | 38.193 | 10.495 | 34.624 | 2 |
| 2025-05-16T17:58:00 | 56.655913 | 3.909447 | 2.0 | 10.346 | 2 | 38.179 | 10.503 | 34.603 | 2 |
| 2025-05-16T17:59:00 | 56.653745 | 3.909394 | 2.0 | 10.359 | 2 | 38.154 | 10.516 | 34.565 | 2 |
| 2025-05-16T18:00:00 | 56.651567 | 3.909422 | 2.0 | 10.373 | 2 | 38.327 | 10.528 | 34.728 | 2 |
| 2025-05-16T18:01:00 | 56.649389 | 3.909450 | 2.0 | 10.384 | 2 | 38.191 | 10.540 | 34.580 | 2 |
| 2025-05-16T18:02:00 | 56.647166 | 3.909495 | 2.0 | 10.396 | 2 | 38.379 | 10.551 | 34.759 | 2 |
| 2025-05-16T18:03:00 | 56.644955 | 3.909469 | 2.0 | 10.405 | 2 | 38.317 | 10.564 | 34.684 | 2 |
| 2025-05-16T18:04:00 | 56.642733 | 3.909461 | 2.0 | 10.405 | 2 | 38.293 | 10.571 | 34.653 | 2 |
| 2025-05-16T18:05:00 | 56.640497 | 3.909370 | 2.0 | 10.403 | 2 | 38.352 | 10.570 | 34.714 | 2 |
| 2025-05-16T18:06:00 | 56.638268 | 3.909390 | 2.0 | 10.410 | 2 | 38.481 | 10.573 | 34.841 | 2 |
| 2025-05-16T18:07:00 | 56.636054 | 3.909494 | 2.0 | 10.417 | 2 | 38.555 | 10.577 | 34.912 | 2 |
| 2025-05-16T18:08:00 | 56.633846 | 3.909435 | 2.0 | 10.414 | 2 | 38.525 | 10.581 | 34.878 | 2 |
| 2025-05-16T18:09:00 | 56.631648 | 3.909444 | 2.0 | 10.419 | 2 | 38.495 | 10.582 | 34.847 | 2 |
| 2025-05-16T18:10:00 | 56.629467 | 3.909434 | 2.0 | 10.413 | 2 | 38.468 | 10.584 | 34.817 | 2 |
| 2025-05-16T18:11:00 | 56.627285 | 3.909404 | 2.0 | 10.409 | 2 | 38.558 | 10.579 | 34.913 | 2 |
| 2025-05-16T18:12:00 | 56.625102 | 3.909440 | 2.0 | 10.406 | 2 | 38.457 | 10.575 | 34.815 | 2 |
| 2025-05-16T18:13:00 | 56.622912 | 3.909445 | 2.0 | 10.406 | 2 | 38.533 | 10.573 | 34.893 | 2 |
| 2025-05-16T18:14:00 | 56.620688 | 3.909409 | 2.0 | 10.395 | 2 | 38.517 | 10.570 | 34.880 | 2 |
| 2025-05-16T18:15:00 | 56.618438 | 3.909392 | 2.0 | 10.393 | 2 | 38.541 | 10.562 | 34.912 | 2 |
| 2025-05-16T18:16:00 | 56.616207 | 3.909442 | 2.0 | 10.401 | 2 | 38.504 | 10.562 | 34.875 | 2 |
| 2025-05-16T18:17:00 | 56.613978 | 3.909448 | 2.0 | 10.412 | 2 | 38.549 | 10.569 | 34.913 | 2 |
| 2025-05-16T18:18:00 | 56.611738 | 3.909460 | 2.0 | 10.399 | 2 | 38.501 | 10.575 | 34.859 | 2 |
| 2025-05-16T18:19:00 | 56.609498 | 3.909515 | 2.0 | 10.387 | 2 | 38.528 | 10.563 | 34.898 | 2 |
| 2025-05-16T18:20:00 | 56.607267 | 3.909441 | 2.0 | 10.362 | 2 | 38.491 | 10.550 | 34.873 | 2 |
| 2025-05-16T18:21:00 | 56.605033 | 3.909425 | 2.0 | 10.347 | 2 | 38.513 | 10.529 | 34.915 | 2 |
| 2025-05-16T18:22:00 | 56.602806 | 3.909416 | 2.0 | 10.346 | 2 | 38.505 | 10.516 | 34.920 | 2 |
| 2025-05-16T18:23:00 | 56.600603 | 3.909506 | 2.0 | 10.346 | 2 | 38.474 | 10.514 | 34.890 | 2 |
| 2025-05-16T18:24:00 | 56.598366 | 3.909439 | 2.0 | 10.355 | 2 | 38.503 | 10.513 | 34.921 | 2 |
| 2025-05-16T18:25:00 | 56.596119 | 3.909501 | 2.0 | 10.367 | 2 | 38.516 | 10.525 | 34.922 | 2 |
| 2025-05-16T18:26:00 | 56.593846 | 3.909476 | 2.0 | 10.367 | 2 | 38.525 | 10.531 | 34.926 | 2 |
| 2025-05-16T18:27:00 | 56.591632 | 3.909465 | 2.0 | 10.377 | 2 | 38.513 | 10.537 | 34.908 | 2 |
| 2025-05-16T18:28:00 | 56.589414 | 3.909306 | 2.0 | 10.373 | 2 | 38.554 | 10.543 | 34.943 | 2 |
| 2025-05-16T18:29:00 | 56.587211 | 3.909367 | 2.0 | 10.375 | 2 | 38.562 | 10.541 | 34.953 | 2 |
| 2025-05-16T18:30:00 | 56.585014 | 3.909478 | 2.0 | 10.374 | 2 | 38.532 | 10.541 | 34.923 | 2 |
| 2025-05-16T18:31:00 | 56.582846 | 3.909506 | 2.0 | 10.369 | 2 | 38.539 | 10.541 | 34.930 | 2 |
| 2025-05-16T18:32:00 | 56.580675 | 3.909374 | 2.0 | 10.375 | 2 | 38.549 | 10.537 | 34.944 | 2 |
| 2025-05-16T18:33:00 | 56.578503 | 3.909408 | 2.0 | 10.389 | 2 | 38.556 | 10.545 | 34.944 | 2 |
| 2025-05-16T18:34:00 | 56.576345 | 3.909485 | 2.0 | 10.387 | 2 | 38.579 | 10.555 | 34.957 | 2 |
| 2025-05-16T18:35:00 | 56.574174 | 3.909468 | 2.0 | 10.382 | 2 | 38.574 | 10.553 | 34.954 | 2 |
| 2025-05-16T18:36:00 | 56.571997 | 3.909423 | 2.0 | 10.378 | 2 | 38.581 | 10.547 | 34.967 | 2 |
| 2025-05-16T18:37:00 | 56.569832 | 3.909470 | 2.0 | 10.370 | 2 | 38.578 | 10.543 | 34.968 | 2 |
| 2025-05-16T18:38:00 | 56.567661 | 3.909432 | 2.0 | 10.360 | 2 | 38.572 | 10.537 | 34.967 | 2 |
| 2025-05-16T18:39:00 | 56.565492 | 3.909415 | 2.0 | 10.360 | 2 | 38.570 | 10.528 | 34.974 | 2 |
| 2025-05-16T18:40:00 | 56.563337 | 3.909433 | 2.0 | 10.353 | 2 | 38.569 | 10.526 | 34.975 | 2 |
| 2025-05-16T18:41:00 | 56.561218 | 3.909497 | 2.0 | 10.359 | 2 | 38.566 | 10.520 | 34.978 | 2 |
| 2025-05-16T18:42:00 | 56.559099 | 3.909451 | 2.0 | 10.373 | 2 | 38.573 | 10.528 | 34.977 | 2 |
| 2025-05-16T18:43:00 | 56.556978 | 3.909398 | 2.0 | 10.391 | 2 | 38.586 | 10.542 | 34.977 | 2 |
| 2025-05-16T18:44:00 | 56.554847 | 3.909515 | 2.0 | 10.410 | 2 | 38.606 | 10.561 | 34.979 | 2 |
| 2025-05-16T18:45:00 | 56.552756 | 3.909474 | 2.0 | 10.423 | 2 | 38.623 | 10.577 | 34.981 | 2 |
| 2025-05-16T18:46:00 | 56.550594 | 3.909467 | 2.0 | 10.438 | 2 | 38.638 | 10.591 | 34.982 | 2 |
| 2025-05-16T18:47:00 | 56.548380 | 3.909456 | 2.0 | 10.449 | 2 | 38.653 | 10.606 | 34.983 | 2 |
| 2025-05-16T18:48:00 | 56.546128 | 3.909483 | 2.0 | 10.450 | 2 | 38.661 | 10.614 | 34.983 | 2 |
| 2025-05-16T18:49:00 | 56.543887 | 3.909460 | 2.0 | 10.449 | 2 | 38.664 | 10.615 | 34.985 | 2 |
| 2025-05-16T18:50:00 | 56.541614 | 3.909448 | 2.0 | 10.448 | 2 | 38.663 | 10.614 | 34.985 | 2 |
| 2025-05-16T18:51:00 | 56.539365 | 3.909410 | 2.0 | 10.451 | 2 | 38.663 | 10.615 | 34.984 | 2 |
| 2025-05-16T18:52:00 | 56.537132 | 3.909429 | 2.0 | 10.451 | 2 | 38.666 | 10.618 | 34.985 | 2 |
| 2025-05-16T18:53:00 | 56.534884 | 3.909425 | 2.0 | 10.448 | 2 | 38.666 | 10.617 | 34.986 | 2 |
| 2025-05-16T18:54:00 | 56.532630 | 3.909462 | 2.0 | 10.449 | 2 | 38.600 | 10.614 | 34.922 | 2 |
| 2025-05-16T18:55:00 | 56.530411 | 3.909537 | 2.0 | 10.453 | 2 | 38.665 | 10.616 | 34.986 | 2 |
| 2025-05-16T18:56:00 | 56.528165 | 3.909517 | 2.0 | 10.457 | 2 | 38.669 | 10.620 | 34.986 | 2 |
| 2025-05-16T18:57:00 | 56.525953 | 3.909479 | 2.0 | 10.453 | 2 | 38.538 | 10.622 | 34.852 | 2 |
| 2025-05-16T18:58:00 | 56.523703 | 3.909371 | 2.0 | 10.453 | 2 | 38.618 | 10.619 | 34.935 | 2 |
| 2025-05-16T18:59:00 | 56.521441 | 3.909390 | 2.0 | 10.454 | 2 | 38.479 | 10.619 | 34.795 | 2 |
| 2025-05-16T19:00:00 | 56.519173 | 3.909407 | 2.0 | 10.455 | 2 | 38.669 | 10.621 | 34.985 | 2 |
| 2025-05-16T19:01:00 | 56.516905 | 3.909431 | 2.0 | 10.461 | 2 | 38.670 | 10.622 | 34.985 | 2 |
| 2025-05-16T19:02:00 | 56.514651 | 3.909381 | 2.0 | 10.462 | 2 | 38.299 | 10.627 | 34.606 | 2 |
| 2025-05-16T19:03:00 | 56.512428 | 3.909284 | 2.0 | 10.470 | 2 | 38.676 | 10.629 | 34.984 | 2 |
| 2025-05-16T19:05:00 | 56.507933 | 3.909429 | 2.0 | 10.473 | 2 | 38.684 | 10.637 | 34.985 | 2 |
| 2025-05-16T19:06:00 | 56.505695 | 3.909400 | 2.0 | 10.471 | 2 | 38.634 | 10.639 | 34.932 | 2 |
| 2025-05-16T19:07:00 | 56.503464 | 3.909332 | 2.0 | 10.472 | 2 | 38.628 | 10.637 | 34.928 | 2 |
| 2025-05-16T19:08:00 | 56.501215 | 3.909375 | 2.0 | 10.477 | 2 | 38.230 | 10.638 | 34.526 | 2 |
| 2025-05-16T19:09:00 | 56.498957 | 3.909398 | 2.0 | 10.481 | 2 | 38.673 | 10.644 | 34.967 | 2 |
| 2025-05-16T19:10:00 | 56.496707 | 3.909475 | 2.0 | 10.493 | 2 | 38.400 | 10.650 | 34.686 | 2 |
| 2025-05-16T19:14:00 | 56.487752 | 3.909396 | 2.0 | 10.508 | 2 | 38.485 | 10.674 | 34.749 | 2 |
| 2025-05-16T19:15:00 | 56.485524 | 3.909398 | 2.0 | 10.513 | 2 | 38.477 | 10.674 | 34.741 | 2 |
| 2025-05-16T19:16:00 | 56.483245 | 3.909456 | 2.0 | 10.516 | 2 | 38.417 | 10.680 | 34.674 | 2 |
| 2025-05-16T19:17:00 | 56.480988 | 3.909379 | 2.0 | 10.520 | 2 | 38.389 | 10.683 | 34.643 | 2 |
| 2025-05-16T19:18:00 | 56.478760 | 3.909378 | 2.0 | 10.520 | 2 | 38.218 | 10.686 | 34.469 | 2 |
| 2025-05-16T19:19:00 | 56.476517 | 3.909386 | 2.0 | 10.524 | 2 | 38.322 | 10.686 | 34.573 | 2 |
| 2025-05-16T19:21:00 | 56.471991 | 3.909353 | 2.0 | 10.515 | 2 | 38.532 | 10.687 | 34.784 | 2 |
| 2025-05-16T19:23:00 | 56.467421 | 3.909447 | 2.0 | 10.507 | 2 | 38.452 | 10.680 | 34.710 | 2 |
| 2025-05-16T19:25:00 | 56.462914 | 3.909412 | 2.0 | 10.482 | 2 | 38.367 | 10.660 | 34.643 | 2 |
| 2025-05-16T19:26:00 | 56.460640 | 3.909370 | 2.0 | 10.465 | 2 | 38.330 | 10.646 | 34.619 | 2 |
| 2025-05-16T19:27:00 | 56.458366 | 3.909333 | 2.0 | 10.459 | 2 | 38.466 | 10.632 | 34.769 | 2 |
| 2025-05-16T19:28:00 | 56.456121 | 3.909434 | 2.0 | 10.452 | 2 | 38.364 | 10.625 | 34.673 | 2 |
| 2025-05-16T19:29:00 | 56.453888 | 3.909443 | 2.0 | 10.446 | 2 | 38.342 | 10.620 | 34.656 | 2 |
| 2025-05-16T19:30:00 | 56.451659 | 3.909411 | 2.0 | 10.430 | 2 | 38.359 | 10.609 | 34.684 | 2 |
| 2025-05-16T19:31:00 | 56.449442 | 3.909383 | 2.0 | 10.426 | 2 | 38.429 | 10.597 | 34.766 | 2 |
| 2025-05-16T19:32:00 | 56.447194 | 3.909422 | 2.0 | 10.417 | 2 | 38.321 | 10.592 | 34.661 | 2 |
| 2025-05-16T19:33:00 | 56.444912 | 3.909386 | 2.0 | 10.412 | 2 | 38.601 | 10.585 | 34.951 | 2 |
| 2025-05-16T19:34:00 | 56.442624 | 3.909364 | 2.0 | 10.405 | 2 | 38.342 | 10.579 | 34.695 | 2 |
| 2025-05-16T19:35:00 | 56.440355 | 3.909444 | 2.0 | 10.403 | 2 | 38.326 | 10.572 | 34.685 | 2 |
| 2025-05-16T19:36:00 | 56.438101 | 3.909448 | 2.0 | 10.401 | 2 | 38.306 | 10.570 | 34.667 | 2 |
| 2025-05-16T19:37:00 | 56.435882 | 3.909374 | 2.0 | 10.401 | 2 | 38.390 | 10.568 | 34.754 | 2 |
| 2025-05-16T19:38:00 | 56.433685 | 3.909404 | 2.0 | 10.415 | 2 | 38.259 | 10.571 | 34.619 | 2 |
| 2025-05-16T19:39:00 | 56.431450 | 3.909391 | 2.0 | 10.433 | 2 | 38.389 | 10.583 | 34.739 | 2 |
| 2025-05-16T19:40:00 | 56.429230 | 3.909454 | 2.0 | 10.443 | 2 | 38.424 | 10.601 | 34.757 | 2 |
| 2025-05-16T19:41:00 | 56.427003 | 3.909462 | 2.0 | 10.449 | 2 | 38.305 | 10.610 | 34.628 | 2 |
| 2025-05-16T19:42:00 | 56.424821 | 3.909349 | 2.0 | 10.453 | 2 | 38.339 | 10.616 | 34.657 | 2 |
| 2025-05-16T19:43:00 | 56.422650 | 3.909397 | 2.0 | 10.459 | 2 | 38.383 | 10.621 | 34.696 | 2 |
| 2025-05-16T19:44:00 | 56.420456 | 3.909387 | 2.0 | 10.457 | 2 | 38.370 | 10.624 | 34.680 | 2 |
| 2025-05-16T19:45:00 | 56.418263 | 3.909486 | 2.0 | 10.456 | 2 | 38.369 | 10.623 | 34.680 | 2 |
| 2025-05-16T19:46:00 | 56.416060 | 3.909523 | 2.0 | 10.456 | 2 | 38.463 | 10.622 | 34.776 | 2 |
| 2025-05-16T19:47:00 | 56.413863 | 3.909485 | 2.0 | 10.453 | 2 | 38.378 | 10.622 | 34.690 | 2 |
| 2025-05-16T19:48:00 | 56.411658 | 3.909457 | 2.0 | 10.454 | 2 | 38.381 | 10.621 | 34.694 | 2 |
| 2025-05-16T19:49:00 | 56.409439 | 3.909410 | 2.0 | 10.456 | 2 | 38.437 | 10.621 | 34.751 | 2 |
| 2025-05-16T19:50:00 | 56.407255 | 3.909359 | 2.0 | 10.456 | 2 | 38.417 | 10.622 | 34.730 | 2 |
| 2025-05-16T19:51:00 | 56.405074 | 3.909372 | 2.0 | 10.461 | 2 | 38.409 | 10.623 | 34.721 | 2 |
| 2025-05-16T19:52:00 | 56.402858 | 3.909355 | 2.0 | 10.466 | 2 | 38.426 | 10.628 | 34.733 | 2 |
| 2025-05-16T19:53:00 | 56.400651 | 3.909405 | 2.0 | 10.471 | 2 | 38.481 | 10.632 | 34.785 | 2 |
| 2025-05-16T19:54:00 | 56.398458 | 3.909324 | 2.0 | 10.476 | 2 | 38.472 | 10.638 | 34.770 | 2 |
| 2025-05-16T19:55:00 | 56.396272 | 3.909398 | 2.0 | 10.479 | 2 | 38.471 | 10.642 | 34.765 | 2 |
| 2025-05-16T19:56:00 | 56.394086 | 3.909393 | 2.0 | 10.486 | 2 | 38.495 | 10.646 | 34.785 | 2 |
| 2025-05-16T19:57:00 | 56.391848 | 3.909405 | 2.0 | 10.488 | 2 | 38.495 | 10.653 | 34.779 | 2 |
| 2025-05-16T19:58:00 | 56.389685 | 3.909474 | 2.0 | 10.497 | 2 | 38.519 | 10.655 | 34.801 | 2 |
| 2025-05-16T19:59:00 | 56.387516 | 3.909379 | 2.0 | 10.503 | 2 | 38.531 | 10.663 | 34.805 | 2 |
| 2025-05-16T20:00:00 | 56.385331 | 3.909394 | 2.0 | 10.510 | 2 | 38.529 | 10.670 | 34.797 | 2 |
| 2025-05-16T20:01:00 | 56.383137 | 3.909391 | 2.0 | 10.514 | 2 | 38.551 | 10.677 | 34.812 | 2 |
| 2025-05-16T20:02:00 | 56.380953 | 3.909361 | 2.0 | 10.519 | 2 | 38.575 | 10.680 | 34.834 | 2 |
| 2025-05-16T20:03:00 | 56.378749 | 3.909372 | 2.0 | 10.519 | 2 | 38.575 | 10.685 | 34.829 | 2 |
| 2025-05-16T20:04:00 | 56.376571 | 3.909398 | 2.0 | 10.514 | 2 | 38.606 | 10.684 | 34.861 | 2 |
| 2025-05-16T20:05:00 | 56.374400 | 3.909377 | 2.0 | 10.509 | 2 | 38.576 | 10.679 | 34.835 | 2 |
| 2025-05-16T20:06:00 | 56.372242 | 3.909348 | 2.0 | 10.508 | 2 | 38.569 | 10.675 | 34.832 | 2 |
| 2025-05-16T20:07:00 | 56.370061 | 3.909413 | 2.0 | 10.508 | 2 | 38.577 | 10.674 | 34.841 | 2 |
| 2025-05-16T20:08:00 | 56.367872 | 3.909506 | 2.0 | 10.506 | 2 | 38.592 | 10.673 | 34.857 | 2 |
| 2025-05-16T20:09:00 | 56.365708 | 3.909477 | 2.0 | 10.503 | 2 | 38.617 | 10.672 | 34.883 | 2 |
| 2025-05-16T20:10:00 | 56.363545 | 3.909436 | 2.0 | 10.504 | 2 | 38.626 | 10.669 | 34.895 | 2 |
| 2025-05-16T20:11:00 | 56.361355 | 3.909384 | 2.0 | 10.506 | 2 | 38.628 | 10.670 | 34.896 | 2 |
| 2025-05-16T20:12:00 | 56.359134 | 3.909424 | 2.0 | 10.510 | 2 | 38.615 | 10.673 | 34.880 | 2 |
| 2025-05-16T20:13:00 | 56.356928 | 3.909337 | 2.0 | 10.513 | 2 | 38.654 | 10.677 | 34.916 | 2 |
| 2025-05-16T20:14:00 | 56.354735 | 3.909351 | 2.0 | 10.512 | 2 | 38.638 | 10.678 | 34.899 | 2 |
| 2025-05-16T20:15:00 | 56.352508 | 3.909475 | 2.0 | 10.519 | 2 | 38.643 | 10.680 | 34.902 | 2 |
| 2025-05-16T20:16:00 | 56.350297 | 3.909444 | 2.0 | 10.524 | 2 | 38.666 | 10.686 | 34.919 | 2 |
| 2025-05-16T20:17:00 | 56.348083 | 3.909367 | 2.0 | 10.528 | 2 | 38.668 | 10.691 | 34.917 | 2 |
| 2025-05-16T20:18:00 | 56.345869 | 3.909330 | 2.0 | 10.531 | 2 | 38.681 | 10.695 | 34.926 | 2 |
| 2025-05-16T20:19:00 | 56.343644 | 3.909416 | 2.0 | 10.531 | 2 | 38.677 | 10.697 | 34.920 | 2 |
| 2025-05-16T20:20:00 | 56.341443 | 3.909311 | 2.0 | 10.533 | 2 | 38.678 | 10.698 | 34.920 | 2 |
| 2025-05-16T20:21:00 | 56.339267 | 3.909307 | 2.0 | 10.532 | 2 | 38.683 | 10.699 | 34.924 | 2 |
| 2025-05-16T20:22:00 | 56.337074 | 3.909444 | 2.0 | 10.533 | 2 | 38.684 | 10.699 | 34.925 | 2 |
| 2025-05-16T20:23:00 | 56.334862 | 3.909433 | 2.0 | 10.536 | 2 | 38.683 | 10.699 | 34.924 | 2 |
| 2025-05-16T20:24:00 | 56.332640 | 3.909363 | 2.0 | 10.536 | 2 | 38.695 | 10.702 | 34.933 | 2 |
| 2025-05-16T20:25:00 | 56.330434 | 3.909353 | 2.0 | 10.535 | 2 | 38.693 | 10.702 | 34.931 | 2 |
| 2025-05-16T20:26:00 | 56.328209 | 3.909323 | 2.0 | 10.534 | 2 | 38.697 | 10.701 | 34.936 | 2 |
| 2025-05-16T20:27:00 | 56.325984 | 3.909368 | 2.0 | 10.535 | 2 | 38.695 | 10.700 | 34.935 | 2 |
| 2025-05-16T20:28:00 | 56.323796 | 3.909414 | 2.0 | 10.532 | 2 | 38.696 | 10.701 | 34.935 | 2 |
| 2025-05-16T20:29:00 | 56.321618 | 3.909392 | 2.0 | 10.540 | 2 | 38.692 | 10.699 | 34.933 | 2 |
| 2025-05-16T20:30:00 | 56.319418 | 3.909365 | 2.0 | 10.550 | 2 | 38.700 | 10.707 | 34.934 | 2 |
| 2025-05-16T20:31:00 | 56.317182 | 3.909392 | 2.0 | 10.548 | 2 | 38.704 | 10.715 | 34.930 | 2 |
| 2025-05-16T20:32:00 | 56.314977 | 3.909469 | 2.0 | 10.538 | 2 | 38.704 | 10.713 | 34.932 | 2 |
| 2025-05-16T20:33:00 | 56.312761 | 3.909473 | 2.0 | 10.522 | 2 | 38.693 | 10.701 | 34.932 | 2 |
| 2025-05-16T20:34:00 | 56.310554 | 3.909436 | 2.0 | 10.519 | 2 | 38.680 | 10.689 | 34.931 | 2 |
| 2025-05-16T20:35:00 | 56.308348 | 3.909407 | 2.0 | 10.515 | 2 | 38.675 | 10.685 | 34.929 | 2 |
| 2025-05-16T20:36:00 | 56.306135 | 3.909405 | 2.0 | 10.515 | 2 | 38.670 | 10.681 | 34.928 | 2 |
| 2025-05-16T20:37:00 | 56.303960 | 3.909438 | 2.0 | 10.509 | 2 | 38.667 | 10.681 | 34.925 | 2 |
| 2025-05-16T20:38:00 | 56.301773 | 3.909375 | 2.0 | 10.501 | 2 | 38.662 | 10.674 | 34.927 | 2 |
| 2025-05-16T20:39:00 | 56.299559 | 3.909343 | 2.0 | 10.497 | 2 | 38.654 | 10.667 | 34.926 | 2 |
| 2025-05-16T20:40:00 | 56.297354 | 3.909394 | 2.0 | 10.500 | 2 | 38.652 | 10.665 | 34.925 | 2 |
| 2025-05-16T20:41:00 | 56.295125 | 3.909464 | 2.0 | 10.505 | 2 | 38.654 | 10.668 | 34.925 | 2 |
| 2025-05-16T20:42:00 | 56.292899 | 3.909364 | 2.0 | 10.511 | 2 | 38.657 | 10.673 | 34.923 | 2 |
| 2025-05-16T20:43:00 | 56.290681 | 3.909372 | 2.0 | 10.512 | 2 | 38.659 | 10.677 | 34.921 | 2 |
| 2025-05-16T20:44:00 | 56.288462 | 3.909397 | 2.0 | 10.514 | 2 | 38.655 | 10.678 | 34.916 | 2 |
| 2025-05-16T20:45:00 | 56.286246 | 3.909378 | 2.0 | 10.514 | 2 | 38.660 | 10.681 | 34.918 | 2 |
| 2025-05-16T20:46:00 | 56.284188 | 3.908379 | 2.0 | 10.508 | 2 | 38.649 | 10.678 | 34.910 | 2 |
| 2025-05-16T20:47:00 | 56.282773 | 3.905720 | 2.0 | 10.517 | 2 | 38.645 | 10.676 | 34.908 | 2 |
| 2025-05-16T20:48:00 | 56.282065 | 3.902333 | 2.0 | 10.523 | 2 | 38.659 | 10.685 | 34.913 | 2 |
| 2025-05-16T20:49:00 | 56.281586 | 3.898788 | 2.0 | 10.524 | 2 | 38.667 | 10.689 | 34.918 | 2 |
| 2025-05-16T20:50:00 | 56.280834 | 3.895330 | 2.0 | 10.530 | 2 | 38.669 | 10.690 | 34.919 | 2 |
| 2025-05-16T20:51:00 | 56.280192 | 3.891704 | 2.0 | 10.541 | 2 | 38.676 | 10.698 | 34.918 | 2 |
| 2025-05-16T20:52:00 | 56.279744 | 3.887972 | 2.0 | 10.545 | 2 | 38.686 | 10.708 | 34.919 | 2 |
| 2025-05-16T20:53:00 | 56.279291 | 3.884286 | 2.0 | 10.528 | 2 | 38.687 | 10.708 | 34.920 | 2 |
| 2025-05-16T20:54:00 | 56.278793 | 3.880594 | 2.0 | 10.522 | 2 | 38.675 | 10.693 | 34.922 | 2 |
| 2025-05-16T20:55:00 | 56.278274 | 3.876888 | 2.0 | 10.512 | 2 | 38.666 | 10.685 | 34.920 | 2 |
| 2025-05-16T20:56:00 | 56.277769 | 3.873170 | 2.0 | 10.518 | 2 | 38.659 | 10.681 | 34.917 | 2 |
| 2025-05-16T20:57:00 | 56.277310 | 3.869445 | 2.0 | 10.524 | 2 | 38.663 | 10.685 | 34.917 | 2 |
| 2025-05-16T20:58:00 | 56.276835 | 3.865712 | 2.0 | 10.520 | 2 | 38.665 | 10.688 | 34.916 | 2 |
| 2025-05-16T20:59:00 | 56.276351 | 3.861963 | 2.0 | 10.517 | 2 | 38.662 | 10.687 | 34.914 | 2 |
| 2025-05-16T21:00:00 | 56.275847 | 3.858229 | 2.0 | 10.522 | 2 | 38.657 | 10.682 | 34.914 | 2 |
| 2025-05-16T21:01:00 | 56.275383 | 3.854484 | 2.0 | 10.537 | 2 | 38.662 | 10.690 | 34.912 | 2 |
| 2025-05-16T21:02:00 | 56.274917 | 3.850747 | 2.0 | 10.549 | 2 | 38.674 | 10.704 | 34.910 | 2 |
| 2025-05-16T21:03:00 | 56.274426 | 3.847040 | 2.0 | 10.554 | 2 | 38.660 | 10.715 | 34.886 | 2 |
| 2025-05-16T21:04:00 | 56.273944 | 3.843298 | 2.0 | 10.557 | 2 | 38.689 | 10.719 | 34.911 | 2 |
| 2025-05-16T21:05:00 | 56.273484 | 3.839584 | 2.0 | 10.554 | 2 | 38.692 | 10.723 | 34.910 | 2 |
| 2025-05-16T21:06:00 | 56.273024 | 3.835886 | 2.0 | 10.558 | 2 | 38.688 | 10.720 | 34.909 | 2 |
| 2025-05-16T21:07:00 | 56.272589 | 3.832171 | 2.0 | 10.559 | 2 | 38.690 | 10.722 | 34.909 | 2 |
| 2025-05-16T21:08:00 | 56.272123 | 3.828479 | 2.0 | 10.566 | 2 | 38.686 | 10.726 | 34.901 | 2 |
| 2025-05-16T21:09:00 | 56.271642 | 3.824775 | 2.0 | 10.566 | 2 | 38.692 | 10.730 | 34.904 | 2 |
| 2025-05-16T21:10:00 | 56.271174 | 3.821050 | 2.0 | 10.562 | 2 | 38.698 | 10.731 | 34.909 | 2 |
| 2025-05-16T21:11:00 | 56.270671 | 3.817288 | 2.0 | 10.569 | 2 | 38.698 | 10.729 | 34.910 | 2 |
| 2025-05-16T21:15:00 | 56.268713 | 3.802263 | 2.0 | 10.581 | 2 | 38.713 | 10.744 | 34.911 | 2 |
| 2025-05-16T21:16:00 | 56.268274 | 3.798482 | 2.0 | 10.580 | 2 | 38.715 | 10.746 | 34.911 | 2 |
| 2025-05-16T21:17:00 | 56.267792 | 3.794711 | 2.0 | 10.573 | 2 | 38.378 | 10.745 | 34.574 | 2 |
| 2025-05-16T21:18:00 | 56.267274 | 3.790975 | 2.0 | 10.563 | 2 | 38.519 | 10.736 | 34.724 | 2 |
| 2025-05-16T21:22:00 | 56.265414 | 3.776070 | 2.0 | 10.549 | 2 | 38.452 | 10.719 | 34.673 | 2 |
| 2025-05-16T21:27:00 | 56.267624 | 3.760599 | 2.0 | 10.512 | 2 | 38.391 | 10.692 | 34.637 | 2 |
| 2025-05-16T21:33:00 | 56.277050 | 3.759285 | 2.0 | 10.499 | 2 | 38.613 | 10.665 | 34.886 | 2 |
| 2025-05-16T21:34:00 | 56.279219 | 3.759373 | 2.0 | 10.497 | 2 | 38.641 | 10.666 | 34.913 | 2 |
| 2025-05-16T21:35:00 | 56.281532 | 3.759385 | 2.0 | 10.488 | 2 | 38.643 | 10.662 | 34.919 | 2 |
| 2025-05-16T21:36:00 | 56.283748 | 3.759395 | 2.0 | 10.473 | 2 | 38.639 | 10.654 | 34.923 | 2 |
| 2025-05-16T21:37:00 | 56.285899 | 3.759325 | 2.0 | 10.467 | 2 | 38.628 | 10.642 | 34.923 | 2 |
| 2025-05-16T21:38:00 | 56.288061 | 3.759313 | 2.0 | 10.455 | 2 | 38.623 | 10.632 | 34.928 | 2 |
| 2025-05-16T21:39:00 | 56.290320 | 3.759267 | 2.0 | 10.452 | 2 | 38.617 | 10.623 | 34.930 | 2 |
| 2025-05-16T21:40:00 | 56.292643 | 3.759277 | 2.0 | 10.446 | 2 | 38.614 | 10.619 | 34.931 | 2 |
| 2025-05-16T21:41:00 | 56.294946 | 3.759361 | 2.0 | 10.446 | 2 | 38.611 | 10.615 | 34.932 | 2 |
| 2025-05-16T21:42:00 | 56.297337 | 3.759317 | 2.0 | 10.445 | 2 | 38.611 | 10.614 | 34.933 | 2 |
| 2025-05-16T21:44:00 | 56.301875 | 3.759338 | 2.0 | 10.440 | 2 | 38.598 | 10.609 | 34.925 | 2 |
| 2025-05-16T21:45:00 | 56.304204 | 3.759248 | 2.0 | 10.440 | 2 | 38.602 | 10.609 | 34.929 | 2 |
| 2025-05-16T21:46:00 | 56.306411 | 3.759352 | 2.0 | 10.435 | 2 | 38.602 | 10.607 | 34.931 | 2 |
| 2025-05-16T21:47:00 | 56.308633 | 3.759320 | 2.0 | 10.432 | 2 | 38.600 | 10.603 | 34.932 | 2 |
| 2025-05-16T21:48:00 | 56.310795 | 3.759348 | 2.0 | 10.423 | 2 | 38.598 | 10.598 | 34.935 | 2 |
| 2025-05-16T21:49:00 | 56.313071 | 3.759295 | 2.0 | 10.414 | 2 | 38.590 | 10.590 | 34.935 | 2 |
| 2025-05-16T21:50:00 | 56.315419 | 3.759342 | 2.0 | 10.404 | 2 | 38.582 | 10.581 | 34.935 | 2 |
| 2025-05-16T21:51:00 | 56.317706 | 3.759346 | 2.0 | 10.402 | 2 | 38.559 | 10.574 | 34.919 | 2 |
| 2025-05-16T21:52:00 | 56.319944 | 3.759259 | 2.0 | 10.400 | 2 | 38.556 | 10.570 | 34.920 | 2 |
| 2025-05-16T21:53:00 | 56.322254 | 3.759287 | 2.0 | 10.397 | 2 | 38.566 | 10.567 | 34.933 | 2 |
| 2025-05-16T21:54:00 | 56.324678 | 3.759275 | 2.0 | 10.391 | 2 | 38.559 | 10.564 | 34.928 | 2 |
| 2025-05-16T21:55:00 | 56.327046 | 3.759311 | 2.0 | 10.385 | 2 | 38.548 | 10.559 | 34.922 | 2 |
| 2025-05-16T21:56:00 | 56.329405 | 3.759270 | 2.0 | 10.388 | 2 | 38.542 | 10.555 | 34.920 | 2 |
| 2025-05-16T21:57:00 | 56.331722 | 3.759240 | 2.0 | 10.396 | 2 | 38.559 | 10.560 | 34.932 | 2 |
| 2025-05-16T21:58:00 | 56.333921 | 3.759297 | 2.0 | 10.404 | 2 | 38.567 | 10.565 | 34.936 | 2 |
| 2025-05-16T21:59:00 | 56.336042 | 3.759356 | 2.0 | 10.408 | 2 | 38.565 | 10.572 | 34.927 | 2 |
| 2025-05-16T22:00:00 | 56.338153 | 3.759263 | 2.0 | 10.411 | 2 | 38.569 | 10.576 | 34.927 | 2 |
| 2025-05-16T22:01:00 | 56.340253 | 3.759210 | 2.0 | 10.415 | 2 | 38.574 | 10.580 | 34.928 | 2 |
| 2025-05-16T22:02:00 | 56.342385 | 3.759168 | 2.0 | 10.417 | 2 | 38.580 | 10.582 | 34.932 | 2 |
| 2025-05-16T22:03:00 | 56.344608 | 3.759193 | 2.0 | 10.415 | 2 | 38.581 | 10.586 | 34.930 | 2 |
| 2025-05-16T22:04:00 | 56.346624 | 3.759253 | 2.0 | 10.413 | 2 | 38.572 | 10.582 | 34.924 | 2 |
| 2025-05-16T22:05:00 | 56.348675 | 3.759328 | 2.0 | 10.410 | 2 | 38.572 | 10.579 | 34.927 | 2 |
| 2025-05-16T22:06:00 | 56.350811 | 3.759285 | 2.0 | 10.409 | 2 | 38.579 | 10.577 | 34.936 | 2 |
| 2025-05-16T22:07:00 | 56.353065 | 3.759292 | 2.0 | 10.406 | 2 | 38.583 | 10.577 | 34.940 | 2 |
| 2025-05-16T22:08:00 | 56.355283 | 3.759293 | 2.0 | 10.408 | 2 | 38.584 | 10.574 | 34.944 | 2 |
| 2025-05-16T22:09:00 | 56.357383 | 3.759265 | 2.0 | 10.418 | 2 | 38.587 | 10.577 | 34.944 | 2 |
| 2025-05-16T22:10:00 | 56.359356 | 3.759208 | 2.0 | 10.424 | 2 | 38.567 | 10.588 | 34.913 | 2 |
| 2025-05-16T22:12:00 | 56.363317 | 3.759249 | 2.0 | 10.432 | 2 | 38.593 | 10.609 | 34.920 | 2 |
| 2025-05-16T22:13:00 | 56.365385 | 3.759280 | 2.0 | 10.427 | 2 | 38.595 | 10.601 | 34.929 | 2 |
| 2025-05-16T22:14:00 | 56.367475 | 3.759340 | 2.0 | 10.426 | 2 | 38.593 | 10.595 | 34.933 | 2 |
| 2025-05-16T22:15:00 | 56.369597 | 3.759281 | 2.0 | 10.420 | 2 | 38.596 | 10.592 | 34.939 | 2 |
| 2025-05-16T22:16:00 | 56.371765 | 3.759240 | 2.0 | 10.419 | 2 | 38.592 | 10.587 | 34.940 | 2 |
| 2025-05-16T22:17:00 | 56.373900 | 3.759272 | 2.0 | 10.412 | 2 | 38.593 | 10.584 | 34.944 | 2 |
| 2025-05-16T22:18:00 | 56.376089 | 3.759268 | 2.0 | 10.407 | 2 | 38.583 | 10.579 | 34.938 | 2 |
| 2025-05-16T22:19:00 | 56.378318 | 3.759257 | 2.0 | 10.401 | 2 | 38.577 | 10.573 | 34.938 | 2 |
| 2025-05-16T22:20:00 | 56.380564 | 3.759348 | 2.0 | 10.394 | 2 | 38.578 | 10.567 | 34.945 | 2 |
| 2025-05-16T22:21:00 | 56.382879 | 3.759314 | 2.0 | 10.382 | 2 | 38.572 | 10.558 | 34.947 | 2 |
| 2025-05-16T22:22:00 | 56.385206 | 3.759296 | 2.0 | 10.386 | 2 | 38.565 | 10.550 | 34.948 | 2 |
| 2025-05-16T22:23:00 | 56.387564 | 3.759316 | 2.0 | 10.388 | 2 | 38.568 | 10.552 | 34.949 | 2 |
| 2025-05-16T22:24:00 | 56.389841 | 3.759292 | 2.0 | 10.394 | 2 | 38.538 | 10.560 | 34.911 | 2 |
| 2025-05-16T22:26:00 | 56.394122 | 3.759279 | 2.0 | 10.402 | 2 | 38.565 | 10.567 | 34.932 | 2 |
| 2025-05-16T22:27:00 | 56.396255 | 3.759217 | 2.0 | 10.402 | 2 | 38.574 | 10.569 | 34.939 | 2 |
| 2025-05-16T22:28:00 | 56.398449 | 3.759226 | 2.0 | 10.405 | 2 | 38.576 | 10.570 | 34.940 | 2 |
| 2025-05-16T22:29:00 | 56.400620 | 3.759321 | 2.0 | 10.407 | 2 | 38.582 | 10.572 | 34.944 | 2 |
| 2025-05-16T22:30:00 | 56.402783 | 3.759300 | 2.0 | 10.409 | 2 | 38.585 | 10.573 | 34.946 | 2 |
| 2025-05-16T22:31:00 | 56.405020 | 3.759267 | 2.0 | 10.409 | 2 | 38.589 | 10.575 | 34.948 | 2 |
| 2025-05-16T22:32:00 | 56.407338 | 3.759264 | 2.0 | 10.412 | 2 | 38.588 | 10.577 | 34.945 | 2 |
| 2025-05-16T22:33:00 | 56.409460 | 3.759254 | 2.0 | 10.414 | 2 | 38.328 | 10.588 | 34.672 | 2 |
| 2025-05-16T22:34:00 | 56.411482 | 3.759292 | 2.0 | 10.413 | 2 | 38.576 | 10.580 | 34.930 | 2 |
| 2025-05-16T22:35:00 | 56.413668 | 3.759266 | 2.0 | 10.409 | 2 | 38.590 | 10.579 | 34.945 | 2 |
| 2025-05-16T22:36:00 | 56.415911 | 3.759305 | 2.0 | 10.399 | 2 | 38.588 | 10.573 | 34.949 | 2 |
| 2025-05-16T22:37:00 | 56.418102 | 3.759312 | 2.0 | 10.395 | 2 | 38.582 | 10.567 | 34.949 | 2 |
| 2025-05-16T22:38:00 | 56.420325 | 3.759253 | 2.0 | 10.392 | 2 | 38.579 | 10.563 | 34.950 | 2 |
| 2025-05-16T22:39:00 | 56.422486 | 3.759233 | 2.0 | 10.392 | 2 | 38.575 | 10.561 | 34.947 | 2 |
| 2025-05-16T22:40:00 | 56.424602 | 3.759264 | 2.0 | 10.392 | 2 | 38.568 | 10.559 | 34.942 | 2 |
| 2025-05-16T22:41:00 | 56.426664 | 3.759213 | 2.0 | 10.393 | 2 | 38.566 | 10.559 | 34.940 | 2 |
| 2025-05-16T22:42:00 | 56.428775 | 3.759267 | 2.0 | 10.393 | 2 | 38.571 | 10.559 | 34.945 | 2 |
| 2025-05-16T22:43:00 | 56.430928 | 3.759254 | 2.0 | 10.392 | 2 | 38.577 | 10.559 | 34.951 | 2 |
| 2025-05-16T22:44:00 | 56.433087 | 3.759232 | 2.0 | 10.390 | 2 | 38.568 | 10.558 | 34.943 | 2 |
| 2025-05-16T22:45:00 | 56.435192 | 3.759244 | 2.0 | 10.389 | 2 | 38.570 | 10.557 | 34.946 | 2 |
| 2025-05-16T22:46:00 | 56.437377 | 3.759216 | 2.0 | 10.386 | 2 | 38.568 | 10.556 | 34.945 | 2 |
| 2025-05-16T22:47:00 | 56.439495 | 3.759237 | 2.0 | 10.383 | 2 | 38.567 | 10.552 | 34.948 | 2 |
| 2025-05-16T22:48:00 | 56.441545 | 3.759273 | 2.0 | 10.379 | 2 | 38.567 | 10.550 | 34.950 | 2 |
| 2025-05-16T22:49:00 | 56.443586 | 3.759276 | 2.0 | 10.377 | 2 | 38.559 | 10.547 | 34.945 | 2 |
| 2025-05-16T22:50:00 | 56.445783 | 3.759213 | 2.0 | 10.377 | 2 | 38.567 | 10.544 | 34.956 | 2 |
| 2025-05-16T22:51:00 | 56.447992 | 3.759216 | 2.0 | 10.382 | 2 | 38.570 | 10.545 | 34.958 | 2 |
| 2025-05-16T22:52:00 | 56.450287 | 3.759236 | 2.0 | 10.383 | 2 | 38.575 | 10.550 | 34.958 | 2 |
| 2025-05-16T22:55:00 | 56.456831 | 3.759256 | 2.0 | 10.394 | 2 | 38.481 | 10.555 | 34.858 | 2 |
| 2025-05-16T23:00:00 | 56.467401 | 3.759236 | 2.0 | 10.424 | 2 | 38.526 | 10.591 | 34.869 | 2 |
| 2025-05-16T23:01:00 | 56.469689 | 3.759190 | 2.0 | 10.434 | 2 | 38.600 | 10.593 | 34.942 | 2 |
| 2025-05-16T23:02:00 | 56.471977 | 3.759225 | 2.0 | 10.440 | 2 | 38.615 | 10.601 | 34.949 | 2 |
| 2025-05-16T23:04:00 | 56.476049 | 3.759412 | 2.0 | 10.433 | 2 | 38.366 | 10.604 | 34.695 | 2 |
| 2025-05-16T23:05:00 | 56.478016 | 3.759366 | 2.0 | 10.427 | 2 | 38.614 | 10.599 | 34.950 | 2 |
| 2025-05-16T23:06:00 | 56.479922 | 3.759273 | 2.0 | 10.424 | 2 | 38.605 | 10.594 | 34.946 | 2 |
| 2025-05-16T23:07:00 | 56.481929 | 3.759222 | 2.0 | 10.423 | 2 | 38.615 | 10.589 | 34.961 | 2 |
| 2025-05-16T23:08:00 | 56.484024 | 3.759328 | 2.0 | 10.425 | 2 | 38.614 | 10.589 | 34.960 | 2 |
| 2025-05-16T23:09:00 | 56.486165 | 3.759330 | 2.0 | 10.425 | 2 | 38.617 | 10.591 | 34.961 | 2 |
| 2025-05-16T23:10:00 | 56.488421 | 3.759312 | 2.0 | 10.418 | 2 | 38.616 | 10.590 | 34.961 | 2 |
| 2025-05-16T23:11:00 | 56.490706 | 3.759236 | 2.0 | 10.414 | 2 | 38.611 | 10.584 | 34.962 | 2 |
| 2025-05-16T23:12:00 | 56.492937 | 3.759283 | 2.0 | 10.413 | 2 | 38.607 | 10.579 | 34.962 | 2 |
| 2025-05-16T23:13:00 | 56.495117 | 3.759379 | 2.0 | 10.408 | 2 | 38.606 | 10.578 | 34.962 | 2 |
| 2025-05-16T23:14:00 | 56.497338 | 3.759288 | 2.0 | 10.393 | 2 | 38.601 | 10.571 | 34.964 | 2 |
| 2025-05-16T23:15:00 | 56.499570 | 3.759223 | 2.0 | 10.389 | 2 | 38.589 | 10.559 | 34.963 | 2 |
| 2025-05-16T23:16:00 | 56.501825 | 3.759192 | 2.0 | 10.377 | 2 | 38.583 | 10.551 | 34.965 | 2 |
| 2025-05-16T23:17:00 | 56.504043 | 3.759256 | 2.0 | 10.382 | 2 | 38.576 | 10.545 | 34.964 | 2 |
| 2025-05-16T23:18:00 | 56.506240 | 3.759275 | 2.0 | 10.395 | 2 | 38.582 | 10.549 | 34.966 | 2 |
| 2025-05-16T23:19:00 | 56.508505 | 3.759225 | 2.0 | 10.404 | 2 | 38.594 | 10.562 | 34.966 | 2 |
| 2025-05-16T23:20:00 | 56.510580 | 3.759288 | 2.0 | 10.412 | 2 | 38.605 | 10.573 | 34.966 | 2 |
| 2025-05-16T23:21:00 | 56.512769 | 3.759243 | 2.0 | 10.417 | 2 | 38.614 | 10.578 | 34.971 | 2 |
| 2025-05-16T23:22:00 | 56.514938 | 3.759238 | 2.0 | 10.428 | 2 | 38.625 | 10.585 | 34.975 | 2 |
| 2025-05-16T23:23:00 | 56.517101 | 3.759256 | 2.0 | 10.442 | 2 | 38.637 | 10.595 | 34.977 | 2 |
| 2025-05-16T23:24:00 | 56.519210 | 3.759260 | 2.0 | 10.451 | 2 | 38.653 | 10.606 | 34.983 | 2 |
| 2025-05-16T23:25:00 | 56.521375 | 3.759198 | 2.0 | 10.462 | 2 | 38.666 | 10.617 | 34.986 | 2 |
| 2025-05-16T23:26:00 | 56.523662 | 3.759162 | 2.0 | 10.460 | 2 | 38.678 | 10.628 | 34.987 | 2 |
| 2025-05-16T23:27:00 | 56.525919 | 3.759243 | 2.0 | 10.442 | 2 | 38.669 | 10.622 | 34.984 | 2 |
| 2025-05-16T23:28:00 | 56.528170 | 3.759282 | 2.0 | 10.429 | 2 | 38.660 | 10.606 | 34.990 | 2 |
| 2025-05-16T23:29:00 | 56.530339 | 3.759294 | 2.0 | 10.426 | 2 | 38.652 | 10.594 | 34.994 | 2 |
| 2025-05-16T23:30:00 | 56.532494 | 3.759275 | 2.0 | 10.423 | 2 | 38.652 | 10.591 | 34.996 | 2 |
| 2025-05-16T23:31:00 | 56.534713 | 3.759269 | 2.0 | 10.418 | 2 | 38.651 | 10.589 | 34.997 | 2 |
| 2025-05-16T23:32:00 | 56.536966 | 3.759219 | 2.0 | 10.411 | 2 | 38.648 | 10.583 | 35.000 | 2 |
| 2025-05-16T23:33:00 | 56.539216 | 3.759215 | 2.0 | 10.402 | 2 | 38.635 | 10.576 | 34.994 | 2 |
| 2025-05-16T23:34:00 | 56.541465 | 3.759303 | 2.0 | 10.389 | 2 | 38.632 | 10.566 | 35.000 | 2 |
| 2025-05-16T23:35:00 | 56.543709 | 3.759262 | 2.0 | 10.382 | 2 | 38.621 | 10.554 | 35.001 | 2 |
| 2025-05-16T23:36:00 | 56.545924 | 3.759206 | 2.0 | 10.381 | 2 | 38.613 | 10.548 | 34.998 | 2 |
| 2025-05-16T23:37:00 | 56.548122 | 3.759266 | 2.0 | 10.377 | 2 | 38.613 | 10.546 | 35.000 | 2 |
| 2025-05-16T23:38:00 | 56.550373 | 3.759244 | 2.0 | 10.376 | 2 | 38.612 | 10.544 | 35.001 | 2 |
| 2025-05-16T23:39:00 | 56.552568 | 3.759185 | 2.0 | 10.375 | 2 | 38.611 | 10.542 | 35.002 | 2 |
| 2025-05-16T23:40:00 | 56.554811 | 3.759278 | 2.0 | 10.372 | 2 | 38.609 | 10.540 | 35.002 | 2 |
Only the first 2000 rows were shown. To view the complete dataset, download it as tab-delimited text. You can still view the full matrix in your browser, but be aware that this may crash the browser due to the huge size.
